<?xml version="1.0" encoding="UTF-8" standalone="no" ?>
<gpx xmlns="http://www.topografix.com/GPX/1/1" xmlns:xsi="http://www.w3.org/2001/XMLSchema-instance" xsi:schemaLocation="http://www.topografix.com/GPX/1/1 http://www.topografix.com/GPX/1/1/gpx.xsd" version="1.1" creator="VisuGPX - https://www.visugpx.com">
  <metadata>
    <name>Jura_Lac de Vouglans-belvédères et baignade sur différents spots</name>
  </metadata>
  <trk>
    <name><![CDATA[21-JUIL-22 02:38:05 PM]]></name>
    <extensions>
      <line xmlns="http://www.topografix.com/GPX/gpx_style/0/2">
        <color>0000FF</color>
        <width>4</width>
      </line>
    </extensions>
    <trkseg>
      <trkpt lat="46.46994" lon="5.68901">
        <ele>573.56</ele>
        <time>2022-07-21T07:07:06Z</time>
      </trkpt>
      <trkpt lat="46.46991" lon="5.68903">
        <ele>573.08</ele>
        <time>2022-07-21T07:07:30Z</time>
      </trkpt>
      <trkpt lat="46.46992" lon="5.68901">
        <ele>572.6</ele>
        <time>2022-07-21T07:08:02Z</time>
      </trkpt>
      <trkpt lat="46.46992" lon="5.68899">
        <ele>572.6</ele>
        <time>2022-07-21T07:08:27Z</time>
      </trkpt>
      <trkpt lat="46.46992" lon="5.68899">
        <ele>572.6</ele>
        <time>2022-07-21T07:09:01Z</time>
      </trkpt>
      <trkpt lat="46.46992" lon="5.68891">
        <ele>571.64</ele>
        <time>2022-07-21T07:09:39Z</time>
      </trkpt>
      <trkpt lat="46.46994" lon="5.68891">
        <ele>571.16</ele>
        <time>2022-07-21T07:10:09Z</time>
      </trkpt>
      <trkpt lat="46.46993" lon="5.68893">
        <ele>571.16</ele>
        <time>2022-07-21T07:10:46Z</time>
      </trkpt>
      <trkpt lat="46.4699" lon="5.68893">
        <ele>571.16</ele>
        <time>2022-07-21T07:10:49Z</time>
      </trkpt>
      <trkpt lat="46.46983" lon="5.6891">
        <ele>570.2</ele>
        <time>2022-07-21T07:11:06Z</time>
      </trkpt>
      <trkpt lat="46.46979" lon="5.68902">
        <ele>570.68</ele>
        <time>2022-07-21T07:11:17Z</time>
      </trkpt>
      <trkpt lat="46.46977" lon="5.68898">
        <ele>570.68</ele>
        <time>2022-07-21T07:11:31Z</time>
      </trkpt>
      <trkpt lat="46.46969" lon="5.68892">
        <ele>570.2</ele>
        <time>2022-07-21T07:11:49Z</time>
      </trkpt>
      <trkpt lat="46.46956" lon="5.68887">
        <ele>569.24</ele>
        <time>2022-07-21T07:12:01Z</time>
      </trkpt>
      <trkpt lat="46.46939" lon="5.6887">
        <ele>568.76</ele>
        <time>2022-07-21T07:12:17Z</time>
      </trkpt>
      <trkpt lat="46.46931" lon="5.68866">
        <ele>566.83</ele>
        <time>2022-07-21T07:12:27Z</time>
      </trkpt>
      <trkpt lat="46.46922" lon="5.68874">
        <ele>565.87</ele>
        <time>2022-07-21T07:12:33Z</time>
      </trkpt>
      <trkpt lat="46.46911" lon="5.6889">
        <ele>563.95</ele>
        <time>2022-07-21T07:12:45Z</time>
      </trkpt>
      <trkpt lat="46.46902" lon="5.68895">
        <ele>562.99</ele>
        <time>2022-07-21T07:12:55Z</time>
      </trkpt>
      <trkpt lat="46.46881" lon="5.6888">
        <ele>562.51</ele>
        <time>2022-07-21T07:13:13Z</time>
      </trkpt>
      <trkpt lat="46.4686" lon="5.68857">
        <ele>562.99</ele>
        <time>2022-07-21T07:13:33Z</time>
      </trkpt>
      <trkpt lat="46.46859" lon="5.68854">
        <ele>562.51</ele>
        <time>2022-07-21T07:13:35Z</time>
      </trkpt>
      <trkpt lat="46.46859" lon="5.68853">
        <ele>562.03</ele>
        <time>2022-07-21T07:13:37Z</time>
      </trkpt>
      <trkpt lat="46.46836" lon="5.68859">
        <ele>560.11</ele>
        <time>2022-07-21T07:13:54Z</time>
      </trkpt>
      <trkpt lat="46.46824" lon="5.68861">
        <ele>559.62</ele>
        <time>2022-07-21T07:14:07Z</time>
      </trkpt>
      <trkpt lat="46.46823" lon="5.68864">
        <ele>559.62</ele>
        <time>2022-07-21T07:14:23Z</time>
      </trkpt>
      <trkpt lat="46.46824" lon="5.68867">
        <ele>559.14</ele>
        <time>2022-07-21T07:14:37Z</time>
      </trkpt>
      <trkpt lat="46.46826" lon="5.68879">
        <ele>558.66</ele>
        <time>2022-07-21T07:14:44Z</time>
      </trkpt>
      <trkpt lat="46.46828" lon="5.68893">
        <ele>557.7</ele>
        <time>2022-07-21T07:14:51Z</time>
      </trkpt>
      <trkpt lat="46.46828" lon="5.68895">
        <ele>557.7</ele>
        <time>2022-07-21T07:14:52Z</time>
      </trkpt>
      <trkpt lat="46.46828" lon="5.68897">
        <ele>558.18</ele>
        <time>2022-07-21T07:14:53Z</time>
      </trkpt>
      <trkpt lat="46.46828" lon="5.68899">
        <ele>557.7</ele>
        <time>2022-07-21T07:14:54Z</time>
      </trkpt>
      <trkpt lat="46.46827" lon="5.68901">
        <ele>556.74</ele>
        <time>2022-07-21T07:15:01Z</time>
      </trkpt>
      <trkpt lat="46.46825" lon="5.68904">
        <ele>555.78</ele>
        <time>2022-07-21T07:15:03Z</time>
      </trkpt>
      <trkpt lat="46.46824" lon="5.68907">
        <ele>555.78</ele>
        <time>2022-07-21T07:15:04Z</time>
      </trkpt>
      <trkpt lat="46.46824" lon="5.68909">
        <ele>555.78</ele>
        <time>2022-07-21T07:15:05Z</time>
      </trkpt>
      <trkpt lat="46.46823" lon="5.68912">
        <ele>555.78</ele>
        <time>2022-07-21T07:15:06Z</time>
      </trkpt>
      <trkpt lat="46.46823" lon="5.68915">
        <ele>554.82</ele>
        <time>2022-07-21T07:15:07Z</time>
      </trkpt>
      <trkpt lat="46.46822" lon="5.68918">
        <ele>555.3</ele>
        <time>2022-07-21T07:15:08Z</time>
      </trkpt>
      <trkpt lat="46.46821" lon="5.6892">
        <ele>554.82</ele>
        <time>2022-07-21T07:15:09Z</time>
      </trkpt>
      <trkpt lat="46.46815" lon="5.68935">
        <ele>552.41</ele>
        <time>2022-07-21T07:15:22Z</time>
      </trkpt>
      <trkpt lat="46.46815" lon="5.68937">
        <ele>552.41</ele>
        <time>2022-07-21T07:15:23Z</time>
      </trkpt>
      <trkpt lat="46.46815" lon="5.68939">
        <ele>552.41</ele>
        <time>2022-07-21T07:15:24Z</time>
      </trkpt>
      <trkpt lat="46.46815" lon="5.68941">
        <ele>552.41</ele>
        <time>2022-07-21T07:15:25Z</time>
      </trkpt>
      <trkpt lat="46.46814" lon="5.68943">
        <ele>552.41</ele>
        <time>2022-07-21T07:15:26Z</time>
      </trkpt>
      <trkpt lat="46.46813" lon="5.68953">
        <ele>551.45</ele>
        <time>2022-07-21T07:15:34Z</time>
      </trkpt>
      <trkpt lat="46.46812" lon="5.68955">
        <ele>550.97</ele>
        <time>2022-07-21T07:15:36Z</time>
      </trkpt>
      <trkpt lat="46.46812" lon="5.68961">
        <ele>549.53</ele>
        <time>2022-07-21T07:15:48Z</time>
      </trkpt>
      <trkpt lat="46.46808" lon="5.68964">
        <ele>549.05</ele>
        <time>2022-07-21T07:15:59Z</time>
      </trkpt>
      <trkpt lat="46.46808" lon="5.68966">
        <ele>548.57</ele>
        <time>2022-07-21T07:16:00Z</time>
      </trkpt>
      <trkpt lat="46.46807" lon="5.68967">
        <ele>548.57</ele>
        <time>2022-07-21T07:16:01Z</time>
      </trkpt>
      <trkpt lat="46.46807" lon="5.68969">
        <ele>549.05</ele>
        <time>2022-07-21T07:16:02Z</time>
      </trkpt>
      <trkpt lat="46.46806" lon="5.68971">
        <ele>548.09</ele>
        <time>2022-07-21T07:16:03Z</time>
      </trkpt>
      <trkpt lat="46.468" lon="5.68983">
        <ele>546.17</ele>
        <time>2022-07-21T07:16:14Z</time>
      </trkpt>
      <trkpt lat="46.46799" lon="5.68991">
        <ele>544.24</ele>
        <time>2022-07-21T07:16:27Z</time>
      </trkpt>
      <trkpt lat="46.46797" lon="5.69005">
        <ele>542.32</ele>
        <time>2022-07-21T07:16:40Z</time>
      </trkpt>
      <trkpt lat="46.46796" lon="5.6901">
        <ele>541.36</ele>
        <time>2022-07-21T07:16:52Z</time>
      </trkpt>
      <trkpt lat="46.46793" lon="5.69011">
        <ele>540.4</ele>
        <time>2022-07-21T07:17:12Z</time>
      </trkpt>
      <trkpt lat="46.4679" lon="5.69019">
        <ele>537.99</ele>
        <time>2022-07-21T07:17:22Z</time>
      </trkpt>
      <trkpt lat="46.46788" lon="5.69022">
        <ele>536.55</ele>
        <time>2022-07-21T07:17:25Z</time>
      </trkpt>
      <trkpt lat="46.46777" lon="5.69025">
        <ele>533.19</ele>
        <time>2022-07-21T07:17:39Z</time>
      </trkpt>
      <trkpt lat="46.46776" lon="5.69026">
        <ele>533.19</ele>
        <time>2022-07-21T07:17:40Z</time>
      </trkpt>
      <trkpt lat="46.46765" lon="5.69033">
        <ele>529.82</ele>
        <time>2022-07-21T07:17:51Z</time>
      </trkpt>
      <trkpt lat="46.46751" lon="5.69037">
        <ele>526.94</ele>
        <time>2022-07-21T07:18:03Z</time>
      </trkpt>
      <trkpt lat="46.46747" lon="5.69038">
        <ele>526.46</ele>
        <time>2022-07-21T07:18:07Z</time>
      </trkpt>
      <trkpt lat="46.46736" lon="5.69036">
        <ele>523.58</ele>
        <time>2022-07-21T07:18:19Z</time>
      </trkpt>
      <trkpt lat="46.4673" lon="5.69039">
        <ele>521.65</ele>
        <time>2022-07-21T07:18:26Z</time>
      </trkpt>
      <trkpt lat="46.46716" lon="5.69038">
        <ele>519.25</ele>
        <time>2022-07-21T07:18:41Z</time>
      </trkpt>
      <trkpt lat="46.46706" lon="5.69048">
        <ele>517.33</ele>
        <time>2022-07-21T07:18:52Z</time>
      </trkpt>
      <trkpt lat="46.46692" lon="5.69053">
        <ele>514.44</ele>
        <time>2022-07-21T07:19:08Z</time>
      </trkpt>
      <trkpt lat="46.46683" lon="5.6906">
        <ele>512.04</ele>
        <time>2022-07-21T07:19:15Z</time>
      </trkpt>
      <trkpt lat="46.46675" lon="5.6907">
        <ele>508.67</ele>
        <time>2022-07-21T07:19:27Z</time>
      </trkpt>
      <trkpt lat="46.46666" lon="5.69077">
        <ele>504.83</ele>
        <time>2022-07-21T07:19:41Z</time>
      </trkpt>
      <trkpt lat="46.46655" lon="5.69088">
        <ele>500.98</ele>
        <time>2022-07-21T07:19:58Z</time>
      </trkpt>
      <trkpt lat="46.46648" lon="5.69088">
        <ele>498.1</ele>
        <time>2022-07-21T07:20:11Z</time>
      </trkpt>
      <trkpt lat="46.46641" lon="5.69087">
        <ele>496.66</ele>
        <time>2022-07-21T07:20:23Z</time>
      </trkpt>
      <trkpt lat="46.46638" lon="5.69079">
        <ele>493.29</ele>
        <time>2022-07-21T07:20:39Z</time>
      </trkpt>
      <trkpt lat="46.46634" lon="5.69073">
        <ele>490.89</ele>
        <time>2022-07-21T07:20:49Z</time>
      </trkpt>
      <trkpt lat="46.46626" lon="5.69066">
        <ele>488.49</ele>
        <time>2022-07-21T07:21:04Z</time>
      </trkpt>
      <trkpt lat="46.46619" lon="5.69061">
        <ele>486.56</ele>
        <time>2022-07-21T07:21:21Z</time>
      </trkpt>
      <trkpt lat="46.46612" lon="5.6905">
        <ele>484.64</ele>
        <time>2022-07-21T07:21:38Z</time>
      </trkpt>
      <trkpt lat="46.46612" lon="5.69051">
        <ele>484.64</ele>
        <time>2022-07-21T07:21:47Z</time>
      </trkpt>
      <trkpt lat="46.46611" lon="5.69059">
        <ele>484.16</ele>
        <time>2022-07-21T07:21:56Z</time>
      </trkpt>
      <trkpt lat="46.46612" lon="5.69067">
        <ele>484.64</ele>
        <time>2022-07-21T07:22:10Z</time>
      </trkpt>
      <trkpt lat="46.4661" lon="5.69076">
        <ele>484.64</ele>
        <time>2022-07-21T07:22:24Z</time>
      </trkpt>
      <trkpt lat="46.46608" lon="5.69077">
        <ele>484.16</ele>
        <time>2022-07-21T07:22:26Z</time>
      </trkpt>
      <trkpt lat="46.46605" lon="5.69087">
        <ele>483.2</ele>
        <time>2022-07-21T07:22:33Z</time>
      </trkpt>
      <trkpt lat="46.466" lon="5.69099">
        <ele>483.2</ele>
        <time>2022-07-21T07:22:45Z</time>
      </trkpt>
      <trkpt lat="46.46593" lon="5.69104">
        <ele>481.76</ele>
        <time>2022-07-21T07:23:01Z</time>
      </trkpt>
      <trkpt lat="46.46596" lon="5.6911">
        <ele>479.35</ele>
        <time>2022-07-21T07:23:29Z</time>
      </trkpt>
      <trkpt lat="46.46596" lon="5.69117">
        <ele>476.47</ele>
        <time>2022-07-21T07:23:41Z</time>
      </trkpt>
      <trkpt lat="46.46589" lon="5.69124">
        <ele>473.11</ele>
        <time>2022-07-21T07:23:51Z</time>
      </trkpt>
      <trkpt lat="46.46586" lon="5.69131">
        <ele>470.22</ele>
        <time>2022-07-21T07:24:01Z</time>
      </trkpt>
      <trkpt lat="46.46583" lon="5.69142">
        <ele>466.86</ele>
        <time>2022-07-21T07:24:11Z</time>
      </trkpt>
      <trkpt lat="46.46582" lon="5.69162">
        <ele>464.45</ele>
        <time>2022-07-21T07:24:25Z</time>
      </trkpt>
      <trkpt lat="46.46587" lon="5.69187">
        <ele>461.57</ele>
        <time>2022-07-21T07:24:39Z</time>
      </trkpt>
      <trkpt lat="46.46586" lon="5.69201">
        <ele>460.13</ele>
        <time>2022-07-21T07:24:56Z</time>
      </trkpt>
      <trkpt lat="46.46586" lon="5.69204">
        <ele>460.13</ele>
        <time>2022-07-21T07:24:59Z</time>
      </trkpt>
      <trkpt lat="46.46578" lon="5.69207">
        <ele>458.69</ele>
        <time>2022-07-21T07:25:13Z</time>
      </trkpt>
      <trkpt lat="46.46572" lon="5.69198">
        <ele>457.72</ele>
        <time>2022-07-21T07:25:18Z</time>
      </trkpt>
      <trkpt lat="46.46569" lon="5.69194">
        <ele>457.24</ele>
        <time>2022-07-21T07:25:22Z</time>
      </trkpt>
      <trkpt lat="46.46558" lon="5.69186">
        <ele>456.28</ele>
        <time>2022-07-21T07:25:32Z</time>
      </trkpt>
      <trkpt lat="46.46552" lon="5.69185">
        <ele>456.76</ele>
        <time>2022-07-21T07:25:36Z</time>
      </trkpt>
      <trkpt lat="46.46546" lon="5.69184">
        <ele>456.28</ele>
        <time>2022-07-21T07:25:43Z</time>
      </trkpt>
      <trkpt lat="46.46535" lon="5.69185">
        <ele>454.36</ele>
        <time>2022-07-21T07:25:55Z</time>
      </trkpt>
      <trkpt lat="46.46524" lon="5.69182">
        <ele>453.88</ele>
        <time>2022-07-21T07:26:06Z</time>
      </trkpt>
      <trkpt lat="46.46514" lon="5.69182">
        <ele>452.44</ele>
        <time>2022-07-21T07:26:19Z</time>
      </trkpt>
      <trkpt lat="46.46515" lon="5.69182">
        <ele>452.44</ele>
        <time>2022-07-21T07:26:25Z</time>
      </trkpt>
      <trkpt lat="46.4651" lon="5.69172">
        <ele>452.44</ele>
        <time>2022-07-21T07:26:34Z</time>
      </trkpt>
      <trkpt lat="46.46505" lon="5.6917">
        <ele>452.44</ele>
        <time>2022-07-21T07:26:47Z</time>
      </trkpt>
      <trkpt lat="46.46505" lon="5.69169">
        <ele>452.44</ele>
        <time>2022-07-21T07:27:04Z</time>
      </trkpt>
      <trkpt lat="46.46505" lon="5.69164">
        <ele>451.96</ele>
        <time>2022-07-21T07:27:16Z</time>
      </trkpt>
      <trkpt lat="46.46505" lon="5.6916">
        <ele>452.44</ele>
        <time>2022-07-21T07:27:30Z</time>
      </trkpt>
      <trkpt lat="46.46505" lon="5.69152">
        <ele>451.48</ele>
        <time>2022-07-21T07:27:44Z</time>
      </trkpt>
      <trkpt lat="46.46503" lon="5.69138">
        <ele>452.92</ele>
        <time>2022-07-21T07:27:57Z</time>
      </trkpt>
      <trkpt lat="46.46499" lon="5.69126">
        <ele>453.4</ele>
        <time>2022-07-21T07:28:11Z</time>
      </trkpt>
      <trkpt lat="46.46495" lon="5.69122">
        <ele>453.4</ele>
        <time>2022-07-21T07:28:17Z</time>
      </trkpt>
      <trkpt lat="46.46493" lon="5.69119">
        <ele>453.88</ele>
        <time>2022-07-21T07:28:20Z</time>
      </trkpt>
      <trkpt lat="46.46486" lon="5.69108">
        <ele>453.4</ele>
        <time>2022-07-21T07:28:31Z</time>
      </trkpt>
      <trkpt lat="46.46481" lon="5.69094">
        <ele>452.92</ele>
        <time>2022-07-21T07:28:43Z</time>
      </trkpt>
      <trkpt lat="46.46478" lon="5.69091">
        <ele>452.92</ele>
        <time>2022-07-21T07:28:55Z</time>
      </trkpt>
      <trkpt lat="46.46477" lon="5.69083">
        <ele>453.4</ele>
        <time>2022-07-21T07:29:06Z</time>
      </trkpt>
      <trkpt lat="46.46474" lon="5.69079">
        <ele>452.44</ele>
        <time>2022-07-21T07:29:25Z</time>
      </trkpt>
      <trkpt lat="46.46476" lon="5.69078">
        <ele>452.44</ele>
        <time>2022-07-21T07:29:43Z</time>
      </trkpt>
      <trkpt lat="46.46476" lon="5.69077">
        <ele>452.44</ele>
        <time>2022-07-21T07:29:44Z</time>
      </trkpt>
      <trkpt lat="46.46476" lon="5.69074">
        <ele>452.92</ele>
        <time>2022-07-21T07:29:47Z</time>
      </trkpt>
      <trkpt lat="46.46475" lon="5.69068">
        <ele>453.4</ele>
        <time>2022-07-21T07:29:55Z</time>
      </trkpt>
      <trkpt lat="46.46473" lon="5.69049">
        <ele>453.4</ele>
        <time>2022-07-21T07:30:09Z</time>
      </trkpt>
      <trkpt lat="46.4647" lon="5.69046">
        <ele>452.92</ele>
        <time>2022-07-21T07:30:23Z</time>
      </trkpt>
      <trkpt lat="46.46474" lon="5.69037">
        <ele>453.4</ele>
        <time>2022-07-21T07:30:40Z</time>
      </trkpt>
      <trkpt lat="46.46478" lon="5.69027">
        <ele>453.4</ele>
        <time>2022-07-21T07:30:51Z</time>
      </trkpt>
      <trkpt lat="46.46481" lon="5.69024">
        <ele>453.4</ele>
        <time>2022-07-21T07:30:57Z</time>
      </trkpt>
      <trkpt lat="46.46486" lon="5.6902">
        <ele>453.88</ele>
        <time>2022-07-21T07:31:10Z</time>
      </trkpt>
      <trkpt lat="46.46487" lon="5.69016">
        <ele>452.92</ele>
        <time>2022-07-21T07:31:23Z</time>
      </trkpt>
      <trkpt lat="46.46488" lon="5.69014">
        <ele>452.44</ele>
        <time>2022-07-21T07:31:52Z</time>
      </trkpt>
      <trkpt lat="46.46484" lon="5.69009">
        <ele>452.44</ele>
        <time>2022-07-21T07:32:21Z</time>
      </trkpt>
      <trkpt lat="46.46487" lon="5.69013">
        <ele>452.92</ele>
        <time>2022-07-21T07:32:43Z</time>
      </trkpt>
      <trkpt lat="46.46506" lon="5.69013">
        <ele>454.84</ele>
        <time>2022-07-21T07:32:57Z</time>
      </trkpt>
      <trkpt lat="46.46512" lon="5.69015">
        <ele>454.84</ele>
        <time>2022-07-21T07:33:05Z</time>
      </trkpt>
      <trkpt lat="46.46519" lon="5.69008">
        <ele>456.28</ele>
        <time>2022-07-21T07:33:19Z</time>
      </trkpt>
      <trkpt lat="46.46514" lon="5.69002">
        <ele>457.24</ele>
        <time>2022-07-21T07:33:34Z</time>
      </trkpt>
      <trkpt lat="46.46502" lon="5.68996">
        <ele>456.76</ele>
        <time>2022-07-21T07:33:52Z</time>
      </trkpt>
      <trkpt lat="46.46498" lon="5.69002">
        <ele>456.28</ele>
        <time>2022-07-21T07:34:07Z</time>
      </trkpt>
      <trkpt lat="46.46497" lon="5.69004">
        <ele>456.28</ele>
        <time>2022-07-21T07:34:11Z</time>
      </trkpt>
      <trkpt lat="46.46498" lon="5.68997">
        <ele>477.91</ele>
        <time>2022-07-21T07:43:15Z</time>
      </trkpt>
      <trkpt lat="46.46516" lon="5.68962">
        <ele>473.11</ele>
        <time>2022-07-21T07:43:27Z</time>
      </trkpt>
      <trkpt lat="46.46514" lon="5.68957">
        <ele>469.26</ele>
        <time>2022-07-21T07:43:31Z</time>
      </trkpt>
      <trkpt lat="46.46511" lon="5.68953">
        <ele>467.34</ele>
        <time>2022-07-21T07:43:34Z</time>
      </trkpt>
      <trkpt lat="46.46511" lon="5.68953">
        <ele>463.97</ele>
        <time>2022-07-21T07:43:38Z</time>
      </trkpt>
      <trkpt lat="46.4651" lon="5.68953">
        <ele>462.53</ele>
        <time>2022-07-21T07:43:40Z</time>
      </trkpt>
      <trkpt lat="46.4651" lon="5.68953">
        <ele>459.65</ele>
        <time>2022-07-21T07:43:44Z</time>
      </trkpt>
      <trkpt lat="46.46506" lon="5.68948">
        <ele>455.8</ele>
        <time>2022-07-21T07:43:50Z</time>
      </trkpt>
      <trkpt lat="46.46505" lon="5.68946">
        <ele>454.36</ele>
        <time>2022-07-21T07:43:52Z</time>
      </trkpt>
      <trkpt lat="46.46501" lon="5.68944">
        <ele>452.92</ele>
        <time>2022-07-21T07:43:55Z</time>
      </trkpt>
      <trkpt lat="46.46499" lon="5.68941">
        <ele>451.48</ele>
        <time>2022-07-21T07:43:57Z</time>
      </trkpt>
      <trkpt lat="46.465" lon="5.68934">
        <ele>450.52</ele>
        <time>2022-07-21T07:44:07Z</time>
      </trkpt>
      <trkpt lat="46.46501" lon="5.68925">
        <ele>448.11</ele>
        <time>2022-07-21T07:44:18Z</time>
      </trkpt>
      <trkpt lat="46.46504" lon="5.68923">
        <ele>447.15</ele>
        <time>2022-07-21T07:44:22Z</time>
      </trkpt>
      <trkpt lat="46.46508" lon="5.68919">
        <ele>447.63</ele>
        <time>2022-07-21T07:44:27Z</time>
      </trkpt>
      <trkpt lat="46.46511" lon="5.68911">
        <ele>446.67</ele>
        <time>2022-07-21T07:44:35Z</time>
      </trkpt>
      <trkpt lat="46.46508" lon="5.68901">
        <ele>446.67</ele>
        <time>2022-07-21T07:44:44Z</time>
      </trkpt>
      <trkpt lat="46.46507" lon="5.68899">
        <ele>446.67</ele>
        <time>2022-07-21T07:44:46Z</time>
      </trkpt>
      <trkpt lat="46.46504" lon="5.68891">
        <ele>445.23</ele>
        <time>2022-07-21T07:44:52Z</time>
      </trkpt>
      <trkpt lat="46.46495" lon="5.68874">
        <ele>445.23</ele>
        <time>2022-07-21T07:45:08Z</time>
      </trkpt>
      <trkpt lat="46.46485" lon="5.68861">
        <ele>446.19</ele>
        <time>2022-07-21T07:45:21Z</time>
      </trkpt>
      <trkpt lat="46.46479" lon="5.68844">
        <ele>447.63</ele>
        <time>2022-07-21T07:45:35Z</time>
      </trkpt>
      <trkpt lat="46.46463" lon="5.68824">
        <ele>447.63</ele>
        <time>2022-07-21T07:45:51Z</time>
      </trkpt>
      <trkpt lat="46.46446" lon="5.68811">
        <ele>446.19</ele>
        <time>2022-07-21T07:46:07Z</time>
      </trkpt>
      <trkpt lat="46.46429" lon="5.68802">
        <ele>446.19</ele>
        <time>2022-07-21T07:46:22Z</time>
      </trkpt>
      <trkpt lat="46.46418" lon="5.68793">
        <ele>446.19</ele>
        <time>2022-07-21T07:46:33Z</time>
      </trkpt>
      <trkpt lat="46.46402" lon="5.68784">
        <ele>446.67</ele>
        <time>2022-07-21T07:46:47Z</time>
      </trkpt>
      <trkpt lat="46.46388" lon="5.68774">
        <ele>446.67</ele>
        <time>2022-07-21T07:47:01Z</time>
      </trkpt>
      <trkpt lat="46.46373" lon="5.68771">
        <ele>447.15</ele>
        <time>2022-07-21T07:47:15Z</time>
      </trkpt>
      <trkpt lat="46.46358" lon="5.68763">
        <ele>447.63</ele>
        <time>2022-07-21T07:47:30Z</time>
      </trkpt>
      <trkpt lat="46.46342" lon="5.68754">
        <ele>448.11</ele>
        <time>2022-07-21T07:47:44Z</time>
      </trkpt>
      <trkpt lat="46.46328" lon="5.68749">
        <ele>449.55</ele>
        <time>2022-07-21T07:48:00Z</time>
      </trkpt>
      <trkpt lat="46.46317" lon="5.68744">
        <ele>450.52</ele>
        <time>2022-07-21T07:48:10Z</time>
      </trkpt>
      <trkpt lat="46.46303" lon="5.68746">
        <ele>452.44</ele>
        <time>2022-07-21T07:48:23Z</time>
      </trkpt>
      <trkpt lat="46.46288" lon="5.68741">
        <ele>453.4</ele>
        <time>2022-07-21T07:48:38Z</time>
      </trkpt>
      <trkpt lat="46.46272" lon="5.68735">
        <ele>453.88</ele>
        <time>2022-07-21T07:48:51Z</time>
      </trkpt>
      <trkpt lat="46.46269" lon="5.68726">
        <ele>454.36</ele>
        <time>2022-07-21T07:49:00Z</time>
      </trkpt>
      <trkpt lat="46.46268" lon="5.6871">
        <ele>454.36</ele>
        <time>2022-07-21T07:49:13Z</time>
      </trkpt>
      <trkpt lat="46.46278" lon="5.68685">
        <ele>455.8</ele>
        <time>2022-07-21T07:49:30Z</time>
      </trkpt>
      <trkpt lat="46.4628" lon="5.6867">
        <ele>456.28</ele>
        <time>2022-07-21T07:49:41Z</time>
      </trkpt>
      <trkpt lat="46.46284" lon="5.68654">
        <ele>456.76</ele>
        <time>2022-07-21T07:49:52Z</time>
      </trkpt>
      <trkpt lat="46.46294" lon="5.68645">
        <ele>458.69</ele>
        <time>2022-07-21T07:50:07Z</time>
      </trkpt>
      <trkpt lat="46.46297" lon="5.68645">
        <ele>458.69</ele>
        <time>2022-07-21T07:50:09Z</time>
      </trkpt>
      <trkpt lat="46.46306" lon="5.68649">
        <ele>459.65</ele>
        <time>2022-07-21T07:50:22Z</time>
      </trkpt>
      <trkpt lat="46.46312" lon="5.68653">
        <ele>460.61</ele>
        <time>2022-07-21T07:50:29Z</time>
      </trkpt>
      <trkpt lat="46.46326" lon="5.68664">
        <ele>463.01</ele>
        <time>2022-07-21T07:50:45Z</time>
      </trkpt>
      <trkpt lat="46.46344" lon="5.68665">
        <ele>463.97</ele>
        <time>2022-07-21T07:51:00Z</time>
      </trkpt>
      <trkpt lat="46.4636" lon="5.68666">
        <ele>466.86</ele>
        <time>2022-07-21T07:51:15Z</time>
      </trkpt>
      <trkpt lat="46.4637" lon="5.68658">
        <ele>467.82</ele>
        <time>2022-07-21T07:51:21Z</time>
      </trkpt>
      <trkpt lat="46.46375" lon="5.68654">
        <ele>469.26</ele>
        <time>2022-07-21T07:51:26Z</time>
      </trkpt>
      <trkpt lat="46.46378" lon="5.68653">
        <ele>469.26</ele>
        <time>2022-07-21T07:51:31Z</time>
      </trkpt>
      <trkpt lat="46.46394" lon="5.68642">
        <ele>469.74</ele>
        <time>2022-07-21T07:51:47Z</time>
      </trkpt>
      <trkpt lat="46.46409" lon="5.6863">
        <ele>471.18</ele>
        <time>2022-07-21T07:52:05Z</time>
      </trkpt>
      <trkpt lat="46.4642" lon="5.68626">
        <ele>473.59</ele>
        <time>2022-07-21T07:52:20Z</time>
      </trkpt>
      <trkpt lat="46.46431" lon="5.68617">
        <ele>476.47</ele>
        <time>2022-07-21T07:52:34Z</time>
      </trkpt>
      <trkpt lat="46.4644" lon="5.68608">
        <ele>479.35</ele>
        <time>2022-07-21T07:52:48Z</time>
      </trkpt>
      <trkpt lat="46.46451" lon="5.68596">
        <ele>480.32</ele>
        <time>2022-07-21T07:53:03Z</time>
      </trkpt>
      <trkpt lat="46.46461" lon="5.68579">
        <ele>479.84</ele>
        <time>2022-07-21T07:53:14Z</time>
      </trkpt>
      <trkpt lat="46.46464" lon="5.68572">
        <ele>478.87</ele>
        <time>2022-07-21T07:53:20Z</time>
      </trkpt>
      <trkpt lat="46.46466" lon="5.68558">
        <ele>477.91</ele>
        <time>2022-07-21T07:53:29Z</time>
      </trkpt>
      <trkpt lat="46.46467" lon="5.68532">
        <ele>478.39</ele>
        <time>2022-07-21T07:53:47Z</time>
      </trkpt>
      <trkpt lat="46.46455" lon="5.68518">
        <ele>480.32</ele>
        <time>2022-07-21T07:54:03Z</time>
      </trkpt>
      <trkpt lat="46.46441" lon="5.68511">
        <ele>481.28</ele>
        <time>2022-07-21T07:54:14Z</time>
      </trkpt>
      <trkpt lat="46.46429" lon="5.68503">
        <ele>480.32</ele>
        <time>2022-07-21T07:54:26Z</time>
      </trkpt>
      <trkpt lat="46.46419" lon="5.68488">
        <ele>481.28</ele>
        <time>2022-07-21T07:54:41Z</time>
      </trkpt>
      <trkpt lat="46.46404" lon="5.68472">
        <ele>481.28</ele>
        <time>2022-07-21T07:54:57Z</time>
      </trkpt>
      <trkpt lat="46.46394" lon="5.68457">
        <ele>480.32</ele>
        <time>2022-07-21T07:55:10Z</time>
      </trkpt>
      <trkpt lat="46.46389" lon="5.68445">
        <ele>479.84</ele>
        <time>2022-07-21T07:55:19Z</time>
      </trkpt>
      <trkpt lat="46.46388" lon="5.6842">
        <ele>478.39</ele>
        <time>2022-07-21T07:55:32Z</time>
      </trkpt>
      <trkpt lat="46.4639" lon="5.68412">
        <ele>477.91</ele>
        <time>2022-07-21T07:55:37Z</time>
      </trkpt>
      <trkpt lat="46.46405" lon="5.68394">
        <ele>478.87</ele>
        <time>2022-07-21T07:55:56Z</time>
      </trkpt>
      <trkpt lat="46.46414" lon="5.68383">
        <ele>478.39</ele>
        <time>2022-07-21T07:56:07Z</time>
      </trkpt>
      <trkpt lat="46.46423" lon="5.68375">
        <ele>477.43</ele>
        <time>2022-07-21T07:56:17Z</time>
      </trkpt>
      <trkpt lat="46.46427" lon="5.68365">
        <ele>477.43</ele>
        <time>2022-07-21T07:56:21Z</time>
      </trkpt>
      <trkpt lat="46.46433" lon="5.68356">
        <ele>476.47</ele>
        <time>2022-07-21T07:56:30Z</time>
      </trkpt>
      <trkpt lat="46.46436" lon="5.6835">
        <ele>475.99</ele>
        <time>2022-07-21T07:56:34Z</time>
      </trkpt>
      <trkpt lat="46.46438" lon="5.68346">
        <ele>475.99</ele>
        <time>2022-07-21T07:56:36Z</time>
      </trkpt>
      <trkpt lat="46.46452" lon="5.68329">
        <ele>474.55</ele>
        <time>2022-07-21T07:56:50Z</time>
      </trkpt>
      <trkpt lat="46.46465" lon="5.68311">
        <ele>474.07</ele>
        <time>2022-07-21T07:57:03Z</time>
      </trkpt>
      <trkpt lat="46.46477" lon="5.68294">
        <ele>474.55</ele>
        <time>2022-07-21T07:57:17Z</time>
      </trkpt>
      <trkpt lat="46.46484" lon="5.68285">
        <ele>475.51</ele>
        <time>2022-07-21T07:57:26Z</time>
      </trkpt>
      <trkpt lat="46.46498" lon="5.68277">
        <ele>475.99</ele>
        <time>2022-07-21T07:57:39Z</time>
      </trkpt>
      <trkpt lat="46.46503" lon="5.68275">
        <ele>476.47</ele>
        <time>2022-07-21T07:57:45Z</time>
      </trkpt>
      <trkpt lat="46.46518" lon="5.6827">
        <ele>478.87</ele>
        <time>2022-07-21T07:58:01Z</time>
      </trkpt>
      <trkpt lat="46.46534" lon="5.68261">
        <ele>480.32</ele>
        <time>2022-07-21T07:58:14Z</time>
      </trkpt>
      <trkpt lat="46.4654" lon="5.68261">
        <ele>479.35</ele>
        <time>2022-07-21T07:58:20Z</time>
      </trkpt>
      <trkpt lat="46.46557" lon="5.68261">
        <ele>478.87</ele>
        <time>2022-07-21T07:58:33Z</time>
      </trkpt>
      <trkpt lat="46.46574" lon="5.68256">
        <ele>480.32</ele>
        <time>2022-07-21T07:58:50Z</time>
      </trkpt>
      <trkpt lat="46.46577" lon="5.68253">
        <ele>480.8</ele>
        <time>2022-07-21T07:58:53Z</time>
      </trkpt>
      <trkpt lat="46.46596" lon="5.68246">
        <ele>480.8</ele>
        <time>2022-07-21T07:59:10Z</time>
      </trkpt>
      <trkpt lat="46.46615" lon="5.68241">
        <ele>480.8</ele>
        <time>2022-07-21T07:59:27Z</time>
      </trkpt>
      <trkpt lat="46.46627" lon="5.68252">
        <ele>480.8</ele>
        <time>2022-07-21T07:59:49Z</time>
      </trkpt>
      <trkpt lat="46.46631" lon="5.68236">
        <ele>481.28</ele>
        <time>2022-07-21T07:59:56Z</time>
      </trkpt>
      <trkpt lat="46.46644" lon="5.68226">
        <ele>481.28</ele>
        <time>2022-07-21T08:00:06Z</time>
      </trkpt>
      <trkpt lat="46.46652" lon="5.68219">
        <ele>480.32</ele>
        <time>2022-07-21T08:00:13Z</time>
      </trkpt>
      <trkpt lat="46.46669" lon="5.68205">
        <ele>481.76</ele>
        <time>2022-07-21T08:00:29Z</time>
      </trkpt>
      <trkpt lat="46.4669" lon="5.6819">
        <ele>482.24</ele>
        <time>2022-07-21T08:00:43Z</time>
      </trkpt>
      <trkpt lat="46.46703" lon="5.68181">
        <ele>481.76</ele>
        <time>2022-07-21T08:00:56Z</time>
      </trkpt>
      <trkpt lat="46.46717" lon="5.68174">
        <ele>482.24</ele>
        <time>2022-07-21T08:01:08Z</time>
      </trkpt>
      <trkpt lat="46.4674" lon="5.68164">
        <ele>481.76</ele>
        <time>2022-07-21T08:01:23Z</time>
      </trkpt>
      <trkpt lat="46.4676" lon="5.68152">
        <ele>480.32</ele>
        <time>2022-07-21T08:01:36Z</time>
      </trkpt>
      <trkpt lat="46.46774" lon="5.6814">
        <ele>478.87</ele>
        <time>2022-07-21T08:01:48Z</time>
      </trkpt>
      <trkpt lat="46.46802" lon="5.68129">
        <ele>477.43</ele>
        <time>2022-07-21T08:02:03Z</time>
      </trkpt>
      <trkpt lat="46.46814" lon="5.6812">
        <ele>477.91</ele>
        <time>2022-07-21T08:02:14Z</time>
      </trkpt>
      <trkpt lat="46.46824" lon="5.68113">
        <ele>480.32</ele>
        <time>2022-07-21T08:02:22Z</time>
      </trkpt>
      <trkpt lat="46.46844" lon="5.68098">
        <ele>481.76</ele>
        <time>2022-07-21T08:02:39Z</time>
      </trkpt>
      <trkpt lat="46.46853" lon="5.6809">
        <ele>483.2</ele>
        <time>2022-07-21T08:02:49Z</time>
      </trkpt>
      <trkpt lat="46.4687" lon="5.68085">
        <ele>484.16</ele>
        <time>2022-07-21T08:03:03Z</time>
      </trkpt>
      <trkpt lat="46.46881" lon="5.68079">
        <ele>486.08</ele>
        <time>2022-07-21T08:03:16Z</time>
      </trkpt>
      <trkpt lat="46.46895" lon="5.6807">
        <ele>488.01</ele>
        <time>2022-07-21T08:03:30Z</time>
      </trkpt>
      <trkpt lat="46.46912" lon="5.68063">
        <ele>488.97</ele>
        <time>2022-07-21T08:03:44Z</time>
      </trkpt>
      <trkpt lat="46.46929" lon="5.68058">
        <ele>490.89</ele>
        <time>2022-07-21T08:03:58Z</time>
      </trkpt>
      <trkpt lat="46.46953" lon="5.6805">
        <ele>491.85</ele>
        <time>2022-07-21T08:04:12Z</time>
      </trkpt>
      <trkpt lat="46.46964" lon="5.68046">
        <ele>494.26</ele>
        <time>2022-07-21T08:04:25Z</time>
      </trkpt>
      <trkpt lat="46.46965" lon="5.68045">
        <ele>494.26</ele>
        <time>2022-07-21T08:04:26Z</time>
      </trkpt>
      <trkpt lat="46.46967" lon="5.68044">
        <ele>493.77</ele>
        <time>2022-07-21T08:04:27Z</time>
      </trkpt>
      <trkpt lat="46.46983" lon="5.68041">
        <ele>495.22</ele>
        <time>2022-07-21T08:04:40Z</time>
      </trkpt>
      <trkpt lat="46.46989" lon="5.68038">
        <ele>496.66</ele>
        <time>2022-07-21T08:04:46Z</time>
      </trkpt>
      <trkpt lat="46.4699" lon="5.68036">
        <ele>496.66</ele>
        <time>2022-07-21T08:04:47Z</time>
      </trkpt>
      <trkpt lat="46.46992" lon="5.68035">
        <ele>496.66</ele>
        <time>2022-07-21T08:04:48Z</time>
      </trkpt>
      <trkpt lat="46.46993" lon="5.68035">
        <ele>497.14</ele>
        <time>2022-07-21T08:04:49Z</time>
      </trkpt>
      <trkpt lat="46.47008" lon="5.68032">
        <ele>499.06</ele>
        <time>2022-07-21T08:05:03Z</time>
      </trkpt>
      <trkpt lat="46.47017" lon="5.68023">
        <ele>498.58</ele>
        <time>2022-07-21T08:05:14Z</time>
      </trkpt>
      <trkpt lat="46.47019" lon="5.68022">
        <ele>499.06</ele>
        <time>2022-07-21T08:05:15Z</time>
      </trkpt>
      <trkpt lat="46.47036" lon="5.68013">
        <ele>498.58</ele>
        <time>2022-07-21T08:05:27Z</time>
      </trkpt>
      <trkpt lat="46.47053" lon="5.68003">
        <ele>499.54</ele>
        <time>2022-07-21T08:05:42Z</time>
      </trkpt>
      <trkpt lat="46.47072" lon="5.67992">
        <ele>500.5</ele>
        <time>2022-07-21T08:05:56Z</time>
      </trkpt>
      <trkpt lat="46.47081" lon="5.67989">
        <ele>500.98</ele>
        <time>2022-07-21T08:06:03Z</time>
      </trkpt>
      <trkpt lat="46.47095" lon="5.67978">
        <ele>500.02</ele>
        <time>2022-07-21T08:06:14Z</time>
      </trkpt>
      <trkpt lat="46.4711" lon="5.67966">
        <ele>500.02</ele>
        <time>2022-07-21T08:06:28Z</time>
      </trkpt>
      <trkpt lat="46.47122" lon="5.67955">
        <ele>500.02</ele>
        <time>2022-07-21T08:06:41Z</time>
      </trkpt>
      <trkpt lat="46.47136" lon="5.6795">
        <ele>500.02</ele>
        <time>2022-07-21T08:06:54Z</time>
      </trkpt>
      <trkpt lat="46.47153" lon="5.67937">
        <ele>500.02</ele>
        <time>2022-07-21T08:07:09Z</time>
      </trkpt>
      <trkpt lat="46.47154" lon="5.67936">
        <ele>500.02</ele>
        <time>2022-07-21T08:07:10Z</time>
      </trkpt>
      <trkpt lat="46.47172" lon="5.67925">
        <ele>500.98</ele>
        <time>2022-07-21T08:07:25Z</time>
      </trkpt>
      <trkpt lat="46.47175" lon="5.67921">
        <ele>500.5</ele>
        <time>2022-07-21T08:07:28Z</time>
      </trkpt>
      <trkpt lat="46.47191" lon="5.67912">
        <ele>500.5</ele>
        <time>2022-07-21T08:07:41Z</time>
      </trkpt>
      <trkpt lat="46.47212" lon="5.67899">
        <ele>501.46</ele>
        <time>2022-07-21T08:07:56Z</time>
      </trkpt>
      <trkpt lat="46.47222" lon="5.67891">
        <ele>501.46</ele>
        <time>2022-07-21T08:08:05Z</time>
      </trkpt>
      <trkpt lat="46.47223" lon="5.6789">
        <ele>500.98</ele>
        <time>2022-07-21T08:08:06Z</time>
      </trkpt>
      <trkpt lat="46.47239" lon="5.67884">
        <ele>502.43</ele>
        <time>2022-07-21T08:08:20Z</time>
      </trkpt>
      <trkpt lat="46.47254" lon="5.67877">
        <ele>503.39</ele>
        <time>2022-07-21T08:08:35Z</time>
      </trkpt>
      <trkpt lat="46.47257" lon="5.67877">
        <ele>502.91</ele>
        <time>2022-07-21T08:08:57Z</time>
      </trkpt>
      <trkpt lat="46.47269" lon="5.67867">
        <ele>500.98</ele>
        <time>2022-07-21T08:09:12Z</time>
      </trkpt>
      <trkpt lat="46.47287" lon="5.67851">
        <ele>499.54</ele>
        <time>2022-07-21T08:09:28Z</time>
      </trkpt>
      <trkpt lat="46.473" lon="5.6784">
        <ele>499.54</ele>
        <time>2022-07-21T08:09:41Z</time>
      </trkpt>
      <trkpt lat="46.47303" lon="5.67837">
        <ele>499.54</ele>
        <time>2022-07-21T08:09:43Z</time>
      </trkpt>
      <trkpt lat="46.47314" lon="5.67831">
        <ele>499.54</ele>
        <time>2022-07-21T08:09:53Z</time>
      </trkpt>
      <trkpt lat="46.47332" lon="5.67825">
        <ele>500.02</ele>
        <time>2022-07-21T08:10:08Z</time>
      </trkpt>
      <trkpt lat="46.47334" lon="5.67824">
        <ele>499.54</ele>
        <time>2022-07-21T08:10:09Z</time>
      </trkpt>
      <trkpt lat="46.47345" lon="5.67812">
        <ele>498.58</ele>
        <time>2022-07-21T08:10:22Z</time>
      </trkpt>
      <trkpt lat="46.47349" lon="5.67797">
        <ele>498.1</ele>
        <time>2022-07-21T08:10:32Z</time>
      </trkpt>
      <trkpt lat="46.47354" lon="5.67798">
        <ele>497.62</ele>
        <time>2022-07-21T08:10:41Z</time>
      </trkpt>
      <trkpt lat="46.47354" lon="5.67797">
        <ele>497.62</ele>
        <time>2022-07-21T08:10:42Z</time>
      </trkpt>
      <trkpt lat="46.47359" lon="5.67792">
        <ele>496.18</ele>
        <time>2022-07-21T08:10:50Z</time>
      </trkpt>
      <trkpt lat="46.4736" lon="5.67791">
        <ele>496.18</ele>
        <time>2022-07-21T08:10:51Z</time>
      </trkpt>
      <trkpt lat="46.47361" lon="5.67789">
        <ele>496.18</ele>
        <time>2022-07-21T08:10:52Z</time>
      </trkpt>
      <trkpt lat="46.47362" lon="5.67789">
        <ele>496.18</ele>
        <time>2022-07-21T08:10:53Z</time>
      </trkpt>
      <trkpt lat="46.47363" lon="5.67787">
        <ele>496.18</ele>
        <time>2022-07-21T08:11:03Z</time>
      </trkpt>
      <trkpt lat="46.47377" lon="5.67773">
        <ele>495.22</ele>
        <time>2022-07-21T08:11:17Z</time>
      </trkpt>
      <trkpt lat="46.47378" lon="5.67771">
        <ele>495.22</ele>
        <time>2022-07-21T08:11:19Z</time>
      </trkpt>
      <trkpt lat="46.47379" lon="5.67769">
        <ele>494.74</ele>
        <time>2022-07-21T08:11:20Z</time>
      </trkpt>
      <trkpt lat="46.4738" lon="5.67768">
        <ele>494.74</ele>
        <time>2022-07-21T08:11:21Z</time>
      </trkpt>
      <trkpt lat="46.47382" lon="5.67766">
        <ele>494.26</ele>
        <time>2022-07-21T08:11:22Z</time>
      </trkpt>
      <trkpt lat="46.47384" lon="5.67765">
        <ele>494.26</ele>
        <time>2022-07-21T08:11:23Z</time>
      </trkpt>
      <trkpt lat="46.47385" lon="5.67763">
        <ele>494.74</ele>
        <time>2022-07-21T08:11:24Z</time>
      </trkpt>
      <trkpt lat="46.47394" lon="5.67752">
        <ele>493.77</ele>
        <time>2022-07-21T08:11:36Z</time>
      </trkpt>
      <trkpt lat="46.47396" lon="5.67751">
        <ele>493.77</ele>
        <time>2022-07-21T08:11:37Z</time>
      </trkpt>
      <trkpt lat="46.47397" lon="5.6775">
        <ele>493.29</ele>
        <time>2022-07-21T08:11:38Z</time>
      </trkpt>
      <trkpt lat="46.47398" lon="5.67749">
        <ele>493.77</ele>
        <time>2022-07-21T08:11:39Z</time>
      </trkpt>
      <trkpt lat="46.47399" lon="5.67748">
        <ele>493.29</ele>
        <time>2022-07-21T08:11:40Z</time>
      </trkpt>
      <trkpt lat="46.47411" lon="5.67728">
        <ele>492.33</ele>
        <time>2022-07-21T08:11:54Z</time>
      </trkpt>
      <trkpt lat="46.47409" lon="5.67717">
        <ele>493.29</ele>
        <time>2022-07-21T08:12:11Z</time>
      </trkpt>
      <trkpt lat="46.47415" lon="5.67714">
        <ele>492.81</ele>
        <time>2022-07-21T08:12:31Z</time>
      </trkpt>
      <trkpt lat="46.47414" lon="5.67714">
        <ele>492.81</ele>
        <time>2022-07-21T08:12:46Z</time>
      </trkpt>
      <trkpt lat="46.4742" lon="5.67714">
        <ele>492.81</ele>
        <time>2022-07-21T08:13:00Z</time>
      </trkpt>
      <trkpt lat="46.47418" lon="5.67709">
        <ele>492.81</ele>
        <time>2022-07-21T08:13:26Z</time>
      </trkpt>
      <trkpt lat="46.47419" lon="5.67713">
        <ele>493.29</ele>
        <time>2022-07-21T08:13:44Z</time>
      </trkpt>
      <trkpt lat="46.4742" lon="5.6772">
        <ele>492.33</ele>
        <time>2022-07-21T08:13:56Z</time>
      </trkpt>
      <trkpt lat="46.4742" lon="5.67727">
        <ele>492.33</ele>
        <time>2022-07-21T08:14:05Z</time>
      </trkpt>
      <trkpt lat="46.47421" lon="5.67728">
        <ele>492.81</ele>
        <time>2022-07-21T08:14:21Z</time>
      </trkpt>
      <trkpt lat="46.47426" lon="5.67729">
        <ele>492.81</ele>
        <time>2022-07-21T08:14:28Z</time>
      </trkpt>
      <trkpt lat="46.47428" lon="5.67736">
        <ele>492.81</ele>
        <time>2022-07-21T08:14:41Z</time>
      </trkpt>
      <trkpt lat="46.47423" lon="5.67732">
        <ele>493.77</ele>
        <time>2022-07-21T08:15:01Z</time>
      </trkpt>
      <trkpt lat="46.47423" lon="5.67735">
        <ele>493.29</ele>
        <time>2022-07-21T08:15:29Z</time>
      </trkpt>
      <trkpt lat="46.47423" lon="5.67734">
        <ele>493.29</ele>
        <time>2022-07-21T08:15:57Z</time>
      </trkpt>
      <trkpt lat="46.47438" lon="5.67744">
        <ele>492.33</ele>
        <time>2022-07-21T08:16:13Z</time>
      </trkpt>
      <trkpt lat="46.47456" lon="5.67751">
        <ele>490.41</ele>
        <time>2022-07-21T08:16:29Z</time>
      </trkpt>
      <trkpt lat="46.4746" lon="5.67754">
        <ele>490.41</ele>
        <time>2022-07-21T08:16:33Z</time>
      </trkpt>
      <trkpt lat="46.47468" lon="5.67766">
        <ele>489.93</ele>
        <time>2022-07-21T08:16:43Z</time>
      </trkpt>
      <trkpt lat="46.47468" lon="5.67791">
        <ele>490.41</ele>
        <time>2022-07-21T08:16:58Z</time>
      </trkpt>
      <trkpt lat="46.47469" lon="5.67801">
        <ele>489.93</ele>
        <time>2022-07-21T08:17:03Z</time>
      </trkpt>
      <trkpt lat="46.47466" lon="5.67811">
        <ele>490.41</ele>
        <time>2022-07-21T08:17:10Z</time>
      </trkpt>
      <trkpt lat="46.47459" lon="5.67825">
        <ele>490.41</ele>
        <time>2022-07-21T08:17:20Z</time>
      </trkpt>
      <trkpt lat="46.4746" lon="5.6783">
        <ele>489.93</ele>
        <time>2022-07-21T08:17:23Z</time>
      </trkpt>
      <trkpt lat="46.47464" lon="5.67844">
        <ele>487.05</ele>
        <time>2022-07-21T08:17:32Z</time>
      </trkpt>
      <trkpt lat="46.47471" lon="5.67853">
        <ele>484.16</ele>
        <time>2022-07-21T08:17:41Z</time>
      </trkpt>
      <trkpt lat="46.47477" lon="5.67864">
        <ele>482.24</ele>
        <time>2022-07-21T08:17:48Z</time>
      </trkpt>
      <trkpt lat="46.47483" lon="5.67875">
        <ele>479.35</ele>
        <time>2022-07-21T08:17:59Z</time>
      </trkpt>
      <trkpt lat="46.47489" lon="5.67874">
        <ele>475.99</ele>
        <time>2022-07-21T08:18:10Z</time>
      </trkpt>
      <trkpt lat="46.47492" lon="5.67875">
        <ele>474.55</ele>
        <time>2022-07-21T08:18:14Z</time>
      </trkpt>
      <trkpt lat="46.47497" lon="5.67877">
        <ele>473.11</ele>
        <time>2022-07-21T08:18:18Z</time>
      </trkpt>
      <trkpt lat="46.47504" lon="5.67873">
        <ele>469.74</ele>
        <time>2022-07-21T08:18:31Z</time>
      </trkpt>
      <trkpt lat="46.47512" lon="5.67871">
        <ele>466.86</ele>
        <time>2022-07-21T08:18:43Z</time>
      </trkpt>
      <trkpt lat="46.47526" lon="5.67871">
        <ele>463.97</ele>
        <time>2022-07-21T08:18:56Z</time>
      </trkpt>
      <trkpt lat="46.47541" lon="5.67867">
        <ele>461.09</ele>
        <time>2022-07-21T08:19:11Z</time>
      </trkpt>
      <trkpt lat="46.47552" lon="5.67864">
        <ele>458.21</ele>
        <time>2022-07-21T08:19:26Z</time>
      </trkpt>
      <trkpt lat="46.47554" lon="5.67864">
        <ele>457.24</ele>
        <time>2022-07-21T08:19:28Z</time>
      </trkpt>
      <trkpt lat="46.47568" lon="5.67857">
        <ele>454.84</ele>
        <time>2022-07-21T08:19:41Z</time>
      </trkpt>
      <trkpt lat="46.47577" lon="5.67855">
        <ele>453.88</ele>
        <time>2022-07-21T08:19:57Z</time>
      </trkpt>
      <trkpt lat="46.47596" lon="5.67858">
        <ele>451.96</ele>
        <time>2022-07-21T08:20:15Z</time>
      </trkpt>
      <trkpt lat="46.4761" lon="5.67848">
        <ele>450.52</ele>
        <time>2022-07-21T08:20:29Z</time>
      </trkpt>
      <trkpt lat="46.47611" lon="5.67837">
        <ele>450.52</ele>
        <time>2022-07-21T08:20:34Z</time>
      </trkpt>
      <trkpt lat="46.47606" lon="5.67854">
        <ele>450.52</ele>
        <time>2022-07-21T08:20:56Z</time>
      </trkpt>
      <trkpt lat="46.4761" lon="5.67849">
        <ele>449.55</ele>
        <time>2022-07-21T08:21:00Z</time>
      </trkpt>
      <trkpt lat="46.47618" lon="5.67846">
        <ele>447.63</ele>
        <time>2022-07-21T08:21:06Z</time>
      </trkpt>
      <trkpt lat="46.47633" lon="5.67832">
        <ele>444.75</ele>
        <time>2022-07-21T08:21:20Z</time>
      </trkpt>
      <trkpt lat="46.4764" lon="5.67818">
        <ele>442.34</ele>
        <time>2022-07-21T08:21:31Z</time>
      </trkpt>
      <trkpt lat="46.47642" lon="5.67814">
        <ele>441.86</ele>
        <time>2022-07-21T08:21:34Z</time>
      </trkpt>
      <trkpt lat="46.4765" lon="5.67791">
        <ele>439.94</ele>
        <time>2022-07-21T08:21:49Z</time>
      </trkpt>
      <trkpt lat="46.4765" lon="5.67776">
        <ele>438.5</ele>
        <time>2022-07-21T08:22:02Z</time>
      </trkpt>
      <trkpt lat="46.47649" lon="5.67766">
        <ele>438.5</ele>
        <time>2022-07-21T08:22:10Z</time>
      </trkpt>
      <trkpt lat="46.47649" lon="5.67759">
        <ele>438.98</ele>
        <time>2022-07-21T08:22:14Z</time>
      </trkpt>
      <trkpt lat="46.47648" lon="5.67753">
        <ele>438.5</ele>
        <time>2022-07-21T08:22:18Z</time>
      </trkpt>
      <trkpt lat="46.47647" lon="5.67749">
        <ele>438.98</ele>
        <time>2022-07-21T08:22:21Z</time>
      </trkpt>
      <trkpt lat="46.47646" lon="5.67739">
        <ele>438.5</ele>
        <time>2022-07-21T08:22:36Z</time>
      </trkpt>
      <trkpt lat="46.47649" lon="5.67744">
        <ele>439.46</ele>
        <time>2022-07-21T08:22:52Z</time>
      </trkpt>
      <trkpt lat="46.4765" lon="5.67734">
        <ele>439.46</ele>
        <time>2022-07-21T08:23:14Z</time>
      </trkpt>
      <trkpt lat="46.4765" lon="5.67737">
        <ele>438.98</ele>
        <time>2022-07-21T08:23:34Z</time>
      </trkpt>
      <trkpt lat="46.47649" lon="5.67744">
        <ele>438.98</ele>
        <time>2022-07-21T08:23:49Z</time>
      </trkpt>
      <trkpt lat="46.4765" lon="5.67763">
        <ele>438.5</ele>
        <time>2022-07-21T08:24:02Z</time>
      </trkpt>
      <trkpt lat="46.47651" lon="5.67775">
        <ele>438.02</ele>
        <time>2022-07-21T08:24:16Z</time>
      </trkpt>
      <trkpt lat="46.47654" lon="5.67778">
        <ele>438.5</ele>
        <time>2022-07-21T08:24:19Z</time>
      </trkpt>
      <trkpt lat="46.47656" lon="5.67776">
        <ele>438.02</ele>
        <time>2022-07-21T08:24:21Z</time>
      </trkpt>
      <trkpt lat="46.47663" lon="5.67772">
        <ele>438.5</ele>
        <time>2022-07-21T08:24:32Z</time>
      </trkpt>
      <trkpt lat="46.47664" lon="5.67772">
        <ele>437.54</ele>
        <time>2022-07-21T08:24:33Z</time>
      </trkpt>
      <trkpt lat="46.47676" lon="5.67776">
        <ele>438.02</ele>
        <time>2022-07-21T08:24:47Z</time>
      </trkpt>
      <trkpt lat="46.47679" lon="5.67773">
        <ele>437.54</ele>
        <time>2022-07-21T08:25:02Z</time>
      </trkpt>
      <trkpt lat="46.47683" lon="5.67775">
        <ele>437.06</ele>
        <time>2022-07-21T08:25:21Z</time>
      </trkpt>
      <trkpt lat="46.47679" lon="5.67775">
        <ele>437.06</ele>
        <time>2022-07-21T08:25:48Z</time>
      </trkpt>
      <trkpt lat="46.47681" lon="5.67779">
        <ele>437.06</ele>
        <time>2022-07-21T08:25:59Z</time>
      </trkpt>
      <trkpt lat="46.47687" lon="5.67788">
        <ele>437.54</ele>
        <time>2022-07-21T08:26:12Z</time>
      </trkpt>
      <trkpt lat="46.47691" lon="5.67792">
        <ele>436.58</ele>
        <time>2022-07-21T08:26:22Z</time>
      </trkpt>
      <trkpt lat="46.47693" lon="5.67794">
        <ele>436.58</ele>
        <time>2022-07-21T08:26:25Z</time>
      </trkpt>
      <trkpt lat="46.47702" lon="5.67796">
        <ele>436.58</ele>
        <time>2022-07-21T08:26:36Z</time>
      </trkpt>
      <trkpt lat="46.47704" lon="5.67796">
        <ele>437.06</ele>
        <time>2022-07-21T08:26:40Z</time>
      </trkpt>
      <trkpt lat="46.47715" lon="5.67797">
        <ele>436.1</ele>
        <time>2022-07-21T08:26:52Z</time>
      </trkpt>
      <trkpt lat="46.4772" lon="5.67799">
        <ele>437.06</ele>
        <time>2022-07-21T08:26:58Z</time>
      </trkpt>
      <trkpt lat="46.47727" lon="5.678">
        <ele>436.1</ele>
        <time>2022-07-21T08:27:10Z</time>
      </trkpt>
      <trkpt lat="46.47736" lon="5.67799">
        <ele>436.1</ele>
        <time>2022-07-21T08:27:21Z</time>
      </trkpt>
      <trkpt lat="46.47736" lon="5.67799">
        <ele>436.58</ele>
        <time>2022-07-21T08:27:26Z</time>
      </trkpt>
      <trkpt lat="46.47745" lon="5.67797">
        <ele>437.54</ele>
        <time>2022-07-21T08:27:40Z</time>
      </trkpt>
      <trkpt lat="46.47748" lon="5.67794">
        <ele>436.1</ele>
        <time>2022-07-21T08:27:57Z</time>
      </trkpt>
      <trkpt lat="46.47751" lon="5.67796">
        <ele>436.1</ele>
        <time>2022-07-21T08:28:11Z</time>
      </trkpt>
      <trkpt lat="46.47755" lon="5.67792">
        <ele>435.61</ele>
        <time>2022-07-21T08:28:27Z</time>
      </trkpt>
      <trkpt lat="46.47762" lon="5.67792">
        <ele>435.61</ele>
        <time>2022-07-21T08:28:41Z</time>
      </trkpt>
      <trkpt lat="46.47765" lon="5.67794">
        <ele>435.61</ele>
        <time>2022-07-21T08:28:49Z</time>
      </trkpt>
      <trkpt lat="46.47769" lon="5.67791">
        <ele>435.13</ele>
        <time>2022-07-21T08:29:01Z</time>
      </trkpt>
      <trkpt lat="46.47769" lon="5.67795">
        <ele>435.61</ele>
        <time>2022-07-21T08:29:22Z</time>
      </trkpt>
      <trkpt lat="46.47771" lon="5.67798">
        <ele>437.06</ele>
        <time>2022-07-21T08:29:31Z</time>
      </trkpt>
      <trkpt lat="46.47773" lon="5.67801">
        <ele>437.54</ele>
        <time>2022-07-21T08:29:39Z</time>
      </trkpt>
      <trkpt lat="46.47776" lon="5.67804">
        <ele>437.54</ele>
        <time>2022-07-21T08:29:43Z</time>
      </trkpt>
      <trkpt lat="46.47777" lon="5.67806">
        <ele>438.02</ele>
        <time>2022-07-21T08:29:45Z</time>
      </trkpt>
      <trkpt lat="46.47774" lon="5.67824">
        <ele>438.5</ele>
        <time>2022-07-21T08:30:00Z</time>
      </trkpt>
      <trkpt lat="46.47773" lon="5.67842">
        <ele>439.46</ele>
        <time>2022-07-21T08:30:10Z</time>
      </trkpt>
      <trkpt lat="46.47778" lon="5.67846">
        <ele>439.46</ele>
        <time>2022-07-21T08:30:17Z</time>
      </trkpt>
      <trkpt lat="46.47797" lon="5.6785">
        <ele>439.94</ele>
        <time>2022-07-21T08:30:35Z</time>
      </trkpt>
      <trkpt lat="46.47818" lon="5.67854">
        <ele>439.46</ele>
        <time>2022-07-21T08:30:53Z</time>
      </trkpt>
      <trkpt lat="46.47828" lon="5.67854">
        <ele>438.98</ele>
        <time>2022-07-21T08:31:01Z</time>
      </trkpt>
      <trkpt lat="46.47847" lon="5.67857">
        <ele>439.46</ele>
        <time>2022-07-21T08:31:16Z</time>
      </trkpt>
      <trkpt lat="46.47852" lon="5.67858">
        <ele>439.46</ele>
        <time>2022-07-21T08:31:21Z</time>
      </trkpt>
      <trkpt lat="46.47873" lon="5.67873">
        <ele>440.42</ele>
        <time>2022-07-21T08:31:38Z</time>
      </trkpt>
      <trkpt lat="46.47888" lon="5.67884">
        <ele>441.86</ele>
        <time>2022-07-21T08:31:55Z</time>
      </trkpt>
      <trkpt lat="46.47903" lon="5.67889">
        <ele>443.79</ele>
        <time>2022-07-21T08:32:10Z</time>
      </trkpt>
      <trkpt lat="46.47923" lon="5.67895">
        <ele>445.23</ele>
        <time>2022-07-21T08:32:27Z</time>
      </trkpt>
      <trkpt lat="46.47937" lon="5.67902">
        <ele>446.19</ele>
        <time>2022-07-21T08:32:44Z</time>
      </trkpt>
      <trkpt lat="46.47941" lon="5.67906">
        <ele>446.67</ele>
        <time>2022-07-21T08:32:48Z</time>
      </trkpt>
      <trkpt lat="46.47955" lon="5.67929">
        <ele>448.11</ele>
        <time>2022-07-21T08:33:07Z</time>
      </trkpt>
      <trkpt lat="46.47969" lon="5.67959">
        <ele>450.52</ele>
        <time>2022-07-21T08:33:27Z</time>
      </trkpt>
      <trkpt lat="46.47983" lon="5.67979">
        <ele>453.4</ele>
        <time>2022-07-21T08:33:46Z</time>
      </trkpt>
      <trkpt lat="46.47984" lon="5.67981">
        <ele>453.4</ele>
        <time>2022-07-21T08:33:48Z</time>
      </trkpt>
      <trkpt lat="46.48004" lon="5.68002">
        <ele>454.84</ele>
        <time>2022-07-21T08:34:08Z</time>
      </trkpt>
      <trkpt lat="46.48019" lon="5.68021">
        <ele>457.24</ele>
        <time>2022-07-21T08:34:26Z</time>
      </trkpt>
      <trkpt lat="46.48032" lon="5.68049">
        <ele>456.76</ele>
        <time>2022-07-21T08:34:42Z</time>
      </trkpt>
      <trkpt lat="46.48036" lon="5.68068">
        <ele>455.8</ele>
        <time>2022-07-21T08:34:54Z</time>
      </trkpt>
      <trkpt lat="46.48035" lon="5.68075">
        <ele>454.84</ele>
        <time>2022-07-21T08:34:57Z</time>
      </trkpt>
      <trkpt lat="46.48035" lon="5.68077">
        <ele>454.84</ele>
        <time>2022-07-21T08:34:58Z</time>
      </trkpt>
      <trkpt lat="46.48035" lon="5.68079">
        <ele>454.84</ele>
        <time>2022-07-21T08:34:59Z</time>
      </trkpt>
      <trkpt lat="46.48035" lon="5.68081">
        <ele>454.36</ele>
        <time>2022-07-21T08:35:00Z</time>
      </trkpt>
      <trkpt lat="46.48034" lon="5.68083">
        <ele>454.36</ele>
        <time>2022-07-21T08:35:01Z</time>
      </trkpt>
      <trkpt lat="46.48025" lon="5.68105">
        <ele>452.44</ele>
        <time>2022-07-21T08:35:13Z</time>
      </trkpt>
      <trkpt lat="46.48026" lon="5.68111">
        <ele>452.44</ele>
        <time>2022-07-21T08:35:18Z</time>
      </trkpt>
      <trkpt lat="46.48039" lon="5.68135">
        <ele>451.96</ele>
        <time>2022-07-21T08:35:31Z</time>
      </trkpt>
      <trkpt lat="46.48049" lon="5.68152">
        <ele>451</ele>
        <time>2022-07-21T08:35:45Z</time>
      </trkpt>
      <trkpt lat="46.48059" lon="5.68178">
        <ele>451.48</ele>
        <time>2022-07-21T08:36:00Z</time>
      </trkpt>
      <trkpt lat="46.48074" lon="5.68207">
        <ele>453.4</ele>
        <time>2022-07-21T08:36:19Z</time>
      </trkpt>
      <trkpt lat="46.4808" lon="5.68225">
        <ele>454.36</ele>
        <time>2022-07-21T08:36:34Z</time>
      </trkpt>
      <trkpt lat="46.48086" lon="5.68246">
        <ele>455.32</ele>
        <time>2022-07-21T08:36:51Z</time>
      </trkpt>
      <trkpt lat="46.48095" lon="5.68244">
        <ele>453.4</ele>
        <time>2022-07-21T08:37:05Z</time>
      </trkpt>
      <trkpt lat="46.481" lon="5.68239">
        <ele>451.48</ele>
        <time>2022-07-21T08:37:13Z</time>
      </trkpt>
      <trkpt lat="46.48101" lon="5.68237">
        <ele>451.48</ele>
        <time>2022-07-21T08:37:14Z</time>
      </trkpt>
      <trkpt lat="46.48102" lon="5.68236">
        <ele>451</ele>
        <time>2022-07-21T08:37:15Z</time>
      </trkpt>
      <trkpt lat="46.48115" lon="5.68221">
        <ele>447.63</ele>
        <time>2022-07-21T08:37:29Z</time>
      </trkpt>
      <trkpt lat="46.48117" lon="5.68212">
        <ele>447.15</ele>
        <time>2022-07-21T08:37:34Z</time>
      </trkpt>
      <trkpt lat="46.48118" lon="5.6821">
        <ele>446.67</ele>
        <time>2022-07-21T08:37:35Z</time>
      </trkpt>
      <trkpt lat="46.4812" lon="5.68208">
        <ele>447.15</ele>
        <time>2022-07-21T08:37:36Z</time>
      </trkpt>
      <trkpt lat="46.48131" lon="5.68188">
        <ele>444.75</ele>
        <time>2022-07-21T08:37:49Z</time>
      </trkpt>
      <trkpt lat="46.48132" lon="5.68187">
        <ele>443.79</ele>
        <time>2022-07-21T08:37:51Z</time>
      </trkpt>
      <trkpt lat="46.48136" lon="5.68182">
        <ele>442.82</ele>
        <time>2022-07-21T08:37:58Z</time>
      </trkpt>
      <trkpt lat="46.48138" lon="5.68182">
        <ele>442.82</ele>
        <time>2022-07-21T08:37:59Z</time>
      </trkpt>
      <trkpt lat="46.4814" lon="5.68182">
        <ele>442.82</ele>
        <time>2022-07-21T08:38:00Z</time>
      </trkpt>
      <trkpt lat="46.48151" lon="5.68189">
        <ele>441.86</ele>
        <time>2022-07-21T08:38:12Z</time>
      </trkpt>
      <trkpt lat="46.48164" lon="5.68196">
        <ele>438.98</ele>
        <time>2022-07-21T08:38:25Z</time>
      </trkpt>
      <trkpt lat="46.48178" lon="5.68187">
        <ele>438.02</ele>
        <time>2022-07-21T08:38:38Z</time>
      </trkpt>
      <trkpt lat="46.48185" lon="5.68187">
        <ele>437.06</ele>
        <time>2022-07-21T08:38:47Z</time>
      </trkpt>
      <trkpt lat="46.48192" lon="5.68183">
        <ele>436.1</ele>
        <time>2022-07-21T08:39:04Z</time>
      </trkpt>
      <trkpt lat="46.48192" lon="5.68182">
        <ele>435.61</ele>
        <time>2022-07-21T08:39:22Z</time>
      </trkpt>
      <trkpt lat="46.48189" lon="5.68188">
        <ele>436.1</ele>
        <time>2022-07-21T08:39:36Z</time>
      </trkpt>
      <trkpt lat="46.48186" lon="5.68197">
        <ele>436.1</ele>
        <time>2022-07-21T08:39:44Z</time>
      </trkpt>
      <trkpt lat="46.4819" lon="5.68199">
        <ele>436.1</ele>
        <time>2022-07-21T08:39:58Z</time>
      </trkpt>
      <trkpt lat="46.48191" lon="5.68201">
        <ele>436.1</ele>
        <time>2022-07-21T08:40:15Z</time>
      </trkpt>
      <trkpt lat="46.48196" lon="5.68203">
        <ele>434.65</ele>
        <time>2022-07-21T08:40:30Z</time>
      </trkpt>
      <trkpt lat="46.48197" lon="5.68205">
        <ele>434.17</ele>
        <time>2022-07-21T08:40:37Z</time>
      </trkpt>
      <trkpt lat="46.482" lon="5.68205">
        <ele>433.69</ele>
        <time>2022-07-21T08:40:53Z</time>
      </trkpt>
      <trkpt lat="46.48197" lon="5.68203">
        <ele>434.17</ele>
        <time>2022-07-21T08:41:08Z</time>
      </trkpt>
      <trkpt lat="46.48193" lon="5.68204">
        <ele>433.69</ele>
        <time>2022-07-21T08:41:13Z</time>
      </trkpt>
      <trkpt lat="46.48184" lon="5.6821">
        <ele>435.61</ele>
        <time>2022-07-21T08:41:26Z</time>
      </trkpt>
      <trkpt lat="46.48181" lon="5.68212">
        <ele>436.58</ele>
        <time>2022-07-21T08:41:31Z</time>
      </trkpt>
      <trkpt lat="46.48173" lon="5.68219">
        <ele>438.02</ele>
        <time>2022-07-21T08:41:45Z</time>
      </trkpt>
      <trkpt lat="46.48163" lon="5.68225">
        <ele>439.94</ele>
        <time>2022-07-21T08:42:00Z</time>
      </trkpt>
      <trkpt lat="46.48162" lon="5.68226">
        <ele>440.9</ele>
        <time>2022-07-21T08:42:02Z</time>
      </trkpt>
      <trkpt lat="46.48158" lon="5.68241">
        <ele>442.34</ele>
        <time>2022-07-21T08:42:15Z</time>
      </trkpt>
      <trkpt lat="46.48158" lon="5.68257">
        <ele>442.34</ele>
        <time>2022-07-21T08:42:29Z</time>
      </trkpt>
      <trkpt lat="46.48147" lon="5.68269">
        <ele>442.82</ele>
        <time>2022-07-21T08:42:46Z</time>
      </trkpt>
      <trkpt lat="46.48146" lon="5.68278">
        <ele>439.94</ele>
        <time>2022-07-21T08:43:00Z</time>
      </trkpt>
      <trkpt lat="46.48146" lon="5.68281">
        <ele>438.98</ele>
        <time>2022-07-21T08:43:02Z</time>
      </trkpt>
      <trkpt lat="46.48144" lon="5.68286">
        <ele>438.98</ele>
        <time>2022-07-21T08:43:16Z</time>
      </trkpt>
      <trkpt lat="46.48144" lon="5.68287">
        <ele>438.98</ele>
        <time>2022-07-21T08:43:35Z</time>
      </trkpt>
      <trkpt lat="46.48139" lon="5.68281">
        <ele>440.42</ele>
        <time>2022-07-21T08:43:57Z</time>
      </trkpt>
      <trkpt lat="46.48126" lon="5.68279">
        <ele>443.31</ele>
        <time>2022-07-21T08:44:14Z</time>
      </trkpt>
      <trkpt lat="46.48119" lon="5.68282">
        <ele>444.75</ele>
        <time>2022-07-21T08:44:24Z</time>
      </trkpt>
      <trkpt lat="46.48106" lon="5.6828">
        <ele>447.63</ele>
        <time>2022-07-21T08:44:41Z</time>
      </trkpt>
      <trkpt lat="46.48104" lon="5.68279">
        <ele>449.07</ele>
        <time>2022-07-21T08:44:47Z</time>
      </trkpt>
      <trkpt lat="46.48098" lon="5.68273">
        <ele>451.48</ele>
        <time>2022-07-21T08:45:01Z</time>
      </trkpt>
      <trkpt lat="46.48095" lon="5.68268">
        <ele>453.88</ele>
        <time>2022-07-21T08:45:14Z</time>
      </trkpt>
      <trkpt lat="46.48092" lon="5.68273">
        <ele>454.84</ele>
        <time>2022-07-21T08:45:20Z</time>
      </trkpt>
      <trkpt lat="46.4809" lon="5.68289">
        <ele>456.76</ele>
        <time>2022-07-21T08:45:34Z</time>
      </trkpt>
      <trkpt lat="46.48091" lon="5.68292">
        <ele>456.28</ele>
        <time>2022-07-21T08:45:47Z</time>
      </trkpt>
      <trkpt lat="46.48084" lon="5.68292">
        <ele>458.69</ele>
        <time>2022-07-21T08:46:00Z</time>
      </trkpt>
      <trkpt lat="46.48082" lon="5.6829">
        <ele>459.65</ele>
        <time>2022-07-21T08:46:06Z</time>
      </trkpt>
      <trkpt lat="46.48081" lon="5.68309">
        <ele>461.57</ele>
        <time>2022-07-21T08:46:23Z</time>
      </trkpt>
      <trkpt lat="46.48076" lon="5.68327">
        <ele>463.01</ele>
        <time>2022-07-21T08:46:41Z</time>
      </trkpt>
      <trkpt lat="46.48071" lon="5.68332">
        <ele>463.97</ele>
        <time>2022-07-21T08:46:48Z</time>
      </trkpt>
      <trkpt lat="46.48057" lon="5.6835">
        <ele>465.9</ele>
        <time>2022-07-21T08:47:05Z</time>
      </trkpt>
      <trkpt lat="46.48049" lon="5.68357">
        <ele>466.38</ele>
        <time>2022-07-21T08:47:25Z</time>
      </trkpt>
      <trkpt lat="46.48052" lon="5.68356">
        <ele>466.38</ele>
        <time>2022-07-21T08:47:52Z</time>
      </trkpt>
      <trkpt lat="46.48049" lon="5.68368">
        <ele>467.34</ele>
        <time>2022-07-21T08:48:11Z</time>
      </trkpt>
      <trkpt lat="46.48032" lon="5.68377">
        <ele>469.26</ele>
        <time>2022-07-21T08:48:27Z</time>
      </trkpt>
      <trkpt lat="46.48027" lon="5.68392">
        <ele>471.18</ele>
        <time>2022-07-21T08:48:39Z</time>
      </trkpt>
      <trkpt lat="46.48021" lon="5.68422">
        <ele>473.59</ele>
        <time>2022-07-21T08:48:59Z</time>
      </trkpt>
      <trkpt lat="46.48019" lon="5.68456">
        <ele>476.95</ele>
        <time>2022-07-21T08:49:20Z</time>
      </trkpt>
      <trkpt lat="46.48025" lon="5.68482">
        <ele>479.84</ele>
        <time>2022-07-21T08:49:39Z</time>
      </trkpt>
      <trkpt lat="46.48042" lon="5.68513">
        <ele>482.72</ele>
        <time>2022-07-21T08:49:59Z</time>
      </trkpt>
      <trkpt lat="46.48056" lon="5.6852">
        <ele>485.12</ele>
        <time>2022-07-21T08:50:19Z</time>
      </trkpt>
      <trkpt lat="46.48061" lon="5.68519">
        <ele>485.6</ele>
        <time>2022-07-21T08:50:22Z</time>
      </trkpt>
      <trkpt lat="46.48083" lon="5.68528">
        <ele>487.53</ele>
        <time>2022-07-21T08:50:42Z</time>
      </trkpt>
      <trkpt lat="46.48099" lon="5.68545">
        <ele>490.41</ele>
        <time>2022-07-21T08:51:03Z</time>
      </trkpt>
      <trkpt lat="46.48113" lon="5.68556">
        <ele>491.85</ele>
        <time>2022-07-21T08:51:20Z</time>
      </trkpt>
      <trkpt lat="46.48121" lon="5.68569">
        <ele>492.81</ele>
        <time>2022-07-21T08:51:36Z</time>
      </trkpt>
      <trkpt lat="46.48127" lon="5.68582">
        <ele>494.26</ele>
        <time>2022-07-21T08:51:46Z</time>
      </trkpt>
      <trkpt lat="46.48137" lon="5.68615">
        <ele>494.74</ele>
        <time>2022-07-21T08:52:06Z</time>
      </trkpt>
      <trkpt lat="46.48137" lon="5.68619">
        <ele>494.74</ele>
        <time>2022-07-21T08:52:09Z</time>
      </trkpt>
      <trkpt lat="46.48125" lon="5.68649">
        <ele>495.22</ele>
        <time>2022-07-21T08:52:28Z</time>
      </trkpt>
      <trkpt lat="46.4811" lon="5.68676">
        <ele>497.62</ele>
        <time>2022-07-21T08:52:46Z</time>
      </trkpt>
      <trkpt lat="46.48099" lon="5.68695">
        <ele>500.02</ele>
        <time>2022-07-21T08:53:00Z</time>
      </trkpt>
      <trkpt lat="46.48084" lon="5.68712">
        <ele>503.39</ele>
        <time>2022-07-21T08:53:18Z</time>
      </trkpt>
      <trkpt lat="46.4807" lon="5.6872">
        <ele>504.83</ele>
        <time>2022-07-21T08:53:32Z</time>
      </trkpt>
      <trkpt lat="46.48057" lon="5.68725">
        <ele>504.83</ele>
        <time>2022-07-21T08:53:47Z</time>
      </trkpt>
      <trkpt lat="46.48038" lon="5.68728">
        <ele>506.75</ele>
        <time>2022-07-21T08:54:04Z</time>
      </trkpt>
      <trkpt lat="46.48027" lon="5.68728">
        <ele>508.19</ele>
        <time>2022-07-21T08:54:20Z</time>
      </trkpt>
      <trkpt lat="46.48021" lon="5.68728">
        <ele>509.64</ele>
        <time>2022-07-21T08:54:31Z</time>
      </trkpt>
      <trkpt lat="46.48023" lon="5.68744">
        <ele>510.12</ele>
        <time>2022-07-21T08:54:46Z</time>
      </trkpt>
      <trkpt lat="46.48022" lon="5.68754">
        <ele>510.6</ele>
        <time>2022-07-21T08:55:02Z</time>
      </trkpt>
      <trkpt lat="46.48024" lon="5.68762">
        <ele>509.64</ele>
        <time>2022-07-21T08:55:23Z</time>
      </trkpt>
      <trkpt lat="46.48043" lon="5.6877">
        <ele>508.19</ele>
        <time>2022-07-21T08:55:41Z</time>
      </trkpt>
      <trkpt lat="46.48056" lon="5.68778">
        <ele>506.27</ele>
        <time>2022-07-21T08:55:55Z</time>
      </trkpt>
      <trkpt lat="46.48073" lon="5.68796">
        <ele>505.79</ele>
        <time>2022-07-21T08:56:13Z</time>
      </trkpt>
      <trkpt lat="46.48085" lon="5.68803">
        <ele>505.79</ele>
        <time>2022-07-21T08:56:25Z</time>
      </trkpt>
      <trkpt lat="46.481" lon="5.68817">
        <ele>504.35</ele>
        <time>2022-07-21T08:56:38Z</time>
      </trkpt>
      <trkpt lat="46.4811" lon="5.68822">
        <ele>501.95</ele>
        <time>2022-07-21T08:56:50Z</time>
      </trkpt>
      <trkpt lat="46.48124" lon="5.68829">
        <ele>500.02</ele>
        <time>2022-07-21T08:57:05Z</time>
      </trkpt>
      <trkpt lat="46.48142" lon="5.68846">
        <ele>499.06</ele>
        <time>2022-07-21T08:57:19Z</time>
      </trkpt>
      <trkpt lat="46.48159" lon="5.68868">
        <ele>497.62</ele>
        <time>2022-07-21T08:57:32Z</time>
      </trkpt>
      <trkpt lat="46.4817" lon="5.68882">
        <ele>497.14</ele>
        <time>2022-07-21T08:57:45Z</time>
      </trkpt>
      <trkpt lat="46.48179" lon="5.68901">
        <ele>497.14</ele>
        <time>2022-07-21T08:58:03Z</time>
      </trkpt>
      <trkpt lat="46.48188" lon="5.68905">
        <ele>498.58</ele>
        <time>2022-07-21T08:58:16Z</time>
      </trkpt>
      <trkpt lat="46.4819" lon="5.68904">
        <ele>498.1</ele>
        <time>2022-07-21T08:58:19Z</time>
      </trkpt>
      <trkpt lat="46.48192" lon="5.68903">
        <ele>498.1</ele>
        <time>2022-07-21T08:58:21Z</time>
      </trkpt>
      <trkpt lat="46.48211" lon="5.68897">
        <ele>498.1</ele>
        <time>2022-07-21T08:58:35Z</time>
      </trkpt>
      <trkpt lat="46.48214" lon="5.68894">
        <ele>497.62</ele>
        <time>2022-07-21T08:58:37Z</time>
      </trkpt>
      <trkpt lat="46.48226" lon="5.68888">
        <ele>497.62</ele>
        <time>2022-07-21T08:58:46Z</time>
      </trkpt>
      <trkpt lat="46.48233" lon="5.68889">
        <ele>497.14</ele>
        <time>2022-07-21T08:59:03Z</time>
      </trkpt>
      <trkpt lat="46.48242" lon="5.68892">
        <ele>498.1</ele>
        <time>2022-07-21T08:59:23Z</time>
      </trkpt>
      <trkpt lat="46.48261" lon="5.68896">
        <ele>498.1</ele>
        <time>2022-07-21T08:59:39Z</time>
      </trkpt>
      <trkpt lat="46.48274" lon="5.68901">
        <ele>499.06</ele>
        <time>2022-07-21T08:59:51Z</time>
      </trkpt>
      <trkpt lat="46.48281" lon="5.68903">
        <ele>499.06</ele>
        <time>2022-07-21T08:59:59Z</time>
      </trkpt>
      <trkpt lat="46.48289" lon="5.6891">
        <ele>498.58</ele>
        <time>2022-07-21T09:00:08Z</time>
      </trkpt>
      <trkpt lat="46.48306" lon="5.68918">
        <ele>499.06</ele>
        <time>2022-07-21T09:00:22Z</time>
      </trkpt>
      <trkpt lat="46.48312" lon="5.68919">
        <ele>499.06</ele>
        <time>2022-07-21T09:00:28Z</time>
      </trkpt>
      <trkpt lat="46.48326" lon="5.68929">
        <ele>498.1</ele>
        <time>2022-07-21T09:00:43Z</time>
      </trkpt>
      <trkpt lat="46.48338" lon="5.68939">
        <ele>496.18</ele>
        <time>2022-07-21T09:00:58Z</time>
      </trkpt>
      <trkpt lat="46.48356" lon="5.68955">
        <ele>494.26</ele>
        <time>2022-07-21T09:01:12Z</time>
      </trkpt>
      <trkpt lat="46.48373" lon="5.68961">
        <ele>492.33</ele>
        <time>2022-07-21T09:01:23Z</time>
      </trkpt>
      <trkpt lat="46.4839" lon="5.68965">
        <ele>491.85</ele>
        <time>2022-07-21T09:01:35Z</time>
      </trkpt>
      <trkpt lat="46.48403" lon="5.68981">
        <ele>492.33</ele>
        <time>2022-07-21T09:01:51Z</time>
      </trkpt>
      <trkpt lat="46.48404" lon="5.68983">
        <ele>491.85</ele>
        <time>2022-07-21T09:01:52Z</time>
      </trkpt>
      <trkpt lat="46.48405" lon="5.68986">
        <ele>491.85</ele>
        <time>2022-07-21T09:01:53Z</time>
      </trkpt>
      <trkpt lat="46.48414" lon="5.69013">
        <ele>493.77</ele>
        <time>2022-07-21T09:02:10Z</time>
      </trkpt>
      <trkpt lat="46.48416" lon="5.69039">
        <ele>494.74</ele>
        <time>2022-07-21T09:02:23Z</time>
      </trkpt>
      <trkpt lat="46.48422" lon="5.69059">
        <ele>494.74</ele>
        <time>2022-07-21T09:02:34Z</time>
      </trkpt>
      <trkpt lat="46.48433" lon="5.69071">
        <ele>493.77</ele>
        <time>2022-07-21T09:02:50Z</time>
      </trkpt>
      <trkpt lat="46.48447" lon="5.69087">
        <ele>494.74</ele>
        <time>2022-07-21T09:03:05Z</time>
      </trkpt>
      <trkpt lat="46.48469" lon="5.69081">
        <ele>491.85</ele>
        <time>2022-07-21T09:03:23Z</time>
      </trkpt>
      <trkpt lat="46.4848" lon="5.69069">
        <ele>491.85</ele>
        <time>2022-07-21T09:03:35Z</time>
      </trkpt>
      <trkpt lat="46.48484" lon="5.6907">
        <ele>491.37</ele>
        <time>2022-07-21T09:03:39Z</time>
      </trkpt>
      <trkpt lat="46.48486" lon="5.69069">
        <ele>491.37</ele>
        <time>2022-07-21T09:03:40Z</time>
      </trkpt>
      <trkpt lat="46.48487" lon="5.69068">
        <ele>491.37</ele>
        <time>2022-07-21T09:03:41Z</time>
      </trkpt>
      <trkpt lat="46.48496" lon="5.69059">
        <ele>490.89</ele>
        <time>2022-07-21T09:03:49Z</time>
      </trkpt>
      <trkpt lat="46.48513" lon="5.69049">
        <ele>490.41</ele>
        <time>2022-07-21T09:04:04Z</time>
      </trkpt>
      <trkpt lat="46.48539" lon="5.69047">
        <ele>489.93</ele>
        <time>2022-07-21T09:04:21Z</time>
      </trkpt>
      <trkpt lat="46.48558" lon="5.69051">
        <ele>489.45</ele>
        <time>2022-07-21T09:04:36Z</time>
      </trkpt>
      <trkpt lat="46.48578" lon="5.69053">
        <ele>488.49</ele>
        <time>2022-07-21T09:04:50Z</time>
      </trkpt>
      <trkpt lat="46.48588" lon="5.69051">
        <ele>488.01</ele>
        <time>2022-07-21T09:04:59Z</time>
      </trkpt>
      <trkpt lat="46.48589" lon="5.69052">
        <ele>488.49</ele>
        <time>2022-07-21T09:05:00Z</time>
      </trkpt>
      <trkpt lat="46.48591" lon="5.69052">
        <ele>488.49</ele>
        <time>2022-07-21T09:05:01Z</time>
      </trkpt>
      <trkpt lat="46.48611" lon="5.69064">
        <ele>488.01</ele>
        <time>2022-07-21T09:05:19Z</time>
      </trkpt>
      <trkpt lat="46.48631" lon="5.69066">
        <ele>488.97</ele>
        <time>2022-07-21T09:05:35Z</time>
      </trkpt>
      <trkpt lat="46.48646" lon="5.6908">
        <ele>488.97</ele>
        <time>2022-07-21T09:05:48Z</time>
      </trkpt>
      <trkpt lat="46.48654" lon="5.69078">
        <ele>488.97</ele>
        <time>2022-07-21T09:05:54Z</time>
      </trkpt>
      <trkpt lat="46.48655" lon="5.69078">
        <ele>489.45</ele>
        <time>2022-07-21T09:05:55Z</time>
      </trkpt>
      <trkpt lat="46.48665" lon="5.69077">
        <ele>489.93</ele>
        <time>2022-07-21T09:06:03Z</time>
      </trkpt>
      <trkpt lat="46.48686" lon="5.69074">
        <ele>488.97</ele>
        <time>2022-07-21T09:06:18Z</time>
      </trkpt>
      <trkpt lat="46.48704" lon="5.69071">
        <ele>487.53</ele>
        <time>2022-07-21T09:06:31Z</time>
      </trkpt>
      <trkpt lat="46.48717" lon="5.69065">
        <ele>486.08</ele>
        <time>2022-07-21T09:06:43Z</time>
      </trkpt>
      <trkpt lat="46.48732" lon="5.6906">
        <ele>485.12</ele>
        <time>2022-07-21T09:06:55Z</time>
      </trkpt>
      <trkpt lat="46.48749" lon="5.6906">
        <ele>484.16</ele>
        <time>2022-07-21T09:07:07Z</time>
      </trkpt>
      <trkpt lat="46.48751" lon="5.69059">
        <ele>484.16</ele>
        <time>2022-07-21T09:07:10Z</time>
      </trkpt>
      <trkpt lat="46.48753" lon="5.69059">
        <ele>483.68</ele>
        <time>2022-07-21T09:07:11Z</time>
      </trkpt>
      <trkpt lat="46.48755" lon="5.69059">
        <ele>483.68</ele>
        <time>2022-07-21T09:07:12Z</time>
      </trkpt>
      <trkpt lat="46.48757" lon="5.69059">
        <ele>483.68</ele>
        <time>2022-07-21T09:07:13Z</time>
      </trkpt>
      <trkpt lat="46.48759" lon="5.69059">
        <ele>483.68</ele>
        <time>2022-07-21T09:07:14Z</time>
      </trkpt>
      <trkpt lat="46.48761" lon="5.69058">
        <ele>483.68</ele>
        <time>2022-07-21T09:07:15Z</time>
      </trkpt>
      <trkpt lat="46.48763" lon="5.69057">
        <ele>483.68</ele>
        <time>2022-07-21T09:07:16Z</time>
      </trkpt>
      <trkpt lat="46.48765" lon="5.69056">
        <ele>483.68</ele>
        <time>2022-07-21T09:07:17Z</time>
      </trkpt>
      <trkpt lat="46.48774" lon="5.69054">
        <ele>482.72</ele>
        <time>2022-07-21T09:07:23Z</time>
      </trkpt>
      <trkpt lat="46.48775" lon="5.69053">
        <ele>483.68</ele>
        <time>2022-07-21T09:07:24Z</time>
      </trkpt>
      <trkpt lat="46.48792" lon="5.69038">
        <ele>482.24</ele>
        <time>2022-07-21T09:07:37Z</time>
      </trkpt>
      <trkpt lat="46.48796" lon="5.69034">
        <ele>482.24</ele>
        <time>2022-07-21T09:07:43Z</time>
      </trkpt>
      <trkpt lat="46.48797" lon="5.69032">
        <ele>482.72</ele>
        <time>2022-07-21T09:07:44Z</time>
      </trkpt>
      <trkpt lat="46.48799" lon="5.6903">
        <ele>482.24</ele>
        <time>2022-07-21T09:07:45Z</time>
      </trkpt>
      <trkpt lat="46.48807" lon="5.69019">
        <ele>481.76</ele>
        <time>2022-07-21T09:07:55Z</time>
      </trkpt>
      <trkpt lat="46.48809" lon="5.69017">
        <ele>482.24</ele>
        <time>2022-07-21T09:07:56Z</time>
      </trkpt>
      <trkpt lat="46.4882" lon="5.69007">
        <ele>482.24</ele>
        <time>2022-07-21T09:08:03Z</time>
      </trkpt>
      <trkpt lat="46.48821" lon="5.69006">
        <ele>481.76</ele>
        <time>2022-07-21T09:08:04Z</time>
      </trkpt>
      <trkpt lat="46.48822" lon="5.69005">
        <ele>482.24</ele>
        <time>2022-07-21T09:08:05Z</time>
      </trkpt>
      <trkpt lat="46.48834" lon="5.68993">
        <ele>481.76</ele>
        <time>2022-07-21T09:08:18Z</time>
      </trkpt>
      <trkpt lat="46.4884" lon="5.68987">
        <ele>480.8</ele>
        <time>2022-07-21T09:08:25Z</time>
      </trkpt>
      <trkpt lat="46.48842" lon="5.68985">
        <ele>481.28</ele>
        <time>2022-07-21T09:08:26Z</time>
      </trkpt>
      <trkpt lat="46.48843" lon="5.68983">
        <ele>481.28</ele>
        <time>2022-07-21T09:08:27Z</time>
      </trkpt>
      <trkpt lat="46.48846" lon="5.68982">
        <ele>481.28</ele>
        <time>2022-07-21T09:08:28Z</time>
      </trkpt>
      <trkpt lat="46.48847" lon="5.6898">
        <ele>481.28</ele>
        <time>2022-07-21T09:08:29Z</time>
      </trkpt>
      <trkpt lat="46.48849" lon="5.6898">
        <ele>481.28</ele>
        <time>2022-07-21T09:08:30Z</time>
      </trkpt>
      <trkpt lat="46.48851" lon="5.68979">
        <ele>481.28</ele>
        <time>2022-07-21T09:08:31Z</time>
      </trkpt>
      <trkpt lat="46.48852" lon="5.68978">
        <ele>480.8</ele>
        <time>2022-07-21T09:08:32Z</time>
      </trkpt>
      <trkpt lat="46.48868" lon="5.6897">
        <ele>480.8</ele>
        <time>2022-07-21T09:08:46Z</time>
      </trkpt>
      <trkpt lat="46.48884" lon="5.68958">
        <ele>480.32</ele>
        <time>2022-07-21T09:09:02Z</time>
      </trkpt>
      <trkpt lat="46.48892" lon="5.68949">
        <ele>479.35</ele>
        <time>2022-07-21T09:09:10Z</time>
      </trkpt>
      <trkpt lat="46.48894" lon="5.68925">
        <ele>475.99</ele>
        <time>2022-07-21T09:09:21Z</time>
      </trkpt>
      <trkpt lat="46.48891" lon="5.68908">
        <ele>473.11</ele>
        <time>2022-07-21T09:09:34Z</time>
      </trkpt>
      <trkpt lat="46.48883" lon="5.68882">
        <ele>472.14</ele>
        <time>2022-07-21T09:09:47Z</time>
      </trkpt>
      <trkpt lat="46.48878" lon="5.68859">
        <ele>470.7</ele>
        <time>2022-07-21T09:10:03Z</time>
      </trkpt>
      <trkpt lat="46.48877" lon="5.68851">
        <ele>468.3</ele>
        <time>2022-07-21T09:10:11Z</time>
      </trkpt>
      <trkpt lat="46.48866" lon="5.68841">
        <ele>464.93</ele>
        <time>2022-07-21T09:10:25Z</time>
      </trkpt>
      <trkpt lat="46.48865" lon="5.68841">
        <ele>464.93</ele>
        <time>2022-07-21T09:10:26Z</time>
      </trkpt>
      <trkpt lat="46.4886" lon="5.68844">
        <ele>463.01</ele>
        <time>2022-07-21T09:10:31Z</time>
      </trkpt>
      <trkpt lat="46.48844" lon="5.68849">
        <ele>460.61</ele>
        <time>2022-07-21T09:10:44Z</time>
      </trkpt>
      <trkpt lat="46.48832" lon="5.68851">
        <ele>457.72</ele>
        <time>2022-07-21T09:10:55Z</time>
      </trkpt>
      <trkpt lat="46.48831" lon="5.68851">
        <ele>457.24</ele>
        <time>2022-07-21T09:10:56Z</time>
      </trkpt>
      <trkpt lat="46.48819" lon="5.68858">
        <ele>453.4</ele>
        <time>2022-07-21T09:11:08Z</time>
      </trkpt>
      <trkpt lat="46.48812" lon="5.68859">
        <ele>452.92</ele>
        <time>2022-07-21T09:11:12Z</time>
      </trkpt>
      <trkpt lat="46.48798" lon="5.68857">
        <ele>450.52</ele>
        <time>2022-07-21T09:11:27Z</time>
      </trkpt>
      <trkpt lat="46.48794" lon="5.68852">
        <ele>447.15</ele>
        <time>2022-07-21T09:11:40Z</time>
      </trkpt>
      <trkpt lat="46.48793" lon="5.68851">
        <ele>447.15</ele>
        <time>2022-07-21T09:11:41Z</time>
      </trkpt>
      <trkpt lat="46.48785" lon="5.68844">
        <ele>447.15</ele>
        <time>2022-07-21T09:11:55Z</time>
      </trkpt>
      <trkpt lat="46.48783" lon="5.68843">
        <ele>445.23</ele>
        <time>2022-07-21T09:12:17Z</time>
      </trkpt>
      <trkpt lat="46.48781" lon="5.68847">
        <ele>443.79</ele>
        <time>2022-07-21T09:12:31Z</time>
      </trkpt>
      <trkpt lat="46.4878" lon="5.68851">
        <ele>444.27</ele>
        <time>2022-07-21T09:12:49Z</time>
      </trkpt>
      <trkpt lat="46.48777" lon="5.68848">
        <ele>443.79</ele>
        <time>2022-07-21T09:13:13Z</time>
      </trkpt>
      <trkpt lat="46.48778" lon="5.68852">
        <ele>443.31</ele>
        <time>2022-07-21T09:13:23Z</time>
      </trkpt>
      <trkpt lat="46.48779" lon="5.68847">
        <ele>440.42</ele>
        <time>2022-07-21T09:13:36Z</time>
      </trkpt>
      <trkpt lat="46.4878" lon="5.68842">
        <ele>439.46</ele>
        <time>2022-07-21T09:13:43Z</time>
      </trkpt>
      <trkpt lat="46.48779" lon="5.68834">
        <ele>437.54</ele>
        <time>2022-07-21T09:13:56Z</time>
      </trkpt>
      <trkpt lat="46.48776" lon="5.68833">
        <ele>437.54</ele>
        <time>2022-07-21T09:14:08Z</time>
      </trkpt>
      <trkpt lat="46.48779" lon="5.68836">
        <ele>437.54</ele>
        <time>2022-07-21T09:14:29Z</time>
      </trkpt>
      <trkpt lat="46.48783" lon="5.68837">
        <ele>438.02</ele>
        <time>2022-07-21T09:14:37Z</time>
      </trkpt>
      <trkpt lat="46.48791" lon="5.68832">
        <ele>438.02</ele>
        <time>2022-07-21T09:14:50Z</time>
      </trkpt>
      <trkpt lat="46.48791" lon="5.68831">
        <ele>438.02</ele>
        <time>2022-07-21T09:15:00Z</time>
      </trkpt>
      <trkpt lat="46.48792" lon="5.68829">
        <ele>438.02</ele>
        <time>2022-07-21T09:15:15Z</time>
      </trkpt>
      <trkpt lat="46.48791" lon="5.68829">
        <ele>437.54</ele>
        <time>2022-07-21T09:15:26Z</time>
      </trkpt>
      <trkpt lat="46.48792" lon="5.6883">
        <ele>438.02</ele>
        <time>2022-07-21T09:15:46Z</time>
      </trkpt>
      <trkpt lat="46.48792" lon="5.68831">
        <ele>437.06</ele>
        <time>2022-07-21T09:16:07Z</time>
      </trkpt>
      <trkpt lat="46.48796" lon="5.68831">
        <ele>438.02</ele>
        <time>2022-07-21T09:16:20Z</time>
      </trkpt>
      <trkpt lat="46.48799" lon="5.6883">
        <ele>437.54</ele>
        <time>2022-07-21T09:16:24Z</time>
      </trkpt>
      <trkpt lat="46.48802" lon="5.68828">
        <ele>438.02</ele>
        <time>2022-07-21T09:16:28Z</time>
      </trkpt>
      <trkpt lat="46.4881" lon="5.68819">
        <ele>436.1</ele>
        <time>2022-07-21T09:16:39Z</time>
      </trkpt>
      <trkpt lat="46.48815" lon="5.68808">
        <ele>437.54</ele>
        <time>2022-07-21T09:16:50Z</time>
      </trkpt>
      <trkpt lat="46.48816" lon="5.68806">
        <ele>437.06</ele>
        <time>2022-07-21T09:16:52Z</time>
      </trkpt>
      <trkpt lat="46.48819" lon="5.68801">
        <ele>438.5</ele>
        <time>2022-07-21T09:16:58Z</time>
      </trkpt>
      <trkpt lat="46.48821" lon="5.68796">
        <ele>438.5</ele>
        <time>2022-07-21T09:17:09Z</time>
      </trkpt>
      <trkpt lat="46.48824" lon="5.68793">
        <ele>438.02</ele>
        <time>2022-07-21T09:17:20Z</time>
      </trkpt>
      <trkpt lat="46.48822" lon="5.68791">
        <ele>437.54</ele>
        <time>2022-07-21T09:17:46Z</time>
      </trkpt>
      <trkpt lat="46.48818" lon="5.68794">
        <ele>438.5</ele>
        <time>2022-07-21T09:17:52Z</time>
      </trkpt>
      <trkpt lat="46.48816" lon="5.68797">
        <ele>438.98</ele>
        <time>2022-07-21T09:17:58Z</time>
      </trkpt>
      <trkpt lat="46.48812" lon="5.68804">
        <ele>437.54</ele>
        <time>2022-07-21T09:18:08Z</time>
      </trkpt>
      <trkpt lat="46.4881" lon="5.68809">
        <ele>437.06</ele>
        <time>2022-07-21T09:18:11Z</time>
      </trkpt>
      <trkpt lat="46.48808" lon="5.68811">
        <ele>437.54</ele>
        <time>2022-07-21T09:18:15Z</time>
      </trkpt>
      <trkpt lat="46.48806" lon="5.68813">
        <ele>437.06</ele>
        <time>2022-07-21T09:18:18Z</time>
      </trkpt>
      <trkpt lat="46.48806" lon="5.68817">
        <ele>438.02</ele>
        <time>2022-07-21T09:18:22Z</time>
      </trkpt>
      <trkpt lat="46.4881" lon="5.68829">
        <ele>439.46</ele>
        <time>2022-07-21T09:18:36Z</time>
      </trkpt>
      <trkpt lat="46.48812" lon="5.68838">
        <ele>441.86</ele>
        <time>2022-07-21T09:18:51Z</time>
      </trkpt>
      <trkpt lat="46.48806" lon="5.68846">
        <ele>444.27</ele>
        <time>2022-07-21T09:19:07Z</time>
      </trkpt>
      <trkpt lat="46.48802" lon="5.68855">
        <ele>447.63</ele>
        <time>2022-07-21T09:19:22Z</time>
      </trkpt>
      <trkpt lat="46.48798" lon="5.68868">
        <ele>449.55</ele>
        <time>2022-07-21T09:19:40Z</time>
      </trkpt>
      <trkpt lat="46.48799" lon="5.68871">
        <ele>451.48</ele>
        <time>2022-07-21T09:19:46Z</time>
      </trkpt>
      <trkpt lat="46.48812" lon="5.68872">
        <ele>453.88</ele>
        <time>2022-07-21T09:20:04Z</time>
      </trkpt>
      <trkpt lat="46.48822" lon="5.68863">
        <ele>455.8</ele>
        <time>2022-07-21T09:20:20Z</time>
      </trkpt>
      <trkpt lat="46.48833" lon="5.68865">
        <ele>457.72</ele>
        <time>2022-07-21T09:20:38Z</time>
      </trkpt>
      <trkpt lat="46.48844" lon="5.68854">
        <ele>460.13</ele>
        <time>2022-07-21T09:20:53Z</time>
      </trkpt>
      <trkpt lat="46.4885" lon="5.68849">
        <ele>461.57</ele>
        <time>2022-07-21T09:21:07Z</time>
      </trkpt>
      <trkpt lat="46.48859" lon="5.6884">
        <ele>464.45</ele>
        <time>2022-07-21T09:21:23Z</time>
      </trkpt>
      <trkpt lat="46.4887" lon="5.68838">
        <ele>466.86</ele>
        <time>2022-07-21T09:21:39Z</time>
      </trkpt>
      <trkpt lat="46.48875" lon="5.68847">
        <ele>468.3</ele>
        <time>2022-07-21T09:21:52Z</time>
      </trkpt>
      <trkpt lat="46.48878" lon="5.68858">
        <ele>469.74</ele>
        <time>2022-07-21T09:22:04Z</time>
      </trkpt>
      <trkpt lat="46.48882" lon="5.68875">
        <ele>470.7</ele>
        <time>2022-07-21T09:22:19Z</time>
      </trkpt>
      <trkpt lat="46.48886" lon="5.68894">
        <ele>470.7</ele>
        <time>2022-07-21T09:22:34Z</time>
      </trkpt>
      <trkpt lat="46.48893" lon="5.68912">
        <ele>472.63</ele>
        <time>2022-07-21T09:22:51Z</time>
      </trkpt>
      <trkpt lat="46.48894" lon="5.68919">
        <ele>474.07</ele>
        <time>2022-07-21T09:22:58Z</time>
      </trkpt>
      <trkpt lat="46.48893" lon="5.68931">
        <ele>475.51</ele>
        <time>2022-07-21T09:23:11Z</time>
      </trkpt>
      <trkpt lat="46.48895" lon="5.68944">
        <ele>477.43</ele>
        <time>2022-07-21T09:23:21Z</time>
      </trkpt>
      <trkpt lat="46.48903" lon="5.68946">
        <ele>477.43</ele>
        <time>2022-07-21T09:23:28Z</time>
      </trkpt>
      <trkpt lat="46.48922" lon="5.68934">
        <ele>476.47</ele>
        <time>2022-07-21T09:23:45Z</time>
      </trkpt>
      <trkpt lat="46.48935" lon="5.68925">
        <ele>476.95</ele>
        <time>2022-07-21T09:23:56Z</time>
      </trkpt>
      <trkpt lat="46.48937" lon="5.68918">
        <ele>476.47</ele>
        <time>2022-07-21T09:24:10Z</time>
      </trkpt>
      <trkpt lat="46.4894" lon="5.68916">
        <ele>476.47</ele>
        <time>2022-07-21T09:24:51Z</time>
      </trkpt>
      <trkpt lat="46.48939" lon="5.6892">
        <ele>476.47</ele>
        <time>2022-07-21T09:25:18Z</time>
      </trkpt>
      <trkpt lat="46.48942" lon="5.68919">
        <ele>476.95</ele>
        <time>2022-07-21T09:25:39Z</time>
      </trkpt>
      <trkpt lat="46.48949" lon="5.68915">
        <ele>476.47</ele>
        <time>2022-07-21T09:25:44Z</time>
      </trkpt>
      <trkpt lat="46.48968" lon="5.68906">
        <ele>476.47</ele>
        <time>2022-07-21T09:25:59Z</time>
      </trkpt>
      <trkpt lat="46.48984" lon="5.68894">
        <ele>475.99</ele>
        <time>2022-07-21T09:26:14Z</time>
      </trkpt>
      <trkpt lat="46.48988" lon="5.68892">
        <ele>475.99</ele>
        <time>2022-07-21T09:26:19Z</time>
      </trkpt>
      <trkpt lat="46.48993" lon="5.68887">
        <ele>475.51</ele>
        <time>2022-07-21T09:26:23Z</time>
      </trkpt>
      <trkpt lat="46.49014" lon="5.68869">
        <ele>474.55</ele>
        <time>2022-07-21T09:26:40Z</time>
      </trkpt>
      <trkpt lat="46.49036" lon="5.6885">
        <ele>475.03</ele>
        <time>2022-07-21T09:26:59Z</time>
      </trkpt>
      <trkpt lat="46.49054" lon="5.6884">
        <ele>474.55</ele>
        <time>2022-07-21T09:27:15Z</time>
      </trkpt>
      <trkpt lat="46.49075" lon="5.68825">
        <ele>475.03</ele>
        <time>2022-07-21T09:27:31Z</time>
      </trkpt>
      <trkpt lat="46.49092" lon="5.68815">
        <ele>475.51</ele>
        <time>2022-07-21T09:27:47Z</time>
      </trkpt>
      <trkpt lat="46.49118" lon="5.68804">
        <ele>475.99</ele>
        <time>2022-07-21T09:28:06Z</time>
      </trkpt>
      <trkpt lat="46.49133" lon="5.68797">
        <ele>475.03</ele>
        <time>2022-07-21T09:28:19Z</time>
      </trkpt>
      <trkpt lat="46.49154" lon="5.68784">
        <ele>474.55</ele>
        <time>2022-07-21T09:28:36Z</time>
      </trkpt>
      <trkpt lat="46.49172" lon="5.68773">
        <ele>475.03</ele>
        <time>2022-07-21T09:28:51Z</time>
      </trkpt>
      <trkpt lat="46.49187" lon="5.68765">
        <ele>475.03</ele>
        <time>2022-07-21T09:29:06Z</time>
      </trkpt>
      <trkpt lat="46.49188" lon="5.68765">
        <ele>475.03</ele>
        <time>2022-07-21T09:29:07Z</time>
      </trkpt>
      <trkpt lat="46.49192" lon="5.68759">
        <ele>475.03</ele>
        <time>2022-07-21T09:29:22Z</time>
      </trkpt>
      <trkpt lat="46.49194" lon="5.68759">
        <ele>475.03</ele>
        <time>2022-07-21T09:29:23Z</time>
      </trkpt>
      <trkpt lat="46.49201" lon="5.68754">
        <ele>475.03</ele>
        <time>2022-07-21T09:29:40Z</time>
      </trkpt>
      <trkpt lat="46.49201" lon="5.68754">
        <ele>475.03</ele>
        <time>2022-07-21T09:29:41Z</time>
      </trkpt>
      <trkpt lat="46.49202" lon="5.68754">
        <ele>475.03</ele>
        <time>2022-07-21T09:29:42Z</time>
      </trkpt>
      <trkpt lat="46.49218" lon="5.6875">
        <ele>475.03</ele>
        <time>2022-07-21T09:29:57Z</time>
      </trkpt>
      <trkpt lat="46.49221" lon="5.68749">
        <ele>475.51</ele>
        <time>2022-07-21T09:30:00Z</time>
      </trkpt>
      <trkpt lat="46.49222" lon="5.68748">
        <ele>475.51</ele>
        <time>2022-07-21T09:30:01Z</time>
      </trkpt>
      <trkpt lat="46.49223" lon="5.68747">
        <ele>475.03</ele>
        <time>2022-07-21T09:30:02Z</time>
      </trkpt>
      <trkpt lat="46.49225" lon="5.68746">
        <ele>475.51</ele>
        <time>2022-07-21T09:30:03Z</time>
      </trkpt>
      <trkpt lat="46.49226" lon="5.68745">
        <ele>475.51</ele>
        <time>2022-07-21T09:30:04Z</time>
      </trkpt>
      <trkpt lat="46.49228" lon="5.68743">
        <ele>475.51</ele>
        <time>2022-07-21T09:30:05Z</time>
      </trkpt>
      <trkpt lat="46.4925" lon="5.68729">
        <ele>475.51</ele>
        <time>2022-07-21T09:30:21Z</time>
      </trkpt>
      <trkpt lat="46.49268" lon="5.68714">
        <ele>475.99</ele>
        <time>2022-07-21T09:30:37Z</time>
      </trkpt>
      <trkpt lat="46.49285" lon="5.68701">
        <ele>474.55</ele>
        <time>2022-07-21T09:30:52Z</time>
      </trkpt>
      <trkpt lat="46.49293" lon="5.68694">
        <ele>473.59</ele>
        <time>2022-07-21T09:31:02Z</time>
      </trkpt>
      <trkpt lat="46.49294" lon="5.68693">
        <ele>473.59</ele>
        <time>2022-07-21T09:31:03Z</time>
      </trkpt>
      <trkpt lat="46.49295" lon="5.68692">
        <ele>473.59</ele>
        <time>2022-07-21T09:31:04Z</time>
      </trkpt>
      <trkpt lat="46.49304" lon="5.68686">
        <ele>473.59</ele>
        <time>2022-07-21T09:31:14Z</time>
      </trkpt>
      <trkpt lat="46.49305" lon="5.68685">
        <ele>473.59</ele>
        <time>2022-07-21T09:31:15Z</time>
      </trkpt>
      <trkpt lat="46.49307" lon="5.68684">
        <ele>473.59</ele>
        <time>2022-07-21T09:31:16Z</time>
      </trkpt>
      <trkpt lat="46.49309" lon="5.68683">
        <ele>473.11</ele>
        <time>2022-07-21T09:31:17Z</time>
      </trkpt>
      <trkpt lat="46.49311" lon="5.68682">
        <ele>472.63</ele>
        <time>2022-07-21T09:31:18Z</time>
      </trkpt>
      <trkpt lat="46.49313" lon="5.68681">
        <ele>472.63</ele>
        <time>2022-07-21T09:31:19Z</time>
      </trkpt>
      <trkpt lat="46.49314" lon="5.68679">
        <ele>472.63</ele>
        <time>2022-07-21T09:31:20Z</time>
      </trkpt>
      <trkpt lat="46.49326" lon="5.68666">
        <ele>471.66</ele>
        <time>2022-07-21T09:31:33Z</time>
      </trkpt>
      <trkpt lat="46.49335" lon="5.6866">
        <ele>471.18</ele>
        <time>2022-07-21T09:31:42Z</time>
      </trkpt>
      <trkpt lat="46.49337" lon="5.68659">
        <ele>470.7</ele>
        <time>2022-07-21T09:31:43Z</time>
      </trkpt>
      <trkpt lat="46.4935" lon="5.68648">
        <ele>469.26</ele>
        <time>2022-07-21T09:31:55Z</time>
      </trkpt>
      <trkpt lat="46.49366" lon="5.68628">
        <ele>467.82</ele>
        <time>2022-07-21T09:32:09Z</time>
      </trkpt>
      <trkpt lat="46.49371" lon="5.68619">
        <ele>465.9</ele>
        <time>2022-07-21T09:32:27Z</time>
      </trkpt>
      <trkpt lat="46.4938" lon="5.68604">
        <ele>464.93</ele>
        <time>2022-07-21T09:32:40Z</time>
      </trkpt>
      <trkpt lat="46.49395" lon="5.68595">
        <ele>463.49</ele>
        <time>2022-07-21T09:32:56Z</time>
      </trkpt>
      <trkpt lat="46.49396" lon="5.68595">
        <ele>463.49</ele>
        <time>2022-07-21T09:32:57Z</time>
      </trkpt>
      <trkpt lat="46.49386" lon="5.68645">
        <ele>463.49</ele>
        <time>2022-07-21T09:33:17Z</time>
      </trkpt>
      <trkpt lat="46.49401" lon="5.68604">
        <ele>463.01</ele>
        <time>2022-07-21T09:33:22Z</time>
      </trkpt>
      <trkpt lat="46.49401" lon="5.68599">
        <ele>463.01</ele>
        <time>2022-07-21T09:33:23Z</time>
      </trkpt>
      <trkpt lat="46.49403" lon="5.68588">
        <ele>462.53</ele>
        <time>2022-07-21T09:33:27Z</time>
      </trkpt>
      <trkpt lat="46.49408" lon="5.68574">
        <ele>461.09</ele>
        <time>2022-07-21T09:33:36Z</time>
      </trkpt>
      <trkpt lat="46.49423" lon="5.68555">
        <ele>458.21</ele>
        <time>2022-07-21T09:33:50Z</time>
      </trkpt>
      <trkpt lat="46.49439" lon="5.68541">
        <ele>454.84</ele>
        <time>2022-07-21T09:34:03Z</time>
      </trkpt>
      <trkpt lat="46.49447" lon="5.68532">
        <ele>453.88</ele>
        <time>2022-07-21T09:34:08Z</time>
      </trkpt>
      <trkpt lat="46.49459" lon="5.68518">
        <ele>451</ele>
        <time>2022-07-21T09:34:20Z</time>
      </trkpt>
      <trkpt lat="46.49472" lon="5.685">
        <ele>448.11</ele>
        <time>2022-07-21T09:34:36Z</time>
      </trkpt>
      <trkpt lat="46.49488" lon="5.68479">
        <ele>446.67</ele>
        <time>2022-07-21T09:34:50Z</time>
      </trkpt>
      <trkpt lat="46.49497" lon="5.68467">
        <ele>444.75</ele>
        <time>2022-07-21T09:35:00Z</time>
      </trkpt>
      <trkpt lat="46.49509" lon="5.68457">
        <ele>444.27</ele>
        <time>2022-07-21T09:35:12Z</time>
      </trkpt>
      <trkpt lat="46.49519" lon="5.68435">
        <ele>442.82</ele>
        <time>2022-07-21T09:35:25Z</time>
      </trkpt>
      <trkpt lat="46.4952" lon="5.68422">
        <ele>442.34</ele>
        <time>2022-07-21T09:35:41Z</time>
      </trkpt>
      <trkpt lat="46.4952" lon="5.68413">
        <ele>439.46</ele>
        <time>2022-07-21T09:35:59Z</time>
      </trkpt>
      <trkpt lat="46.49519" lon="5.68412">
        <ele>439.46</ele>
        <time>2022-07-21T09:36:01Z</time>
      </trkpt>
      <trkpt lat="46.49517" lon="5.68413">
        <ele>438.98</ele>
        <time>2022-07-21T09:36:04Z</time>
      </trkpt>
      <trkpt lat="46.49515" lon="5.6841">
        <ele>438.02</ele>
        <time>2022-07-21T09:36:18Z</time>
      </trkpt>
      <trkpt lat="46.49516" lon="5.6841">
        <ele>438.5</ele>
        <time>2022-07-21T09:36:37Z</time>
      </trkpt>
      <trkpt lat="46.49515" lon="5.68407">
        <ele>438.02</ele>
        <time>2022-07-21T09:36:54Z</time>
      </trkpt>
      <trkpt lat="46.49514" lon="5.68406">
        <ele>438.02</ele>
        <time>2022-07-21T09:37:07Z</time>
      </trkpt>
      <trkpt lat="46.49516" lon="5.68404">
        <ele>437.54</ele>
        <time>2022-07-21T09:37:23Z</time>
      </trkpt>
      <trkpt lat="46.49521" lon="5.68404">
        <ele>438.02</ele>
        <time>2022-07-21T09:37:36Z</time>
      </trkpt>
      <trkpt lat="46.49525" lon="5.68405">
        <ele>438.02</ele>
        <time>2022-07-21T09:37:48Z</time>
      </trkpt>
      <trkpt lat="46.49527" lon="5.68404">
        <ele>438.02</ele>
        <time>2022-07-21T09:38:03Z</time>
      </trkpt>
      <trkpt lat="46.49523" lon="5.68407">
        <ele>438.02</ele>
        <time>2022-07-21T09:38:17Z</time>
      </trkpt>
      <trkpt lat="46.49524" lon="5.68405">
        <ele>438.02</ele>
        <time>2022-07-21T09:38:38Z</time>
      </trkpt>
      <trkpt lat="46.49522" lon="5.68403">
        <ele>438.02</ele>
        <time>2022-07-21T09:39:14Z</time>
      </trkpt>
      <trkpt lat="46.49527" lon="5.6841">
        <ele>438.5</ele>
        <time>2022-07-21T09:39:43Z</time>
      </trkpt>
      <trkpt lat="46.49535" lon="5.6842">
        <ele>441.38</ele>
        <time>2022-07-21T09:39:58Z</time>
      </trkpt>
      <trkpt lat="46.4954" lon="5.68431">
        <ele>443.79</ele>
        <time>2022-07-21T09:40:14Z</time>
      </trkpt>
      <trkpt lat="46.49549" lon="5.68424">
        <ele>443.79</ele>
        <time>2022-07-21T09:40:23Z</time>
      </trkpt>
      <trkpt lat="46.49555" lon="5.68419">
        <ele>444.27</ele>
        <time>2022-07-21T09:40:29Z</time>
      </trkpt>
      <trkpt lat="46.49562" lon="5.68406">
        <ele>444.75</ele>
        <time>2022-07-21T09:40:38Z</time>
      </trkpt>
      <trkpt lat="46.49575" lon="5.68396">
        <ele>444.75</ele>
        <time>2022-07-21T09:40:54Z</time>
      </trkpt>
      <trkpt lat="46.49591" lon="5.68382">
        <ele>442.82</ele>
        <time>2022-07-21T09:41:08Z</time>
      </trkpt>
      <trkpt lat="46.49594" lon="5.68381">
        <ele>443.31</ele>
        <time>2022-07-21T09:41:11Z</time>
      </trkpt>
      <trkpt lat="46.49606" lon="5.6837">
        <ele>444.75</ele>
        <time>2022-07-21T09:41:27Z</time>
      </trkpt>
      <trkpt lat="46.49611" lon="5.68366">
        <ele>448.11</ele>
        <time>2022-07-21T09:46:36Z</time>
      </trkpt>
      <trkpt lat="46.49613" lon="5.68366">
        <ele>449.07</ele>
        <time>2022-07-21T09:46:40Z</time>
      </trkpt>
      <trkpt lat="46.49621" lon="5.68372">
        <ele>451</ele>
        <time>2022-07-21T09:46:55Z</time>
      </trkpt>
      <trkpt lat="46.49629" lon="5.68379">
        <ele>454.36</ele>
        <time>2022-07-21T09:47:12Z</time>
      </trkpt>
      <trkpt lat="46.49633" lon="5.68384">
        <ele>457.24</ele>
        <time>2022-07-21T09:47:28Z</time>
      </trkpt>
      <trkpt lat="46.49641" lon="5.68385">
        <ele>458.69</ele>
        <time>2022-07-21T09:47:43Z</time>
      </trkpt>
      <trkpt lat="46.49646" lon="5.68388">
        <ele>460.61</ele>
        <time>2022-07-21T09:47:57Z</time>
      </trkpt>
      <trkpt lat="46.49652" lon="5.68391">
        <ele>463.97</ele>
        <time>2022-07-21T09:48:14Z</time>
      </trkpt>
      <trkpt lat="46.49657" lon="5.68396">
        <ele>465.42</ele>
        <time>2022-07-21T09:48:33Z</time>
      </trkpt>
      <trkpt lat="46.4966" lon="5.68398">
        <ele>467.82</ele>
        <time>2022-07-21T09:48:49Z</time>
      </trkpt>
      <trkpt lat="46.49664" lon="5.684">
        <ele>469.26</ele>
        <time>2022-07-21T09:49:04Z</time>
      </trkpt>
      <trkpt lat="46.49666" lon="5.68404">
        <ele>471.66</ele>
        <time>2022-07-21T09:49:22Z</time>
      </trkpt>
      <trkpt lat="46.49671" lon="5.68408">
        <ele>473.59</ele>
        <time>2022-07-21T09:49:38Z</time>
      </trkpt>
      <trkpt lat="46.49677" lon="5.68413">
        <ele>475.03</ele>
        <time>2022-07-21T09:49:57Z</time>
      </trkpt>
      <trkpt lat="46.49677" lon="5.6841">
        <ele>475.51</ele>
        <time>2022-07-21T09:50:17Z</time>
      </trkpt>
      <trkpt lat="46.49679" lon="5.68409">
        <ele>475.51</ele>
        <time>2022-07-21T09:50:41Z</time>
      </trkpt>
      <trkpt lat="46.49679" lon="5.68411">
        <ele>475.03</ele>
        <time>2022-07-21T09:51:05Z</time>
      </trkpt>
      <trkpt lat="46.49685" lon="5.6841">
        <ele>475.99</ele>
        <time>2022-07-21T09:51:21Z</time>
      </trkpt>
      <trkpt lat="46.49691" lon="5.68408">
        <ele>476.47</ele>
        <time>2022-07-21T09:51:32Z</time>
      </trkpt>
      <trkpt lat="46.49697" lon="5.68404">
        <ele>476.95</ele>
        <time>2022-07-21T09:51:41Z</time>
      </trkpt>
      <trkpt lat="46.49703" lon="5.68403">
        <ele>477.43</ele>
        <time>2022-07-21T09:51:53Z</time>
      </trkpt>
      <trkpt lat="46.49706" lon="5.68401">
        <ele>477.91</ele>
        <time>2022-07-21T09:52:07Z</time>
      </trkpt>
      <trkpt lat="46.49708" lon="5.684">
        <ele>477.91</ele>
        <time>2022-07-21T09:52:24Z</time>
      </trkpt>
      <trkpt lat="46.49707" lon="5.684">
        <ele>477.43</ele>
        <time>2022-07-21T09:52:40Z</time>
      </trkpt>
      <trkpt lat="46.49706" lon="5.68405">
        <ele>477.91</ele>
        <time>2022-07-21T09:53:02Z</time>
      </trkpt>
      <trkpt lat="46.49716" lon="5.68402">
        <ele>476.95</ele>
        <time>2022-07-21T09:53:13Z</time>
      </trkpt>
      <trkpt lat="46.49733" lon="5.68407">
        <ele>477.91</ele>
        <time>2022-07-21T09:53:28Z</time>
      </trkpt>
      <trkpt lat="46.49742" lon="5.68413">
        <ele>476.95</ele>
        <time>2022-07-21T09:53:37Z</time>
      </trkpt>
      <trkpt lat="46.49752" lon="5.68408">
        <ele>476.47</ele>
        <time>2022-07-21T09:53:48Z</time>
      </trkpt>
      <trkpt lat="46.49768" lon="5.68399">
        <ele>475.03</ele>
        <time>2022-07-21T09:54:02Z</time>
      </trkpt>
      <trkpt lat="46.49777" lon="5.68398">
        <ele>471.66</ele>
        <time>2022-07-21T09:54:16Z</time>
      </trkpt>
      <trkpt lat="46.49789" lon="5.68396">
        <ele>469.26</ele>
        <time>2022-07-21T09:54:31Z</time>
      </trkpt>
      <trkpt lat="46.49812" lon="5.68388">
        <ele>467.82</ele>
        <time>2022-07-21T09:54:45Z</time>
      </trkpt>
      <trkpt lat="46.49815" lon="5.68386">
        <ele>467.34</ele>
        <time>2022-07-21T09:54:48Z</time>
      </trkpt>
      <trkpt lat="46.49827" lon="5.68375">
        <ele>465.42</ele>
        <time>2022-07-21T09:55:01Z</time>
      </trkpt>
      <trkpt lat="46.49829" lon="5.68374">
        <ele>464.45</ele>
        <time>2022-07-21T09:55:03Z</time>
      </trkpt>
      <trkpt lat="46.4983" lon="5.68373">
        <ele>464.45</ele>
        <time>2022-07-21T09:55:04Z</time>
      </trkpt>
      <trkpt lat="46.49842" lon="5.68374">
        <ele>464.45</ele>
        <time>2022-07-21T09:55:18Z</time>
      </trkpt>
      <trkpt lat="46.49843" lon="5.68374">
        <ele>464.45</ele>
        <time>2022-07-21T09:55:19Z</time>
      </trkpt>
      <trkpt lat="46.49849" lon="5.68377">
        <ele>463.49</ele>
        <time>2022-07-21T09:55:24Z</time>
      </trkpt>
      <trkpt lat="46.49865" lon="5.68369">
        <ele>463.01</ele>
        <time>2022-07-21T09:55:34Z</time>
      </trkpt>
      <trkpt lat="46.49875" lon="5.68374">
        <ele>461.57</ele>
        <time>2022-07-21T09:55:49Z</time>
      </trkpt>
      <trkpt lat="46.49877" lon="5.68372">
        <ele>461.09</ele>
        <time>2022-07-21T09:56:01Z</time>
      </trkpt>
      <trkpt lat="46.49879" lon="5.68376">
        <ele>461.09</ele>
        <time>2022-07-21T09:56:10Z</time>
      </trkpt>
      <trkpt lat="46.4988" lon="5.68385">
        <ele>461.57</ele>
        <time>2022-07-21T09:56:15Z</time>
      </trkpt>
      <trkpt lat="46.49882" lon="5.68394">
        <ele>462.05</ele>
        <time>2022-07-21T09:56:20Z</time>
      </trkpt>
      <trkpt lat="46.49889" lon="5.68413">
        <ele>462.53</ele>
        <time>2022-07-21T09:56:30Z</time>
      </trkpt>
      <trkpt lat="46.49892" lon="5.68418">
        <ele>463.49</ele>
        <time>2022-07-21T09:56:35Z</time>
      </trkpt>
      <trkpt lat="46.49906" lon="5.68428">
        <ele>463.97</ele>
        <time>2022-07-21T09:56:46Z</time>
      </trkpt>
      <trkpt lat="46.49922" lon="5.68436">
        <ele>463.49</ele>
        <time>2022-07-21T09:57:01Z</time>
      </trkpt>
      <trkpt lat="46.49925" lon="5.68441">
        <ele>463.01</ele>
        <time>2022-07-21T09:57:04Z</time>
      </trkpt>
      <trkpt lat="46.49927" lon="5.68444">
        <ele>463.49</ele>
        <time>2022-07-21T09:57:05Z</time>
      </trkpt>
      <trkpt lat="46.49928" lon="5.68445">
        <ele>463.49</ele>
        <time>2022-07-21T09:57:06Z</time>
      </trkpt>
      <trkpt lat="46.49929" lon="5.6845">
        <ele>463.01</ele>
        <time>2022-07-21T09:57:12Z</time>
      </trkpt>
      <trkpt lat="46.4993" lon="5.68452">
        <ele>463.49</ele>
        <time>2022-07-21T09:57:13Z</time>
      </trkpt>
      <trkpt lat="46.4993" lon="5.68453">
        <ele>463.49</ele>
        <time>2022-07-21T09:57:14Z</time>
      </trkpt>
      <trkpt lat="46.49934" lon="5.68459">
        <ele>463.01</ele>
        <time>2022-07-21T09:57:23Z</time>
      </trkpt>
      <trkpt lat="46.49945" lon="5.68473">
        <ele>463.01</ele>
        <time>2022-07-21T09:57:35Z</time>
      </trkpt>
      <trkpt lat="46.49947" lon="5.68473">
        <ele>463.01</ele>
        <time>2022-07-21T09:57:36Z</time>
      </trkpt>
      <trkpt lat="46.49965" lon="5.68487">
        <ele>461.57</ele>
        <time>2022-07-21T09:57:49Z</time>
      </trkpt>
      <trkpt lat="46.49985" lon="5.68505">
        <ele>461.57</ele>
        <time>2022-07-21T09:58:06Z</time>
      </trkpt>
      <trkpt lat="46.50001" lon="5.68522">
        <ele>460.61</ele>
        <time>2022-07-21T09:58:21Z</time>
      </trkpt>
      <trkpt lat="46.50021" lon="5.68547">
        <ele>460.61</ele>
        <time>2022-07-21T09:58:39Z</time>
      </trkpt>
      <trkpt lat="46.50031" lon="5.68565">
        <ele>459.65</ele>
        <time>2022-07-21T09:58:52Z</time>
      </trkpt>
      <trkpt lat="46.50032" lon="5.68567">
        <ele>459.17</ele>
        <time>2022-07-21T09:58:56Z</time>
      </trkpt>
      <trkpt lat="46.50038" lon="5.68567">
        <ele>458.21</ele>
        <time>2022-07-21T09:59:01Z</time>
      </trkpt>
      <trkpt lat="46.5004" lon="5.68568">
        <ele>458.21</ele>
        <time>2022-07-21T09:59:02Z</time>
      </trkpt>
      <trkpt lat="46.50041" lon="5.68568">
        <ele>457.72</ele>
        <time>2022-07-21T09:59:03Z</time>
      </trkpt>
      <trkpt lat="46.5005" lon="5.68571">
        <ele>456.76</ele>
        <time>2022-07-21T09:59:08Z</time>
      </trkpt>
      <trkpt lat="46.50065" lon="5.68572">
        <ele>454.84</ele>
        <time>2022-07-21T09:59:20Z</time>
      </trkpt>
      <trkpt lat="46.50076" lon="5.6858">
        <ele>452.92</ele>
        <time>2022-07-21T09:59:33Z</time>
      </trkpt>
      <trkpt lat="46.50093" lon="5.68591">
        <ele>451.96</ele>
        <time>2022-07-21T09:59:47Z</time>
      </trkpt>
      <trkpt lat="46.50106" lon="5.68591">
        <ele>449.55</ele>
        <time>2022-07-21T10:00:00Z</time>
      </trkpt>
      <trkpt lat="46.50125" lon="5.68598">
        <ele>449.07</ele>
        <time>2022-07-21T10:00:13Z</time>
      </trkpt>
      <trkpt lat="46.50133" lon="5.68601">
        <ele>447.15</ele>
        <time>2022-07-21T10:00:21Z</time>
      </trkpt>
      <trkpt lat="46.50147" lon="5.68617">
        <ele>448.11</ele>
        <time>2022-07-21T10:00:36Z</time>
      </trkpt>
      <trkpt lat="46.50156" lon="5.68637">
        <ele>448.11</ele>
        <time>2022-07-21T10:00:53Z</time>
      </trkpt>
      <trkpt lat="46.50158" lon="5.68657">
        <ele>448.11</ele>
        <time>2022-07-21T10:01:09Z</time>
      </trkpt>
      <trkpt lat="46.50173" lon="5.68669">
        <ele>447.63</ele>
        <time>2022-07-21T10:01:25Z</time>
      </trkpt>
      <trkpt lat="46.50185" lon="5.68673">
        <ele>446.67</ele>
        <time>2022-07-21T10:01:35Z</time>
      </trkpt>
      <trkpt lat="46.50193" lon="5.68684">
        <ele>445.23</ele>
        <time>2022-07-21T10:01:45Z</time>
      </trkpt>
      <trkpt lat="46.50203" lon="5.68701">
        <ele>444.27</ele>
        <time>2022-07-21T10:01:58Z</time>
      </trkpt>
      <trkpt lat="46.50204" lon="5.68703">
        <ele>443.79</ele>
        <time>2022-07-21T10:02:19Z</time>
      </trkpt>
      <trkpt lat="46.50204" lon="5.68704">
        <ele>444.27</ele>
        <time>2022-07-21T10:02:22Z</time>
      </trkpt>
      <trkpt lat="46.50202" lon="5.68708">
        <ele>444.27</ele>
        <time>2022-07-21T10:02:25Z</time>
      </trkpt>
      <trkpt lat="46.50203" lon="5.68716">
        <ele>443.31</ele>
        <time>2022-07-21T10:02:28Z</time>
      </trkpt>
      <trkpt lat="46.50208" lon="5.68725">
        <ele>440.9</ele>
        <time>2022-07-21T10:02:39Z</time>
      </trkpt>
      <trkpt lat="46.50211" lon="5.68737">
        <ele>440.42</ele>
        <time>2022-07-21T10:02:51Z</time>
      </trkpt>
      <trkpt lat="46.50212" lon="5.68755">
        <ele>441.86</ele>
        <time>2022-07-21T10:03:07Z</time>
      </trkpt>
      <trkpt lat="46.50216" lon="5.6877">
        <ele>441.86</ele>
        <time>2022-07-21T10:03:19Z</time>
      </trkpt>
      <trkpt lat="46.5022" lon="5.68771">
        <ele>439.94</ele>
        <time>2022-07-21T10:03:27Z</time>
      </trkpt>
      <trkpt lat="46.50224" lon="5.6877">
        <ele>438.98</ele>
        <time>2022-07-21T10:03:30Z</time>
      </trkpt>
      <trkpt lat="46.50229" lon="5.68779">
        <ele>438.98</ele>
        <time>2022-07-21T10:03:42Z</time>
      </trkpt>
      <trkpt lat="46.50229" lon="5.68785">
        <ele>438.5</ele>
        <time>2022-07-21T10:03:46Z</time>
      </trkpt>
      <trkpt lat="46.50228" lon="5.68797">
        <ele>439.46</ele>
        <time>2022-07-21T10:04:03Z</time>
      </trkpt>
      <trkpt lat="46.50229" lon="5.688">
        <ele>439.46</ele>
        <time>2022-07-21T10:04:16Z</time>
      </trkpt>
      <trkpt lat="46.5023" lon="5.68798">
        <ele>438.98</ele>
        <time>2022-07-21T10:04:41Z</time>
      </trkpt>
      <trkpt lat="46.50231" lon="5.68795">
        <ele>438.98</ele>
        <time>2022-07-21T10:04:54Z</time>
      </trkpt>
      <trkpt lat="46.5023" lon="5.68787">
        <ele>439.46</ele>
        <time>2022-07-21T10:04:59Z</time>
      </trkpt>
      <trkpt lat="46.50228" lon="5.68774">
        <ele>438.98</ele>
        <time>2022-07-21T10:05:09Z</time>
      </trkpt>
      <trkpt lat="46.50229" lon="5.68772">
        <ele>438.5</ele>
        <time>2022-07-21T10:05:22Z</time>
      </trkpt>
      <trkpt lat="46.50231" lon="5.68769">
        <ele>436.1</ele>
        <time>2022-07-21T10:05:33Z</time>
      </trkpt>
      <trkpt lat="46.50232" lon="5.68769">
        <ele>436.1</ele>
        <time>2022-07-21T10:05:36Z</time>
      </trkpt>
      <trkpt lat="46.50231" lon="5.68768">
        <ele>439.94</ele>
        <time>2022-07-21T10:54:40Z</time>
      </trkpt>
      <trkpt lat="46.50231" lon="5.68763">
        <ele>441.86</ele>
        <time>2022-07-21T10:54:50Z</time>
      </trkpt>
      <trkpt lat="46.50227" lon="5.68764">
        <ele>440.9</ele>
        <time>2022-07-21T10:54:59Z</time>
      </trkpt>
      <trkpt lat="46.50222" lon="5.68769">
        <ele>439.94</ele>
        <time>2022-07-21T10:55:07Z</time>
      </trkpt>
      <trkpt lat="46.50219" lon="5.68768">
        <ele>438.98</ele>
        <time>2022-07-21T10:55:17Z</time>
      </trkpt>
      <trkpt lat="46.50214" lon="5.68766">
        <ele>438.5</ele>
        <time>2022-07-21T10:55:27Z</time>
      </trkpt>
      <trkpt lat="46.5021" lon="5.68774">
        <ele>438.02</ele>
        <time>2022-07-21T10:55:40Z</time>
      </trkpt>
      <trkpt lat="46.50205" lon="5.68784">
        <ele>438.98</ele>
        <time>2022-07-21T10:55:53Z</time>
      </trkpt>
      <trkpt lat="46.502" lon="5.68797">
        <ele>439.46</ele>
        <time>2022-07-21T10:56:06Z</time>
      </trkpt>
      <trkpt lat="46.50197" lon="5.6881">
        <ele>440.42</ele>
        <time>2022-07-21T10:56:19Z</time>
      </trkpt>
      <trkpt lat="46.50195" lon="5.68814">
        <ele>440.9</ele>
        <time>2022-07-21T10:56:24Z</time>
      </trkpt>
      <trkpt lat="46.50189" lon="5.6883">
        <ele>440.9</ele>
        <time>2022-07-21T10:56:37Z</time>
      </trkpt>
      <trkpt lat="46.50183" lon="5.68846">
        <ele>439.46</ele>
        <time>2022-07-21T10:56:51Z</time>
      </trkpt>
      <trkpt lat="46.50179" lon="5.68858">
        <ele>441.38</ele>
        <time>2022-07-21T10:57:10Z</time>
      </trkpt>
      <trkpt lat="46.50177" lon="5.6886">
        <ele>442.34</ele>
        <time>2022-07-21T10:57:14Z</time>
      </trkpt>
      <trkpt lat="46.5017" lon="5.68869">
        <ele>444.75</ele>
        <time>2022-07-21T10:57:31Z</time>
      </trkpt>
      <trkpt lat="46.50168" lon="5.68883">
        <ele>447.63</ele>
        <time>2022-07-21T10:57:47Z</time>
      </trkpt>
      <trkpt lat="46.50169" lon="5.68896">
        <ele>449.55</ele>
        <time>2022-07-21T10:58:05Z</time>
      </trkpt>
      <trkpt lat="46.50162" lon="5.68902">
        <ele>451.96</ele>
        <time>2022-07-21T10:58:22Z</time>
      </trkpt>
      <trkpt lat="46.50162" lon="5.68905">
        <ele>452.92</ele>
        <time>2022-07-21T10:58:37Z</time>
      </trkpt>
      <trkpt lat="46.50161" lon="5.68915">
        <ele>455.8</ele>
        <time>2022-07-21T10:58:53Z</time>
      </trkpt>
      <trkpt lat="46.50157" lon="5.68925">
        <ele>458.69</ele>
        <time>2022-07-21T10:59:07Z</time>
      </trkpt>
      <trkpt lat="46.50149" lon="5.68931">
        <ele>460.61</ele>
        <time>2022-07-21T10:59:23Z</time>
      </trkpt>
      <trkpt lat="46.50146" lon="5.68932">
        <ele>462.05</ele>
        <time>2022-07-21T10:59:39Z</time>
      </trkpt>
      <trkpt lat="46.50146" lon="5.68935">
        <ele>463.01</ele>
        <time>2022-07-21T10:59:43Z</time>
      </trkpt>
      <trkpt lat="46.50144" lon="5.68941">
        <ele>463.01</ele>
        <time>2022-07-21T10:59:47Z</time>
      </trkpt>
      <trkpt lat="46.50154" lon="5.6896">
        <ele>463.49</ele>
        <time>2022-07-21T11:00:01Z</time>
      </trkpt>
      <trkpt lat="46.50163" lon="5.68977">
        <ele>463.01</ele>
        <time>2022-07-21T11:00:16Z</time>
      </trkpt>
      <trkpt lat="46.50177" lon="5.68995">
        <ele>463.01</ele>
        <time>2022-07-21T11:00:33Z</time>
      </trkpt>
      <trkpt lat="46.50182" lon="5.69002">
        <ele>463.01</ele>
        <time>2022-07-21T11:00:40Z</time>
      </trkpt>
      <trkpt lat="46.50194" lon="5.69023">
        <ele>462.05</ele>
        <time>2022-07-21T11:00:55Z</time>
      </trkpt>
      <trkpt lat="46.50197" lon="5.69029">
        <ele>461.09</ele>
        <time>2022-07-21T11:01:00Z</time>
      </trkpt>
      <trkpt lat="46.50198" lon="5.69031">
        <ele>461.57</ele>
        <time>2022-07-21T11:01:01Z</time>
      </trkpt>
      <trkpt lat="46.50208" lon="5.69047">
        <ele>461.57</ele>
        <time>2022-07-21T11:01:14Z</time>
      </trkpt>
      <trkpt lat="46.5021" lon="5.69052">
        <ele>461.09</ele>
        <time>2022-07-21T11:01:17Z</time>
      </trkpt>
      <trkpt lat="46.50211" lon="5.69054">
        <ele>461.09</ele>
        <time>2022-07-21T11:01:18Z</time>
      </trkpt>
      <trkpt lat="46.50224" lon="5.69073">
        <ele>460.61</ele>
        <time>2022-07-21T11:01:34Z</time>
      </trkpt>
      <trkpt lat="46.50237" lon="5.69089">
        <ele>460.61</ele>
        <time>2022-07-21T11:01:48Z</time>
      </trkpt>
      <trkpt lat="46.50252" lon="5.69104">
        <ele>460.61</ele>
        <time>2022-07-21T11:02:06Z</time>
      </trkpt>
      <trkpt lat="46.50271" lon="5.69117">
        <ele>461.09</ele>
        <time>2022-07-21T11:02:24Z</time>
      </trkpt>
      <trkpt lat="46.50285" lon="5.69131">
        <ele>461.57</ele>
        <time>2022-07-21T11:02:39Z</time>
      </trkpt>
      <trkpt lat="46.50302" lon="5.69149">
        <ele>461.57</ele>
        <time>2022-07-21T11:02:58Z</time>
      </trkpt>
      <trkpt lat="46.50316" lon="5.69169">
        <ele>462.53</ele>
        <time>2022-07-21T11:03:13Z</time>
      </trkpt>
      <trkpt lat="46.50335" lon="5.69197">
        <ele>463.97</ele>
        <time>2022-07-21T11:03:31Z</time>
      </trkpt>
      <trkpt lat="46.50336" lon="5.69207">
        <ele>464.45</ele>
        <time>2022-07-21T11:03:36Z</time>
      </trkpt>
      <trkpt lat="46.50338" lon="5.69223">
        <ele>465.9</ele>
        <time>2022-07-21T11:03:50Z</time>
      </trkpt>
      <trkpt lat="46.50338" lon="5.69229">
        <ele>466.38</ele>
        <time>2022-07-21T11:03:54Z</time>
      </trkpt>
      <trkpt lat="46.50347" lon="5.6926">
        <ele>468.3</ele>
        <time>2022-07-21T11:04:11Z</time>
      </trkpt>
      <trkpt lat="46.50351" lon="5.69271">
        <ele>469.26</ele>
        <time>2022-07-21T11:04:23Z</time>
      </trkpt>
      <trkpt lat="46.50337" lon="5.69281">
        <ele>471.66</ele>
        <time>2022-07-21T11:04:40Z</time>
      </trkpt>
      <trkpt lat="46.50334" lon="5.69286">
        <ele>473.59</ele>
        <time>2022-07-21T11:04:46Z</time>
      </trkpt>
      <trkpt lat="46.50327" lon="5.69294">
        <ele>475.99</ele>
        <time>2022-07-21T11:05:03Z</time>
      </trkpt>
      <trkpt lat="46.50316" lon="5.69304">
        <ele>477.91</ele>
        <time>2022-07-21T11:05:18Z</time>
      </trkpt>
      <trkpt lat="46.50307" lon="5.69313">
        <ele>481.28</ele>
        <time>2022-07-21T11:05:31Z</time>
      </trkpt>
      <trkpt lat="46.50301" lon="5.69329">
        <ele>484.16</ele>
        <time>2022-07-21T11:05:49Z</time>
      </trkpt>
      <trkpt lat="46.50291" lon="5.69339">
        <ele>486.56</ele>
        <time>2022-07-21T11:06:08Z</time>
      </trkpt>
      <trkpt lat="46.50287" lon="5.6935">
        <ele>489.93</ele>
        <time>2022-07-21T11:06:24Z</time>
      </trkpt>
      <trkpt lat="46.50278" lon="5.69371">
        <ele>493.29</ele>
        <time>2022-07-21T11:06:46Z</time>
      </trkpt>
      <trkpt lat="46.50275" lon="5.69379">
        <ele>496.18</ele>
        <time>2022-07-21T11:07:03Z</time>
      </trkpt>
      <trkpt lat="46.50262" lon="5.69392">
        <ele>499.06</ele>
        <time>2022-07-21T11:07:21Z</time>
      </trkpt>
      <trkpt lat="46.50252" lon="5.694">
        <ele>501.95</ele>
        <time>2022-07-21T11:07:40Z</time>
      </trkpt>
      <trkpt lat="46.50245" lon="5.69414">
        <ele>502.91</ele>
        <time>2022-07-21T11:07:56Z</time>
      </trkpt>
      <trkpt lat="46.50238" lon="5.69434">
        <ele>506.75</ele>
        <time>2022-07-21T11:08:16Z</time>
      </trkpt>
      <trkpt lat="46.50229" lon="5.6944">
        <ele>508.67</ele>
        <time>2022-07-21T11:08:32Z</time>
      </trkpt>
      <trkpt lat="46.50215" lon="5.69446">
        <ele>512.04</ele>
        <time>2022-07-21T11:08:52Z</time>
      </trkpt>
      <trkpt lat="46.50208" lon="5.69456">
        <ele>514.44</ele>
        <time>2022-07-21T11:09:10Z</time>
      </trkpt>
      <trkpt lat="46.50196" lon="5.69468">
        <ele>518.29</ele>
        <time>2022-07-21T11:09:30Z</time>
      </trkpt>
      <trkpt lat="46.50198" lon="5.69483">
        <ele>521.17</ele>
        <time>2022-07-21T11:09:48Z</time>
      </trkpt>
      <trkpt lat="46.50197" lon="5.69495">
        <ele>522.13</ele>
        <time>2022-07-21T11:10:02Z</time>
      </trkpt>
      <trkpt lat="46.50198" lon="5.69506">
        <ele>522.61</ele>
        <time>2022-07-21T11:10:20Z</time>
      </trkpt>
      <trkpt lat="46.50196" lon="5.69506">
        <ele>522.61</ele>
        <time>2022-07-21T11:10:46Z</time>
      </trkpt>
      <trkpt lat="46.50191" lon="5.6951">
        <ele>524.06</ele>
        <time>2022-07-21T11:10:59Z</time>
      </trkpt>
      <trkpt lat="46.50189" lon="5.6951">
        <ele>523.58</ele>
        <time>2022-07-21T11:11:02Z</time>
      </trkpt>
      <trkpt lat="46.50174" lon="5.69513">
        <ele>524.54</ele>
        <time>2022-07-21T11:11:17Z</time>
      </trkpt>
      <trkpt lat="46.50166" lon="5.69513">
        <ele>525.98</ele>
        <time>2022-07-21T11:11:26Z</time>
      </trkpt>
      <trkpt lat="46.50157" lon="5.6951">
        <ele>526.94</ele>
        <time>2022-07-21T11:11:42Z</time>
      </trkpt>
      <trkpt lat="46.50159" lon="5.69512">
        <ele>526.94</ele>
        <time>2022-07-21T11:11:57Z</time>
      </trkpt>
      <trkpt lat="46.5016" lon="5.69512">
        <ele>526.94</ele>
        <time>2022-07-21T11:12:15Z</time>
      </trkpt>
      <trkpt lat="46.50164" lon="5.69502">
        <ele>526.94</ele>
        <time>2022-07-21T11:12:35Z</time>
      </trkpt>
      <trkpt lat="46.50176" lon="5.69485">
        <ele>525.98</ele>
        <time>2022-07-21T11:12:54Z</time>
      </trkpt>
      <trkpt lat="46.50177" lon="5.69483">
        <ele>525.98</ele>
        <time>2022-07-21T11:12:56Z</time>
      </trkpt>
      <trkpt lat="46.50185" lon="5.6947">
        <ele>526.46</ele>
        <time>2022-07-21T11:13:08Z</time>
      </trkpt>
      <trkpt lat="46.50188" lon="5.6946">
        <ele>527.42</ele>
        <time>2022-07-21T11:13:18Z</time>
      </trkpt>
      <trkpt lat="46.50187" lon="5.69448">
        <ele>528.38</ele>
        <time>2022-07-21T11:13:25Z</time>
      </trkpt>
      <trkpt lat="46.50177" lon="5.69428">
        <ele>529.82</ele>
        <time>2022-07-21T11:13:38Z</time>
      </trkpt>
      <trkpt lat="46.50173" lon="5.69412">
        <ele>530.79</ele>
        <time>2022-07-21T11:13:52Z</time>
      </trkpt>
      <trkpt lat="46.5017" lon="5.69406">
        <ele>530.79</ele>
        <time>2022-07-21T11:13:58Z</time>
      </trkpt>
      <trkpt lat="46.5017" lon="5.69385">
        <ele>530.79</ele>
        <time>2022-07-21T11:14:14Z</time>
      </trkpt>
      <trkpt lat="46.50177" lon="5.69369">
        <ele>530.79</ele>
        <time>2022-07-21T11:14:26Z</time>
      </trkpt>
      <trkpt lat="46.50189" lon="5.69359">
        <ele>531.27</ele>
        <time>2022-07-21T11:14:43Z</time>
      </trkpt>
      <trkpt lat="46.50206" lon="5.69362">
        <ele>533.67</ele>
        <time>2022-07-21T11:14:59Z</time>
      </trkpt>
      <trkpt lat="46.50219" lon="5.69337">
        <ele>534.63</ele>
        <time>2022-07-21T11:15:13Z</time>
      </trkpt>
      <trkpt lat="46.50231" lon="5.69318">
        <ele>535.11</ele>
        <time>2022-07-21T11:15:28Z</time>
      </trkpt>
      <trkpt lat="46.50235" lon="5.69308">
        <ele>535.11</ele>
        <time>2022-07-21T11:15:33Z</time>
      </trkpt>
      <trkpt lat="46.50236" lon="5.69287">
        <ele>534.63</ele>
        <time>2022-07-21T11:15:49Z</time>
      </trkpt>
      <trkpt lat="46.50237" lon="5.69285">
        <ele>535.11</ele>
        <time>2022-07-21T11:16:08Z</time>
      </trkpt>
      <trkpt lat="46.50238" lon="5.6929">
        <ele>534.63</ele>
        <time>2022-07-21T11:16:37Z</time>
      </trkpt>
      <trkpt lat="46.50237" lon="5.69286">
        <ele>534.63</ele>
        <time>2022-07-21T11:17:05Z</time>
      </trkpt>
      <trkpt lat="46.50227" lon="5.69279">
        <ele>535.11</ele>
        <time>2022-07-21T11:17:24Z</time>
      </trkpt>
      <trkpt lat="46.50217" lon="5.69273">
        <ele>535.11</ele>
        <time>2022-07-21T11:17:38Z</time>
      </trkpt>
      <trkpt lat="46.50215" lon="5.69272">
        <ele>534.63</ele>
        <time>2022-07-21T11:17:40Z</time>
      </trkpt>
      <trkpt lat="46.502" lon="5.69255">
        <ele>534.15</ele>
        <time>2022-07-21T11:17:55Z</time>
      </trkpt>
      <trkpt lat="46.50189" lon="5.69238">
        <ele>533.67</ele>
        <time>2022-07-21T11:18:09Z</time>
      </trkpt>
      <trkpt lat="46.50173" lon="5.69222">
        <ele>533.19</ele>
        <time>2022-07-21T11:18:22Z</time>
      </trkpt>
      <trkpt lat="46.50169" lon="5.6921">
        <ele>533.67</ele>
        <time>2022-07-21T11:18:33Z</time>
      </trkpt>
      <trkpt lat="46.50166" lon="5.69203">
        <ele>532.71</ele>
        <time>2022-07-21T11:18:39Z</time>
      </trkpt>
      <trkpt lat="46.50157" lon="5.69191">
        <ele>532.23</ele>
        <time>2022-07-21T11:18:51Z</time>
      </trkpt>
      <trkpt lat="46.5014" lon="5.69181">
        <ele>531.75</ele>
        <time>2022-07-21T11:19:07Z</time>
      </trkpt>
      <trkpt lat="46.50135" lon="5.69174">
        <ele>531.75</ele>
        <time>2022-07-21T11:19:14Z</time>
      </trkpt>
      <trkpt lat="46.50122" lon="5.69151">
        <ele>531.27</ele>
        <time>2022-07-21T11:19:29Z</time>
      </trkpt>
      <trkpt lat="46.50111" lon="5.69138">
        <ele>530.79</ele>
        <time>2022-07-21T11:19:42Z</time>
      </trkpt>
      <trkpt lat="46.50111" lon="5.69137">
        <ele>530.79</ele>
        <time>2022-07-21T11:19:43Z</time>
      </trkpt>
      <trkpt lat="46.50095" lon="5.69112">
        <ele>530.3</ele>
        <time>2022-07-21T11:19:59Z</time>
      </trkpt>
      <trkpt lat="46.50085" lon="5.69095">
        <ele>529.82</ele>
        <time>2022-07-21T11:20:11Z</time>
      </trkpt>
      <trkpt lat="46.50078" lon="5.69075">
        <ele>528.86</ele>
        <time>2022-07-21T11:20:24Z</time>
      </trkpt>
      <trkpt lat="46.50076" lon="5.69071">
        <ele>528.38</ele>
        <time>2022-07-21T11:20:32Z</time>
      </trkpt>
      <trkpt lat="46.50075" lon="5.6907">
        <ele>527.9</ele>
        <time>2022-07-21T11:20:33Z</time>
      </trkpt>
      <trkpt lat="46.50069" lon="5.69059">
        <ele>529.34</ele>
        <time>2022-07-21T11:20:42Z</time>
      </trkpt>
      <trkpt lat="46.50053" lon="5.69038">
        <ele>529.82</ele>
        <time>2022-07-21T11:20:59Z</time>
      </trkpt>
      <trkpt lat="46.50046" lon="5.69011">
        <ele>528.38</ele>
        <time>2022-07-21T11:21:14Z</time>
      </trkpt>
      <trkpt lat="46.50039" lon="5.68986">
        <ele>527.42</ele>
        <time>2022-07-21T11:21:27Z</time>
      </trkpt>
      <trkpt lat="46.50037" lon="5.6898">
        <ele>527.42</ele>
        <time>2022-07-21T11:21:32Z</time>
      </trkpt>
      <trkpt lat="46.50036" lon="5.68979">
        <ele>526.94</ele>
        <time>2022-07-21T11:21:33Z</time>
      </trkpt>
      <trkpt lat="46.50035" lon="5.68977">
        <ele>527.42</ele>
        <time>2022-07-21T11:21:34Z</time>
      </trkpt>
      <trkpt lat="46.50026" lon="5.68965">
        <ele>525.98</ele>
        <time>2022-07-21T11:21:46Z</time>
      </trkpt>
      <trkpt lat="46.50015" lon="5.68951">
        <ele>525.02</ele>
        <time>2022-07-21T11:21:57Z</time>
      </trkpt>
      <trkpt lat="46.50001" lon="5.68937">
        <ele>524.06</ele>
        <time>2022-07-21T11:22:12Z</time>
      </trkpt>
      <trkpt lat="46.49991" lon="5.68929">
        <ele>523.09</ele>
        <time>2022-07-21T11:22:24Z</time>
      </trkpt>
      <trkpt lat="46.49979" lon="5.6892">
        <ele>523.09</ele>
        <time>2022-07-21T11:22:39Z</time>
      </trkpt>
      <trkpt lat="46.49983" lon="5.68921">
        <ele>523.09</ele>
        <time>2022-07-21T11:22:59Z</time>
      </trkpt>
      <trkpt lat="46.49977" lon="5.68923">
        <ele>524.06</ele>
        <time>2022-07-21T11:23:13Z</time>
      </trkpt>
      <trkpt lat="46.49971" lon="5.68906">
        <ele>525.98</ele>
        <time>2022-07-21T11:23:29Z</time>
      </trkpt>
      <trkpt lat="46.49968" lon="5.68902">
        <ele>526.46</ele>
        <time>2022-07-21T11:23:34Z</time>
      </trkpt>
      <trkpt lat="46.49958" lon="5.68881">
        <ele>526.94</ele>
        <time>2022-07-21T11:23:50Z</time>
      </trkpt>
      <trkpt lat="46.49951" lon="5.68859">
        <ele>527.42</ele>
        <time>2022-07-21T11:24:04Z</time>
      </trkpt>
      <trkpt lat="46.49938" lon="5.68829">
        <ele>527.42</ele>
        <time>2022-07-21T11:24:19Z</time>
      </trkpt>
      <trkpt lat="46.49929" lon="5.68805">
        <ele>525.98</ele>
        <time>2022-07-21T11:24:36Z</time>
      </trkpt>
      <trkpt lat="46.49917" lon="5.68774">
        <ele>525.5</ele>
        <time>2022-07-21T11:24:54Z</time>
      </trkpt>
      <trkpt lat="46.49912" lon="5.68755">
        <ele>524.54</ele>
        <time>2022-07-21T11:25:08Z</time>
      </trkpt>
      <trkpt lat="46.49911" lon="5.68751">
        <ele>524.54</ele>
        <time>2022-07-21T11:25:11Z</time>
      </trkpt>
      <trkpt lat="46.49903" lon="5.68726">
        <ele>524.06</ele>
        <time>2022-07-21T11:25:25Z</time>
      </trkpt>
      <trkpt lat="46.49899" lon="5.6871">
        <ele>523.09</ele>
        <time>2022-07-21T11:25:37Z</time>
      </trkpt>
      <trkpt lat="46.49887" lon="5.68683">
        <ele>523.58</ele>
        <time>2022-07-21T11:25:53Z</time>
      </trkpt>
      <trkpt lat="46.49873" lon="5.68676">
        <ele>523.58</ele>
        <time>2022-07-21T11:26:10Z</time>
      </trkpt>
      <trkpt lat="46.49857" lon="5.68696">
        <ele>524.54</ele>
        <time>2022-07-21T11:26:25Z</time>
      </trkpt>
      <trkpt lat="46.49846" lon="5.6871">
        <ele>525.5</ele>
        <time>2022-07-21T11:26:41Z</time>
      </trkpt>
      <trkpt lat="46.49827" lon="5.68729">
        <ele>526.46</ele>
        <time>2022-07-21T11:26:58Z</time>
      </trkpt>
      <trkpt lat="46.49819" lon="5.68735">
        <ele>526.94</ele>
        <time>2022-07-21T11:27:06Z</time>
      </trkpt>
      <trkpt lat="46.498" lon="5.68745">
        <ele>526.94</ele>
        <time>2022-07-21T11:27:22Z</time>
      </trkpt>
      <trkpt lat="46.49785" lon="5.68764">
        <ele>527.9</ele>
        <time>2022-07-21T11:27:38Z</time>
      </trkpt>
      <trkpt lat="46.49766" lon="5.6878">
        <ele>528.38</ele>
        <time>2022-07-21T11:27:55Z</time>
      </trkpt>
      <trkpt lat="46.49765" lon="5.68781">
        <ele>528.38</ele>
        <time>2022-07-21T11:27:56Z</time>
      </trkpt>
      <trkpt lat="46.49748" lon="5.68799">
        <ele>528.38</ele>
        <time>2022-07-21T11:28:14Z</time>
      </trkpt>
      <trkpt lat="46.49737" lon="5.68828">
        <ele>528.86</ele>
        <time>2022-07-21T11:28:31Z</time>
      </trkpt>
      <trkpt lat="46.49736" lon="5.68831">
        <ele>528.86</ele>
        <time>2022-07-21T11:28:33Z</time>
      </trkpt>
      <trkpt lat="46.49719" lon="5.68848">
        <ele>529.82</ele>
        <time>2022-07-21T11:28:49Z</time>
      </trkpt>
      <trkpt lat="46.49706" lon="5.68862">
        <ele>530.3</ele>
        <time>2022-07-21T11:29:03Z</time>
      </trkpt>
      <trkpt lat="46.49701" lon="5.68894">
        <ele>530.79</ele>
        <time>2022-07-21T11:29:20Z</time>
      </trkpt>
      <trkpt lat="46.49699" lon="5.68896">
        <ele>530.79</ele>
        <time>2022-07-21T11:29:22Z</time>
      </trkpt>
      <trkpt lat="46.49689" lon="5.68901">
        <ele>530.3</ele>
        <time>2022-07-21T11:29:27Z</time>
      </trkpt>
      <trkpt lat="46.49676" lon="5.68919">
        <ele>530.79</ele>
        <time>2022-07-21T11:29:41Z</time>
      </trkpt>
      <trkpt lat="46.49672" lon="5.68922">
        <ele>530.79</ele>
        <time>2022-07-21T11:29:46Z</time>
      </trkpt>
      <trkpt lat="46.49667" lon="5.6893">
        <ele>531.27</ele>
        <time>2022-07-21T11:29:52Z</time>
      </trkpt>
      <trkpt lat="46.49655" lon="5.68929">
        <ele>530.3</ele>
        <time>2022-07-21T11:30:05Z</time>
      </trkpt>
      <trkpt lat="46.49652" lon="5.68925">
        <ele>531.27</ele>
        <time>2022-07-21T11:30:10Z</time>
      </trkpt>
      <trkpt lat="46.4964" lon="5.68911">
        <ele>531.27</ele>
        <time>2022-07-21T11:30:24Z</time>
      </trkpt>
      <trkpt lat="46.49625" lon="5.68901">
        <ele>531.27</ele>
        <time>2022-07-21T11:30:38Z</time>
      </trkpt>
      <trkpt lat="46.49606" lon="5.68896">
        <ele>531.27</ele>
        <time>2022-07-21T11:30:52Z</time>
      </trkpt>
      <trkpt lat="46.49606" lon="5.68895">
        <ele>531.27</ele>
        <time>2022-07-21T11:30:53Z</time>
      </trkpt>
      <trkpt lat="46.49591" lon="5.68888">
        <ele>530.79</ele>
        <time>2022-07-21T11:31:07Z</time>
      </trkpt>
      <trkpt lat="46.49572" lon="5.68881">
        <ele>530.79</ele>
        <time>2022-07-21T11:31:21Z</time>
      </trkpt>
      <trkpt lat="46.4957" lon="5.68882">
        <ele>530.79</ele>
        <time>2022-07-21T11:31:23Z</time>
      </trkpt>
      <trkpt lat="46.49545" lon="5.68896">
        <ele>531.27</ele>
        <time>2022-07-21T11:31:40Z</time>
      </trkpt>
      <trkpt lat="46.4953" lon="5.68914">
        <ele>531.27</ele>
        <time>2022-07-21T11:31:55Z</time>
      </trkpt>
      <trkpt lat="46.49516" lon="5.68932">
        <ele>531.27</ele>
        <time>2022-07-21T11:32:09Z</time>
      </trkpt>
      <trkpt lat="46.49511" lon="5.68938">
        <ele>531.27</ele>
        <time>2022-07-21T11:32:14Z</time>
      </trkpt>
      <trkpt lat="46.49507" lon="5.68944">
        <ele>531.27</ele>
        <time>2022-07-21T11:32:20Z</time>
      </trkpt>
      <trkpt lat="46.49505" lon="5.68947">
        <ele>531.75</ele>
        <time>2022-07-21T11:32:22Z</time>
      </trkpt>
      <trkpt lat="46.49499" lon="5.68951">
        <ele>531.75</ele>
        <time>2022-07-21T11:32:27Z</time>
      </trkpt>
      <trkpt lat="46.49488" lon="5.68962">
        <ele>530.79</ele>
        <time>2022-07-21T11:32:43Z</time>
      </trkpt>
      <trkpt lat="46.49474" lon="5.68965">
        <ele>530.3</ele>
        <time>2022-07-21T11:32:54Z</time>
      </trkpt>
      <trkpt lat="46.49454" lon="5.68972">
        <ele>529.82</ele>
        <time>2022-07-21T11:33:09Z</time>
      </trkpt>
      <trkpt lat="46.49438" lon="5.68984">
        <ele>530.3</ele>
        <time>2022-07-21T11:33:23Z</time>
      </trkpt>
      <trkpt lat="46.49417" lon="5.69003">
        <ele>530.3</ele>
        <time>2022-07-21T11:33:40Z</time>
      </trkpt>
      <trkpt lat="46.49404" lon="5.69022">
        <ele>528.86</ele>
        <time>2022-07-21T11:33:55Z</time>
      </trkpt>
      <trkpt lat="46.49397" lon="5.6903">
        <ele>528.86</ele>
        <time>2022-07-21T11:34:01Z</time>
      </trkpt>
      <trkpt lat="46.49379" lon="5.69044">
        <ele>528.86</ele>
        <time>2022-07-21T11:34:16Z</time>
      </trkpt>
      <trkpt lat="46.49365" lon="5.69059">
        <ele>528.38</ele>
        <time>2022-07-21T11:34:31Z</time>
      </trkpt>
      <trkpt lat="46.49346" lon="5.69067">
        <ele>528.86</ele>
        <time>2022-07-21T11:34:46Z</time>
      </trkpt>
      <trkpt lat="46.49332" lon="5.69069">
        <ele>529.34</ele>
        <time>2022-07-21T11:35:00Z</time>
      </trkpt>
      <trkpt lat="46.49317" lon="5.69075">
        <ele>530.79</ele>
        <time>2022-07-21T11:35:13Z</time>
      </trkpt>
      <trkpt lat="46.49297" lon="5.69078">
        <ele>530.3</ele>
        <time>2022-07-21T11:35:30Z</time>
      </trkpt>
      <trkpt lat="46.49275" lon="5.69091">
        <ele>529.82</ele>
        <time>2022-07-21T11:35:46Z</time>
      </trkpt>
      <trkpt lat="46.49268" lon="5.691">
        <ele>530.3</ele>
        <time>2022-07-21T11:35:54Z</time>
      </trkpt>
      <trkpt lat="46.4925" lon="5.69116">
        <ele>530.79</ele>
        <time>2022-07-21T11:36:10Z</time>
      </trkpt>
      <trkpt lat="46.4923" lon="5.69125">
        <ele>531.27</ele>
        <time>2022-07-21T11:36:25Z</time>
      </trkpt>
      <trkpt lat="46.49214" lon="5.69132">
        <ele>531.75</ele>
        <time>2022-07-21T11:36:39Z</time>
      </trkpt>
      <trkpt lat="46.49205" lon="5.69138">
        <ele>531.27</ele>
        <time>2022-07-21T11:36:49Z</time>
      </trkpt>
      <trkpt lat="46.49203" lon="5.69139">
        <ele>531.27</ele>
        <time>2022-07-21T11:36:50Z</time>
      </trkpt>
      <trkpt lat="46.49202" lon="5.6914">
        <ele>531.27</ele>
        <time>2022-07-21T11:36:51Z</time>
      </trkpt>
      <trkpt lat="46.49201" lon="5.69142">
        <ele>531.27</ele>
        <time>2022-07-21T11:36:52Z</time>
      </trkpt>
      <trkpt lat="46.49199" lon="5.69143">
        <ele>531.75</ele>
        <time>2022-07-21T11:36:53Z</time>
      </trkpt>
      <trkpt lat="46.49198" lon="5.69144">
        <ele>531.27</ele>
        <time>2022-07-21T11:36:54Z</time>
      </trkpt>
      <trkpt lat="46.49197" lon="5.69145">
        <ele>531.75</ele>
        <time>2022-07-21T11:36:55Z</time>
      </trkpt>
      <trkpt lat="46.49196" lon="5.69146">
        <ele>531.27</ele>
        <time>2022-07-21T11:36:56Z</time>
      </trkpt>
      <trkpt lat="46.49195" lon="5.69147">
        <ele>531.75</ele>
        <time>2022-07-21T11:36:57Z</time>
      </trkpt>
      <trkpt lat="46.49194" lon="5.69148">
        <ele>531.75</ele>
        <time>2022-07-21T11:36:58Z</time>
      </trkpt>
      <trkpt lat="46.49193" lon="5.69149">
        <ele>532.23</ele>
        <time>2022-07-21T11:36:59Z</time>
      </trkpt>
      <trkpt lat="46.49183" lon="5.69164">
        <ele>532.23</ele>
        <time>2022-07-21T11:37:12Z</time>
      </trkpt>
      <trkpt lat="46.49173" lon="5.69187">
        <ele>532.23</ele>
        <time>2022-07-21T11:37:25Z</time>
      </trkpt>
      <trkpt lat="46.49159" lon="5.69196">
        <ele>533.19</ele>
        <time>2022-07-21T11:37:38Z</time>
      </trkpt>
      <trkpt lat="46.49144" lon="5.692">
        <ele>531.75</ele>
        <time>2022-07-21T11:37:51Z</time>
      </trkpt>
      <trkpt lat="46.49129" lon="5.69205">
        <ele>532.23</ele>
        <time>2022-07-21T11:38:03Z</time>
      </trkpt>
      <trkpt lat="46.49109" lon="5.69219">
        <ele>532.71</ele>
        <time>2022-07-21T11:38:18Z</time>
      </trkpt>
      <trkpt lat="46.49093" lon="5.69223">
        <ele>532.71</ele>
        <time>2022-07-21T11:38:31Z</time>
      </trkpt>
      <trkpt lat="46.49073" lon="5.6922">
        <ele>532.71</ele>
        <time>2022-07-21T11:38:47Z</time>
      </trkpt>
      <trkpt lat="46.49054" lon="5.69215">
        <ele>532.23</ele>
        <time>2022-07-21T11:39:03Z</time>
      </trkpt>
      <trkpt lat="46.49029" lon="5.69203">
        <ele>532.71</ele>
        <time>2022-07-21T11:39:22Z</time>
      </trkpt>
      <trkpt lat="46.49011" lon="5.69193">
        <ele>532.23</ele>
        <time>2022-07-21T11:39:36Z</time>
      </trkpt>
      <trkpt lat="46.49008" lon="5.69192">
        <ele>532.23</ele>
        <time>2022-07-21T11:39:41Z</time>
      </trkpt>
      <trkpt lat="46.48996" lon="5.6919">
        <ele>532.71</ele>
        <time>2022-07-21T11:39:49Z</time>
      </trkpt>
      <trkpt lat="46.48995" lon="5.69191">
        <ele>532.71</ele>
        <time>2022-07-21T11:39:50Z</time>
      </trkpt>
      <trkpt lat="46.48994" lon="5.69191">
        <ele>532.71</ele>
        <time>2022-07-21T11:39:51Z</time>
      </trkpt>
      <trkpt lat="46.48992" lon="5.69191">
        <ele>532.23</ele>
        <time>2022-07-21T11:39:52Z</time>
      </trkpt>
      <trkpt lat="46.48973" lon="5.69199">
        <ele>533.19</ele>
        <time>2022-07-21T11:40:08Z</time>
      </trkpt>
      <trkpt lat="46.48962" lon="5.69204">
        <ele>532.71</ele>
        <time>2022-07-21T11:40:21Z</time>
      </trkpt>
      <trkpt lat="46.48959" lon="5.69205">
        <ele>532.71</ele>
        <time>2022-07-21T11:40:25Z</time>
      </trkpt>
      <trkpt lat="46.48956" lon="5.69206">
        <ele>532.23</ele>
        <time>2022-07-21T11:40:27Z</time>
      </trkpt>
      <trkpt lat="46.48954" lon="5.69206">
        <ele>532.71</ele>
        <time>2022-07-21T11:40:28Z</time>
      </trkpt>
      <trkpt lat="46.48934" lon="5.69209">
        <ele>532.23</ele>
        <time>2022-07-21T11:40:42Z</time>
      </trkpt>
      <trkpt lat="46.48917" lon="5.6922">
        <ele>533.67</ele>
        <time>2022-07-21T11:40:57Z</time>
      </trkpt>
      <trkpt lat="46.48904" lon="5.69231">
        <ele>533.19</ele>
        <time>2022-07-21T11:41:09Z</time>
      </trkpt>
      <trkpt lat="46.48887" lon="5.6924">
        <ele>531.75</ele>
        <time>2022-07-21T11:41:21Z</time>
      </trkpt>
      <trkpt lat="46.48871" lon="5.69245">
        <ele>531.75</ele>
        <time>2022-07-21T11:41:33Z</time>
      </trkpt>
      <trkpt lat="46.48856" lon="5.69249">
        <ele>532.23</ele>
        <time>2022-07-21T11:41:46Z</time>
      </trkpt>
      <trkpt lat="46.48841" lon="5.69249">
        <ele>534.15</ele>
        <time>2022-07-21T11:41:59Z</time>
      </trkpt>
      <trkpt lat="46.48824" lon="5.69246">
        <ele>535.11</ele>
        <time>2022-07-21T11:42:13Z</time>
      </trkpt>
      <trkpt lat="46.48809" lon="5.69245">
        <ele>535.59</ele>
        <time>2022-07-21T11:42:25Z</time>
      </trkpt>
      <trkpt lat="46.48804" lon="5.69244">
        <ele>535.59</ele>
        <time>2022-07-21T11:42:31Z</time>
      </trkpt>
      <trkpt lat="46.48801" lon="5.69244">
        <ele>535.59</ele>
        <time>2022-07-21T11:42:33Z</time>
      </trkpt>
      <trkpt lat="46.48799" lon="5.69244">
        <ele>535.59</ele>
        <time>2022-07-21T11:42:34Z</time>
      </trkpt>
      <trkpt lat="46.48779" lon="5.69246">
        <ele>535.11</ele>
        <time>2022-07-21T11:42:49Z</time>
      </trkpt>
      <trkpt lat="46.48773" lon="5.69247">
        <ele>535.11</ele>
        <time>2022-07-21T11:42:54Z</time>
      </trkpt>
      <trkpt lat="46.48758" lon="5.69245">
        <ele>533.67</ele>
        <time>2022-07-21T11:43:09Z</time>
      </trkpt>
      <trkpt lat="46.48752" lon="5.69244">
        <ele>533.19</ele>
        <time>2022-07-21T11:43:17Z</time>
      </trkpt>
      <trkpt lat="46.48748" lon="5.69243">
        <ele>532.23</ele>
        <time>2022-07-21T11:43:21Z</time>
      </trkpt>
      <trkpt lat="46.48747" lon="5.69243">
        <ele>531.75</ele>
        <time>2022-07-21T11:43:22Z</time>
      </trkpt>
      <trkpt lat="46.48736" lon="5.6925">
        <ele>529.82</ele>
        <time>2022-07-21T11:43:34Z</time>
      </trkpt>
      <trkpt lat="46.48729" lon="5.69255">
        <ele>529.34</ele>
        <time>2022-07-21T11:43:41Z</time>
      </trkpt>
      <trkpt lat="46.48716" lon="5.69257">
        <ele>527.9</ele>
        <time>2022-07-21T11:43:52Z</time>
      </trkpt>
      <trkpt lat="46.48707" lon="5.69256">
        <ele>524.54</ele>
        <time>2022-07-21T11:44:08Z</time>
      </trkpt>
      <trkpt lat="46.48688" lon="5.6925">
        <ele>522.13</ele>
        <time>2022-07-21T11:44:19Z</time>
      </trkpt>
      <trkpt lat="46.48663" lon="5.69242">
        <ele>520.69</ele>
        <time>2022-07-21T11:44:33Z</time>
      </trkpt>
      <trkpt lat="46.48655" lon="5.69241">
        <ele>517.81</ele>
        <time>2022-07-21T11:44:46Z</time>
      </trkpt>
      <trkpt lat="46.4864" lon="5.69239">
        <ele>515.88</ele>
        <time>2022-07-21T11:44:58Z</time>
      </trkpt>
      <trkpt lat="46.48617" lon="5.69239">
        <ele>513.96</ele>
        <time>2022-07-21T11:45:10Z</time>
      </trkpt>
      <trkpt lat="46.4861" lon="5.69238">
        <ele>512.52</ele>
        <time>2022-07-21T11:45:17Z</time>
      </trkpt>
      <trkpt lat="46.48608" lon="5.69238">
        <ele>512.52</ele>
        <time>2022-07-21T11:45:18Z</time>
      </trkpt>
      <trkpt lat="46.48606" lon="5.69237">
        <ele>512.52</ele>
        <time>2022-07-21T11:45:19Z</time>
      </trkpt>
      <trkpt lat="46.48601" lon="5.69235">
        <ele>512.04</ele>
        <time>2022-07-21T11:45:24Z</time>
      </trkpt>
      <trkpt lat="46.48589" lon="5.69232">
        <ele>510.12</ele>
        <time>2022-07-21T11:45:36Z</time>
      </trkpt>
      <trkpt lat="46.48571" lon="5.69227">
        <ele>509.64</ele>
        <time>2022-07-21T11:45:51Z</time>
      </trkpt>
      <trkpt lat="46.48567" lon="5.69226">
        <ele>509.64</ele>
        <time>2022-07-21T11:45:54Z</time>
      </trkpt>
      <trkpt lat="46.48553" lon="5.69227">
        <ele>509.16</ele>
        <time>2022-07-21T11:46:05Z</time>
      </trkpt>
      <trkpt lat="46.48549" lon="5.6923">
        <ele>509.16</ele>
        <time>2022-07-21T11:46:10Z</time>
      </trkpt>
      <trkpt lat="46.48546" lon="5.69231">
        <ele>508.67</ele>
        <time>2022-07-21T11:46:12Z</time>
      </trkpt>
      <trkpt lat="46.48545" lon="5.69231">
        <ele>509.16</ele>
        <time>2022-07-21T11:46:13Z</time>
      </trkpt>
      <trkpt lat="46.48529" lon="5.69246">
        <ele>509.16</ele>
        <time>2022-07-21T11:46:26Z</time>
      </trkpt>
      <trkpt lat="46.48523" lon="5.69248">
        <ele>509.16</ele>
        <time>2022-07-21T11:46:31Z</time>
      </trkpt>
      <trkpt lat="46.48507" lon="5.69245">
        <ele>509.16</ele>
        <time>2022-07-21T11:46:46Z</time>
      </trkpt>
      <trkpt lat="46.485" lon="5.69247">
        <ele>509.64</ele>
        <time>2022-07-21T11:46:52Z</time>
      </trkpt>
      <trkpt lat="46.48498" lon="5.69249">
        <ele>509.64</ele>
        <time>2022-07-21T11:46:53Z</time>
      </trkpt>
      <trkpt lat="46.48491" lon="5.69251">
        <ele>510.12</ele>
        <time>2022-07-21T11:46:57Z</time>
      </trkpt>
      <trkpt lat="46.48489" lon="5.69251">
        <ele>510.6</ele>
        <time>2022-07-21T11:46:58Z</time>
      </trkpt>
      <trkpt lat="46.48488" lon="5.69251">
        <ele>509.64</ele>
        <time>2022-07-21T11:46:59Z</time>
      </trkpt>
      <trkpt lat="46.48472" lon="5.69259">
        <ele>511.08</ele>
        <time>2022-07-21T11:47:15Z</time>
      </trkpt>
      <trkpt lat="46.48455" lon="5.69275">
        <ele>512.04</ele>
        <time>2022-07-21T11:47:30Z</time>
      </trkpt>
      <trkpt lat="46.48441" lon="5.693">
        <ele>513.48</ele>
        <time>2022-07-21T11:47:45Z</time>
      </trkpt>
      <trkpt lat="46.48435" lon="5.693">
        <ele>513</ele>
        <time>2022-07-21T11:47:53Z</time>
      </trkpt>
      <trkpt lat="46.48434" lon="5.693">
        <ele>513.48</ele>
        <time>2022-07-21T11:47:54Z</time>
      </trkpt>
      <trkpt lat="46.48432" lon="5.693">
        <ele>513.48</ele>
        <time>2022-07-21T11:47:55Z</time>
      </trkpt>
      <trkpt lat="46.48418" lon="5.69301">
        <ele>513.96</ele>
        <time>2022-07-21T11:48:07Z</time>
      </trkpt>
      <trkpt lat="46.48416" lon="5.69302">
        <ele>513.48</ele>
        <time>2022-07-21T11:48:08Z</time>
      </trkpt>
      <trkpt lat="46.48414" lon="5.69303">
        <ele>513</ele>
        <time>2022-07-21T11:48:09Z</time>
      </trkpt>
      <trkpt lat="46.48411" lon="5.69304">
        <ele>513</ele>
        <time>2022-07-21T11:48:10Z</time>
      </trkpt>
      <trkpt lat="46.48409" lon="5.69304">
        <ele>513</ele>
        <time>2022-07-21T11:48:11Z</time>
      </trkpt>
      <trkpt lat="46.48407" lon="5.69304">
        <ele>513.48</ele>
        <time>2022-07-21T11:48:12Z</time>
      </trkpt>
      <trkpt lat="46.48387" lon="5.69316">
        <ele>513.96</ele>
        <time>2022-07-21T11:48:28Z</time>
      </trkpt>
      <trkpt lat="46.48371" lon="5.69322">
        <ele>513</ele>
        <time>2022-07-21T11:48:42Z</time>
      </trkpt>
      <trkpt lat="46.48372" lon="5.69329">
        <ele>513.96</ele>
        <time>2022-07-21T11:48:56Z</time>
      </trkpt>
      <trkpt lat="46.48371" lon="5.69328">
        <ele>513.96</ele>
        <time>2022-07-21T11:49:11Z</time>
      </trkpt>
      <trkpt lat="46.48358" lon="5.69333">
        <ele>513.48</ele>
        <time>2022-07-21T11:49:28Z</time>
      </trkpt>
      <trkpt lat="46.48351" lon="5.69329">
        <ele>513</ele>
        <time>2022-07-21T11:49:37Z</time>
      </trkpt>
      <trkpt lat="46.4835" lon="5.69328">
        <ele>513</ele>
        <time>2022-07-21T11:49:38Z</time>
      </trkpt>
      <trkpt lat="46.48344" lon="5.6931">
        <ele>512.52</ele>
        <time>2022-07-21T11:49:54Z</time>
      </trkpt>
      <trkpt lat="46.48337" lon="5.69296">
        <ele>513</ele>
        <time>2022-07-21T11:50:02Z</time>
      </trkpt>
      <trkpt lat="46.48337" lon="5.69294">
        <ele>512.04</ele>
        <time>2022-07-21T11:50:03Z</time>
      </trkpt>
      <trkpt lat="46.48337" lon="5.69291">
        <ele>513</ele>
        <time>2022-07-21T11:50:04Z</time>
      </trkpt>
      <trkpt lat="46.48337" lon="5.69289">
        <ele>512.52</ele>
        <time>2022-07-21T11:50:05Z</time>
      </trkpt>
      <trkpt lat="46.48336" lon="5.69286">
        <ele>513</ele>
        <time>2022-07-21T11:50:06Z</time>
      </trkpt>
      <trkpt lat="46.48335" lon="5.69284">
        <ele>513</ele>
        <time>2022-07-21T11:50:07Z</time>
      </trkpt>
      <trkpt lat="46.48326" lon="5.69264">
        <ele>512.04</ele>
        <time>2022-07-21T11:50:21Z</time>
      </trkpt>
      <trkpt lat="46.4832" lon="5.69238">
        <ele>511.56</ele>
        <time>2022-07-21T11:50:35Z</time>
      </trkpt>
      <trkpt lat="46.48314" lon="5.69225">
        <ele>510.6</ele>
        <time>2022-07-21T11:50:43Z</time>
      </trkpt>
      <trkpt lat="46.48309" lon="5.69198">
        <ele>511.08</ele>
        <time>2022-07-21T11:50:59Z</time>
      </trkpt>
      <trkpt lat="46.48308" lon="5.69196">
        <ele>511.08</ele>
        <time>2022-07-21T11:51:00Z</time>
      </trkpt>
      <trkpt lat="46.48308" lon="5.69193">
        <ele>510.6</ele>
        <time>2022-07-21T11:51:01Z</time>
      </trkpt>
      <trkpt lat="46.48302" lon="5.69169">
        <ele>511.08</ele>
        <time>2022-07-21T11:51:13Z</time>
      </trkpt>
      <trkpt lat="46.48301" lon="5.69137">
        <ele>512.04</ele>
        <time>2022-07-21T11:51:29Z</time>
      </trkpt>
      <trkpt lat="46.48297" lon="5.69122">
        <ele>512.52</ele>
        <time>2022-07-21T11:51:41Z</time>
      </trkpt>
      <trkpt lat="46.48295" lon="5.69119">
        <ele>512.52</ele>
        <time>2022-07-21T11:51:42Z</time>
      </trkpt>
      <trkpt lat="46.48273" lon="5.69087">
        <ele>512.52</ele>
        <time>2022-07-21T11:51:58Z</time>
      </trkpt>
      <trkpt lat="46.48256" lon="5.69086">
        <ele>512.52</ele>
        <time>2022-07-21T11:52:11Z</time>
      </trkpt>
      <trkpt lat="46.48235" lon="5.69084">
        <ele>512.04</ele>
        <time>2022-07-21T11:52:25Z</time>
      </trkpt>
      <trkpt lat="46.48226" lon="5.69074">
        <ele>512.04</ele>
        <time>2022-07-21T11:52:38Z</time>
      </trkpt>
      <trkpt lat="46.48204" lon="5.6905">
        <ele>509.16</ele>
        <time>2022-07-21T11:52:51Z</time>
      </trkpt>
      <trkpt lat="46.48189" lon="5.69039">
        <ele>509.64</ele>
        <time>2022-07-21T11:53:02Z</time>
      </trkpt>
      <trkpt lat="46.48185" lon="5.69042">
        <ele>509.64</ele>
        <time>2022-07-21T11:53:06Z</time>
      </trkpt>
      <trkpt lat="46.4817" lon="5.69033">
        <ele>509.16</ele>
        <time>2022-07-21T11:53:20Z</time>
      </trkpt>
      <trkpt lat="46.48155" lon="5.69024">
        <ele>508.67</ele>
        <time>2022-07-21T11:53:37Z</time>
      </trkpt>
      <trkpt lat="46.4815" lon="5.69023">
        <ele>508.67</ele>
        <time>2022-07-21T11:53:41Z</time>
      </trkpt>
      <trkpt lat="46.48149" lon="5.69022">
        <ele>509.16</ele>
        <time>2022-07-21T11:53:42Z</time>
      </trkpt>
      <trkpt lat="46.48132" lon="5.6902">
        <ele>509.64</ele>
        <time>2022-07-21T11:53:58Z</time>
      </trkpt>
      <trkpt lat="46.48118" lon="5.69027">
        <ele>513</ele>
        <time>2022-07-21T11:54:11Z</time>
      </trkpt>
      <trkpt lat="46.48104" lon="5.69035">
        <ele>513.96</ele>
        <time>2022-07-21T11:54:23Z</time>
      </trkpt>
      <trkpt lat="46.48093" lon="5.69043">
        <ele>516.37</ele>
        <time>2022-07-21T11:54:39Z</time>
      </trkpt>
      <trkpt lat="46.48076" lon="5.69048">
        <ele>518.29</ele>
        <time>2022-07-21T11:54:57Z</time>
      </trkpt>
      <trkpt lat="46.48063" lon="5.69056">
        <ele>519.73</ele>
        <time>2022-07-21T11:55:13Z</time>
      </trkpt>
      <trkpt lat="46.48049" lon="5.69061">
        <ele>521.65</ele>
        <time>2022-07-21T11:55:29Z</time>
      </trkpt>
      <trkpt lat="46.48036" lon="5.69067">
        <ele>522.61</ele>
        <time>2022-07-21T11:55:40Z</time>
      </trkpt>
      <trkpt lat="46.48019" lon="5.69071">
        <ele>524.54</ele>
        <time>2022-07-21T11:55:55Z</time>
      </trkpt>
      <trkpt lat="46.48007" lon="5.69075">
        <ele>526.94</ele>
        <time>2022-07-21T11:56:13Z</time>
      </trkpt>
      <trkpt lat="46.48004" lon="5.69075">
        <ele>527.42</ele>
        <time>2022-07-21T11:56:19Z</time>
      </trkpt>
      <trkpt lat="46.48003" lon="5.69075">
        <ele>527.9</ele>
        <time>2022-07-21T11:56:20Z</time>
      </trkpt>
      <trkpt lat="46.47993" lon="5.69068">
        <ele>529.34</ele>
        <time>2022-07-21T11:56:35Z</time>
      </trkpt>
      <trkpt lat="46.47973" lon="5.69059">
        <ele>531.27</ele>
        <time>2022-07-21T11:56:52Z</time>
      </trkpt>
      <trkpt lat="46.47963" lon="5.69043">
        <ele>532.71</ele>
        <time>2022-07-21T11:57:08Z</time>
      </trkpt>
      <trkpt lat="46.47965" lon="5.69026">
        <ele>533.67</ele>
        <time>2022-07-21T11:57:21Z</time>
      </trkpt>
      <trkpt lat="46.47967" lon="5.69011">
        <ele>535.11</ele>
        <time>2022-07-21T11:57:34Z</time>
      </trkpt>
      <trkpt lat="46.47962" lon="5.68981">
        <ele>536.07</ele>
        <time>2022-07-21T11:57:52Z</time>
      </trkpt>
      <trkpt lat="46.47965" lon="5.68964">
        <ele>536.07</ele>
        <time>2022-07-21T11:58:04Z</time>
      </trkpt>
      <trkpt lat="46.47967" lon="5.68963">
        <ele>536.07</ele>
        <time>2022-07-21T11:58:06Z</time>
      </trkpt>
      <trkpt lat="46.4797" lon="5.68956">
        <ele>535.59</ele>
        <time>2022-07-21T11:58:11Z</time>
      </trkpt>
      <trkpt lat="46.4797" lon="5.68954">
        <ele>536.07</ele>
        <time>2022-07-21T11:58:12Z</time>
      </trkpt>
      <trkpt lat="46.47969" lon="5.68938">
        <ele>536.07</ele>
        <time>2022-07-21T11:58:21Z</time>
      </trkpt>
      <trkpt lat="46.47969" lon="5.68935">
        <ele>536.07</ele>
        <time>2022-07-21T11:58:23Z</time>
      </trkpt>
      <trkpt lat="46.47968" lon="5.68928">
        <ele>535.59</ele>
        <time>2022-07-21T11:58:27Z</time>
      </trkpt>
      <trkpt lat="46.47968" lon="5.68926">
        <ele>536.07</ele>
        <time>2022-07-21T11:58:28Z</time>
      </trkpt>
      <trkpt lat="46.47963" lon="5.689">
        <ele>535.59</ele>
        <time>2022-07-21T11:58:45Z</time>
      </trkpt>
      <trkpt lat="46.47962" lon="5.68896">
        <ele>535.59</ele>
        <time>2022-07-21T11:58:48Z</time>
      </trkpt>
      <trkpt lat="46.47961" lon="5.68895">
        <ele>535.59</ele>
        <time>2022-07-21T11:58:49Z</time>
      </trkpt>
      <trkpt lat="46.47961" lon="5.68894">
        <ele>535.59</ele>
        <time>2022-07-21T11:58:50Z</time>
      </trkpt>
      <trkpt lat="46.4796" lon="5.68892">
        <ele>535.59</ele>
        <time>2022-07-21T11:58:51Z</time>
      </trkpt>
      <trkpt lat="46.4796" lon="5.68891">
        <ele>536.07</ele>
        <time>2022-07-21T11:58:52Z</time>
      </trkpt>
      <trkpt lat="46.47948" lon="5.68876">
        <ele>535.11</ele>
        <time>2022-07-21T11:59:06Z</time>
      </trkpt>
      <trkpt lat="46.47946" lon="5.68875">
        <ele>535.59</ele>
        <time>2022-07-21T11:59:07Z</time>
      </trkpt>
      <trkpt lat="46.47945" lon="5.68875">
        <ele>535.59</ele>
        <time>2022-07-21T11:59:08Z</time>
      </trkpt>
      <trkpt lat="46.47944" lon="5.68875">
        <ele>535.11</ele>
        <time>2022-07-21T11:59:09Z</time>
      </trkpt>
      <trkpt lat="46.47943" lon="5.68875">
        <ele>535.11</ele>
        <time>2022-07-21T11:59:10Z</time>
      </trkpt>
      <trkpt lat="46.47942" lon="5.68874">
        <ele>535.11</ele>
        <time>2022-07-21T11:59:11Z</time>
      </trkpt>
      <trkpt lat="46.4793" lon="5.68866">
        <ele>535.59</ele>
        <time>2022-07-21T11:59:23Z</time>
      </trkpt>
      <trkpt lat="46.47925" lon="5.68862">
        <ele>534.63</ele>
        <time>2022-07-21T11:59:29Z</time>
      </trkpt>
      <trkpt lat="46.4792" lon="5.68847">
        <ele>534.63</ele>
        <time>2022-07-21T11:59:40Z</time>
      </trkpt>
      <trkpt lat="46.4792" lon="5.68826">
        <ele>533.19</ele>
        <time>2022-07-21T11:59:55Z</time>
      </trkpt>
      <trkpt lat="46.4792" lon="5.68809">
        <ele>532.23</ele>
        <time>2022-07-21T12:00:06Z</time>
      </trkpt>
      <trkpt lat="46.47921" lon="5.68806">
        <ele>531.75</ele>
        <time>2022-07-21T12:00:09Z</time>
      </trkpt>
      <trkpt lat="46.47923" lon="5.68793">
        <ele>529.34</ele>
        <time>2022-07-21T12:00:22Z</time>
      </trkpt>
      <trkpt lat="46.47923" lon="5.68792">
        <ele>528.38</ele>
        <time>2022-07-21T12:00:25Z</time>
      </trkpt>
      <trkpt lat="46.47921" lon="5.68789">
        <ele>528.38</ele>
        <time>2022-07-21T12:00:27Z</time>
      </trkpt>
      <trkpt lat="46.4792" lon="5.68788">
        <ele>527.9</ele>
        <time>2022-07-21T12:00:28Z</time>
      </trkpt>
      <trkpt lat="46.47918" lon="5.68786">
        <ele>527.9</ele>
        <time>2022-07-21T12:00:29Z</time>
      </trkpt>
      <trkpt lat="46.47916" lon="5.68785">
        <ele>527.9</ele>
        <time>2022-07-21T12:00:30Z</time>
      </trkpt>
      <trkpt lat="46.47909" lon="5.68778">
        <ele>527.9</ele>
        <time>2022-07-21T12:00:39Z</time>
      </trkpt>
      <trkpt lat="46.47903" lon="5.68774">
        <ele>528.38</ele>
        <time>2022-07-21T12:00:46Z</time>
      </trkpt>
      <trkpt lat="46.47886" lon="5.68777">
        <ele>529.34</ele>
        <time>2022-07-21T12:01:00Z</time>
      </trkpt>
      <trkpt lat="46.47878" lon="5.68772">
        <ele>529.82</ele>
        <time>2022-07-21T12:01:09Z</time>
      </trkpt>
      <trkpt lat="46.47877" lon="5.6877">
        <ele>529.82</ele>
        <time>2022-07-21T12:01:10Z</time>
      </trkpt>
      <trkpt lat="46.47877" lon="5.68768">
        <ele>530.3</ele>
        <time>2022-07-21T12:01:11Z</time>
      </trkpt>
      <trkpt lat="46.47866" lon="5.68756">
        <ele>531.27</ele>
        <time>2022-07-21T12:01:23Z</time>
      </trkpt>
      <trkpt lat="46.47855" lon="5.68747">
        <ele>532.23</ele>
        <time>2022-07-21T12:01:34Z</time>
      </trkpt>
      <trkpt lat="46.47846" lon="5.68737">
        <ele>534.15</ele>
        <time>2022-07-21T12:01:48Z</time>
      </trkpt>
      <trkpt lat="46.47847" lon="5.68739">
        <ele>534.15</ele>
        <time>2022-07-21T12:02:02Z</time>
      </trkpt>
      <trkpt lat="46.47844" lon="5.68734">
        <ele>534.15</ele>
        <time>2022-07-21T12:02:20Z</time>
      </trkpt>
      <trkpt lat="46.47836" lon="5.68717">
        <ele>535.59</ele>
        <time>2022-07-21T12:02:33Z</time>
      </trkpt>
      <trkpt lat="46.47835" lon="5.68713">
        <ele>536.07</ele>
        <time>2022-07-21T12:02:36Z</time>
      </trkpt>
      <trkpt lat="46.47828" lon="5.68694">
        <ele>536.55</ele>
        <time>2022-07-21T12:02:49Z</time>
      </trkpt>
      <trkpt lat="46.47833" lon="5.6868">
        <ele>537.03</ele>
        <time>2022-07-21T12:03:01Z</time>
      </trkpt>
      <trkpt lat="46.47836" lon="5.68682">
        <ele>537.51</ele>
        <time>2022-07-21T12:03:13Z</time>
      </trkpt>
      <trkpt lat="46.47838" lon="5.68675">
        <ele>537.99</ele>
        <time>2022-07-21T12:03:27Z</time>
      </trkpt>
      <trkpt lat="46.47838" lon="5.68673">
        <ele>537.51</ele>
        <time>2022-07-21T12:03:28Z</time>
      </trkpt>
      <trkpt lat="46.47834" lon="5.68656">
        <ele>537.99</ele>
        <time>2022-07-21T12:03:41Z</time>
      </trkpt>
      <trkpt lat="46.47825" lon="5.68638">
        <ele>538.48</ele>
        <time>2022-07-21T12:03:56Z</time>
      </trkpt>
      <trkpt lat="46.47818" lon="5.68624">
        <ele>539.92</ele>
        <time>2022-07-21T12:04:10Z</time>
      </trkpt>
      <trkpt lat="46.47816" lon="5.68626">
        <ele>540.4</ele>
        <time>2022-07-21T12:04:41Z</time>
      </trkpt>
      <trkpt lat="46.4781" lon="5.68612">
        <ele>541.36</ele>
        <time>2022-07-21T12:05:02Z</time>
      </trkpt>
      <trkpt lat="46.478" lon="5.68589">
        <ele>541.84</ele>
        <time>2022-07-21T12:05:19Z</time>
      </trkpt>
      <trkpt lat="46.47795" lon="5.6857">
        <ele>542.32</ele>
        <time>2022-07-21T12:05:36Z</time>
      </trkpt>
      <trkpt lat="46.47792" lon="5.68569">
        <ele>541.84</ele>
        <time>2022-07-21T12:05:58Z</time>
      </trkpt>
      <trkpt lat="46.47792" lon="5.68557">
        <ele>541.84</ele>
        <time>2022-07-21T12:06:07Z</time>
      </trkpt>
      <trkpt lat="46.47792" lon="5.68556">
        <ele>541.84</ele>
        <time>2022-07-21T12:06:08Z</time>
      </trkpt>
      <trkpt lat="46.47792" lon="5.68554">
        <ele>541.84</ele>
        <time>2022-07-21T12:06:09Z</time>
      </trkpt>
      <trkpt lat="46.47792" lon="5.68553">
        <ele>541.84</ele>
        <time>2022-07-21T12:06:10Z</time>
      </trkpt>
      <trkpt lat="46.4779" lon="5.68536">
        <ele>542.32</ele>
        <time>2022-07-21T12:06:22Z</time>
      </trkpt>
      <trkpt lat="46.47788" lon="5.68524">
        <ele>541.36</ele>
        <time>2022-07-21T12:06:34Z</time>
      </trkpt>
      <trkpt lat="46.47787" lon="5.68521">
        <ele>541.36</ele>
        <time>2022-07-21T12:06:36Z</time>
      </trkpt>
      <trkpt lat="46.47788" lon="5.68519">
        <ele>541.36</ele>
        <time>2022-07-21T12:06:37Z</time>
      </trkpt>
      <trkpt lat="46.47788" lon="5.68518">
        <ele>541.84</ele>
        <time>2022-07-21T12:06:38Z</time>
      </trkpt>
      <trkpt lat="46.47788" lon="5.68496">
        <ele>541.36</ele>
        <time>2022-07-21T12:06:52Z</time>
      </trkpt>
      <trkpt lat="46.47787" lon="5.6849">
        <ele>540.88</ele>
        <time>2022-07-21T12:06:55Z</time>
      </trkpt>
      <trkpt lat="46.47782" lon="5.6847">
        <ele>540.88</ele>
        <time>2022-07-21T12:07:08Z</time>
      </trkpt>
      <trkpt lat="46.4778" lon="5.68464">
        <ele>540.88</ele>
        <time>2022-07-21T12:07:13Z</time>
      </trkpt>
      <trkpt lat="46.47779" lon="5.68462">
        <ele>540.88</ele>
        <time>2022-07-21T12:07:14Z</time>
      </trkpt>
      <trkpt lat="46.47769" lon="5.68435">
        <ele>540.88</ele>
        <time>2022-07-21T12:07:31Z</time>
      </trkpt>
      <trkpt lat="46.47768" lon="5.68429">
        <ele>541.36</ele>
        <time>2022-07-21T12:07:37Z</time>
      </trkpt>
      <trkpt lat="46.47767" lon="5.68427">
        <ele>541.36</ele>
        <time>2022-07-21T12:07:38Z</time>
      </trkpt>
      <trkpt lat="46.47767" lon="5.68425">
        <ele>541.36</ele>
        <time>2022-07-21T12:07:39Z</time>
      </trkpt>
      <trkpt lat="46.47767" lon="5.68423">
        <ele>541.36</ele>
        <time>2022-07-21T12:07:40Z</time>
      </trkpt>
      <trkpt lat="46.47765" lon="5.68406">
        <ele>540.4</ele>
        <time>2022-07-21T12:07:53Z</time>
      </trkpt>
      <trkpt lat="46.47764" lon="5.68404">
        <ele>539.92</ele>
        <time>2022-07-21T12:07:54Z</time>
      </trkpt>
      <trkpt lat="46.47763" lon="5.68402">
        <ele>539.92</ele>
        <time>2022-07-21T12:07:55Z</time>
      </trkpt>
      <trkpt lat="46.47762" lon="5.684">
        <ele>539.44</ele>
        <time>2022-07-21T12:07:56Z</time>
      </trkpt>
      <trkpt lat="46.47761" lon="5.68398">
        <ele>539.92</ele>
        <time>2022-07-21T12:07:57Z</time>
      </trkpt>
      <trkpt lat="46.47756" lon="5.68393">
        <ele>539.92</ele>
        <time>2022-07-21T12:08:11Z</time>
      </trkpt>
      <trkpt lat="46.47754" lon="5.68392">
        <ele>539.44</ele>
        <time>2022-07-21T12:08:36Z</time>
      </trkpt>
      <trkpt lat="46.47755" lon="5.68386">
        <ele>539.92</ele>
        <time>2022-07-21T12:09:03Z</time>
      </trkpt>
      <trkpt lat="46.47754" lon="5.68384">
        <ele>539.44</ele>
        <time>2022-07-21T12:09:05Z</time>
      </trkpt>
      <trkpt lat="46.47753" lon="5.68382">
        <ele>539.44</ele>
        <time>2022-07-21T12:09:06Z</time>
      </trkpt>
      <trkpt lat="46.47752" lon="5.68381">
        <ele>539.44</ele>
        <time>2022-07-21T12:09:07Z</time>
      </trkpt>
      <trkpt lat="46.47752" lon="5.6838">
        <ele>539.92</ele>
        <time>2022-07-21T12:09:08Z</time>
      </trkpt>
      <trkpt lat="46.47745" lon="5.68364">
        <ele>538.96</ele>
        <time>2022-07-21T12:09:19Z</time>
      </trkpt>
      <trkpt lat="46.47732" lon="5.68344">
        <ele>539.44</ele>
        <time>2022-07-21T12:09:34Z</time>
      </trkpt>
      <trkpt lat="46.47725" lon="5.68332">
        <ele>540.88</ele>
        <time>2022-07-21T12:09:45Z</time>
      </trkpt>
      <trkpt lat="46.47723" lon="5.68307">
        <ele>540.4</ele>
        <time>2022-07-21T12:09:59Z</time>
      </trkpt>
      <trkpt lat="46.4772" lon="5.68286">
        <ele>541.36</ele>
        <time>2022-07-21T12:10:11Z</time>
      </trkpt>
      <trkpt lat="46.4771" lon="5.68259">
        <ele>540.4</ele>
        <time>2022-07-21T12:10:28Z</time>
      </trkpt>
      <trkpt lat="46.47702" lon="5.68239">
        <ele>540.88</ele>
        <time>2022-07-21T12:10:42Z</time>
      </trkpt>
      <trkpt lat="46.47689" lon="5.6822">
        <ele>540.4</ele>
        <time>2022-07-21T12:11:00Z</time>
      </trkpt>
      <trkpt lat="46.47688" lon="5.6822">
        <ele>540.4</ele>
        <time>2022-07-21T12:11:01Z</time>
      </trkpt>
      <trkpt lat="46.47684" lon="5.68218">
        <ele>540.4</ele>
        <time>2022-07-21T12:11:13Z</time>
      </trkpt>
      <trkpt lat="46.47695" lon="5.6822">
        <ele>540.88</ele>
        <time>2022-07-21T12:11:29Z</time>
      </trkpt>
      <trkpt lat="46.47696" lon="5.6822">
        <ele>539.92</ele>
        <time>2022-07-21T12:11:30Z</time>
      </trkpt>
      <trkpt lat="46.47702" lon="5.68217">
        <ele>540.88</ele>
        <time>2022-07-21T12:11:36Z</time>
      </trkpt>
      <trkpt lat="46.47704" lon="5.68211">
        <ele>541.36</ele>
        <time>2022-07-21T12:11:40Z</time>
      </trkpt>
      <trkpt lat="46.47709" lon="5.68203">
        <ele>541.36</ele>
        <time>2022-07-21T12:11:47Z</time>
      </trkpt>
      <trkpt lat="46.47721" lon="5.68178">
        <ele>540.88</ele>
        <time>2022-07-21T12:12:05Z</time>
      </trkpt>
      <trkpt lat="46.47725" lon="5.68163">
        <ele>541.36</ele>
        <time>2022-07-21T12:12:16Z</time>
      </trkpt>
      <trkpt lat="46.47732" lon="5.6814">
        <ele>541.36</ele>
        <time>2022-07-21T12:12:29Z</time>
      </trkpt>
      <trkpt lat="46.4773" lon="5.68114">
        <ele>540.4</ele>
        <time>2022-07-21T12:12:44Z</time>
      </trkpt>
      <trkpt lat="46.47728" lon="5.68095">
        <ele>539.92</ele>
        <time>2022-07-21T12:12:54Z</time>
      </trkpt>
      <trkpt lat="46.47728" lon="5.68093">
        <ele>539.92</ele>
        <time>2022-07-21T12:12:55Z</time>
      </trkpt>
      <trkpt lat="46.47732" lon="5.68079">
        <ele>539.92</ele>
        <time>2022-07-21T12:13:04Z</time>
      </trkpt>
      <trkpt lat="46.47724" lon="5.68067">
        <ele>539.92</ele>
        <time>2022-07-21T12:13:14Z</time>
      </trkpt>
      <trkpt lat="46.47714" lon="5.68062">
        <ele>540.4</ele>
        <time>2022-07-21T12:13:28Z</time>
      </trkpt>
      <trkpt lat="46.47706" lon="5.6806">
        <ele>541.36</ele>
        <time>2022-07-21T12:13:40Z</time>
      </trkpt>
      <trkpt lat="46.47688" lon="5.68069">
        <ele>541.36</ele>
        <time>2022-07-21T12:13:56Z</time>
      </trkpt>
      <trkpt lat="46.47678" lon="5.68066">
        <ele>542.8</ele>
        <time>2022-07-21T12:14:09Z</time>
      </trkpt>
      <trkpt lat="46.47676" lon="5.68065">
        <ele>543.28</ele>
        <time>2022-07-21T12:14:10Z</time>
      </trkpt>
      <trkpt lat="46.47668" lon="5.68056">
        <ele>542.8</ele>
        <time>2022-07-21T12:14:25Z</time>
      </trkpt>
      <trkpt lat="46.47666" lon="5.68052">
        <ele>542.32</ele>
        <time>2022-07-21T12:14:42Z</time>
      </trkpt>
      <trkpt lat="46.47668" lon="5.6805">
        <ele>542.8</ele>
        <time>2022-07-21T12:14:59Z</time>
      </trkpt>
      <trkpt lat="46.47673" lon="5.68049">
        <ele>541.84</ele>
        <time>2022-07-21T12:15:14Z</time>
      </trkpt>
      <trkpt lat="46.47665" lon="5.68053">
        <ele>541.84</ele>
        <time>2022-07-21T12:15:34Z</time>
      </trkpt>
      <trkpt lat="46.47664" lon="5.68048">
        <ele>542.32</ele>
        <time>2022-07-21T12:15:55Z</time>
      </trkpt>
      <trkpt lat="46.47662" lon="5.68053">
        <ele>541.84</ele>
        <time>2022-07-21T12:16:04Z</time>
      </trkpt>
      <trkpt lat="46.47662" lon="5.68055">
        <ele>542.32</ele>
        <time>2022-07-21T12:16:14Z</time>
      </trkpt>
      <trkpt lat="46.47651" lon="5.68058">
        <ele>540.4</ele>
        <time>2022-07-21T12:16:28Z</time>
      </trkpt>
      <trkpt lat="46.47646" lon="5.68059">
        <ele>539.44</ele>
        <time>2022-07-21T12:16:35Z</time>
      </trkpt>
      <trkpt lat="46.4764" lon="5.68063">
        <ele>539.44</ele>
        <time>2022-07-21T12:16:40Z</time>
      </trkpt>
      <trkpt lat="46.47634" lon="5.68064">
        <ele>538.48</ele>
        <time>2022-07-21T12:16:47Z</time>
      </trkpt>
      <trkpt lat="46.47623" lon="5.68067">
        <ele>538.96</ele>
        <time>2022-07-21T12:16:59Z</time>
      </trkpt>
      <trkpt lat="46.47614" lon="5.68067">
        <ele>538.96</ele>
        <time>2022-07-21T12:17:06Z</time>
      </trkpt>
      <trkpt lat="46.47604" lon="5.68073">
        <ele>539.44</ele>
        <time>2022-07-21T12:17:17Z</time>
      </trkpt>
      <trkpt lat="46.47599" lon="5.68071">
        <ele>539.92</ele>
        <time>2022-07-21T12:17:21Z</time>
      </trkpt>
      <trkpt lat="46.47593" lon="5.68068">
        <ele>540.4</ele>
        <time>2022-07-21T12:17:27Z</time>
      </trkpt>
      <trkpt lat="46.47582" lon="5.68066">
        <ele>540.88</ele>
        <time>2022-07-21T12:17:36Z</time>
      </trkpt>
      <trkpt lat="46.47571" lon="5.6807">
        <ele>541.84</ele>
        <time>2022-07-21T12:17:50Z</time>
      </trkpt>
      <trkpt lat="46.47561" lon="5.68076">
        <ele>544.72</ele>
        <time>2022-07-21T12:18:03Z</time>
      </trkpt>
      <trkpt lat="46.47545" lon="5.68074">
        <ele>544.72</ele>
        <time>2022-07-21T12:18:18Z</time>
      </trkpt>
      <trkpt lat="46.47532" lon="5.6807">
        <ele>545.2</ele>
        <time>2022-07-21T12:18:29Z</time>
      </trkpt>
      <trkpt lat="46.47517" lon="5.68064">
        <ele>546.65</ele>
        <time>2022-07-21T12:18:43Z</time>
      </trkpt>
      <trkpt lat="46.47509" lon="5.68062">
        <ele>546.65</ele>
        <time>2022-07-21T12:18:53Z</time>
      </trkpt>
      <trkpt lat="46.47504" lon="5.68061">
        <ele>546.65</ele>
        <time>2022-07-21T12:18:57Z</time>
      </trkpt>
      <trkpt lat="46.47502" lon="5.6806">
        <ele>546.17</ele>
        <time>2022-07-21T12:18:58Z</time>
      </trkpt>
      <trkpt lat="46.47501" lon="5.6806">
        <ele>546.17</ele>
        <time>2022-07-21T12:18:59Z</time>
      </trkpt>
      <trkpt lat="46.47498" lon="5.68058">
        <ele>546.17</ele>
        <time>2022-07-21T12:19:02Z</time>
      </trkpt>
      <trkpt lat="46.47497" lon="5.68058">
        <ele>546.17</ele>
        <time>2022-07-21T12:19:03Z</time>
      </trkpt>
      <trkpt lat="46.47496" lon="5.68057">
        <ele>546.17</ele>
        <time>2022-07-21T12:19:04Z</time>
      </trkpt>
      <trkpt lat="46.47494" lon="5.68056">
        <ele>545.69</ele>
        <time>2022-07-21T12:19:05Z</time>
      </trkpt>
      <trkpt lat="46.47486" lon="5.68044">
        <ele>546.17</ele>
        <time>2022-07-21T12:19:17Z</time>
      </trkpt>
      <trkpt lat="46.47481" lon="5.6804">
        <ele>545.69</ele>
        <time>2022-07-21T12:19:23Z</time>
      </trkpt>
      <trkpt lat="46.4748" lon="5.6804">
        <ele>545.69</ele>
        <time>2022-07-21T12:19:24Z</time>
      </trkpt>
      <trkpt lat="46.47478" lon="5.68039">
        <ele>545.2</ele>
        <time>2022-07-21T12:19:25Z</time>
      </trkpt>
      <trkpt lat="46.47476" lon="5.68038">
        <ele>544.72</ele>
        <time>2022-07-21T12:19:26Z</time>
      </trkpt>
      <trkpt lat="46.47474" lon="5.68036">
        <ele>545.2</ele>
        <time>2022-07-21T12:19:27Z</time>
      </trkpt>
      <trkpt lat="46.47473" lon="5.68035">
        <ele>545.2</ele>
        <time>2022-07-21T12:19:28Z</time>
      </trkpt>
      <trkpt lat="46.47471" lon="5.68034">
        <ele>544.72</ele>
        <time>2022-07-21T12:19:29Z</time>
      </trkpt>
      <trkpt lat="46.47455" lon="5.6802">
        <ele>542.32</ele>
        <time>2022-07-21T12:19:40Z</time>
      </trkpt>
      <trkpt lat="46.47449" lon="5.68021">
        <ele>541.84</ele>
        <time>2022-07-21T12:19:50Z</time>
      </trkpt>
      <trkpt lat="46.47448" lon="5.68028">
        <ele>542.32</ele>
        <time>2022-07-21T12:20:09Z</time>
      </trkpt>
      <trkpt lat="46.47446" lon="5.68032">
        <ele>541.84</ele>
        <time>2022-07-21T12:20:18Z</time>
      </trkpt>
      <trkpt lat="46.4744" lon="5.68031">
        <ele>541.84</ele>
        <time>2022-07-21T12:20:29Z</time>
      </trkpt>
      <trkpt lat="46.47442" lon="5.68032">
        <ele>541.84</ele>
        <time>2022-07-21T12:20:40Z</time>
      </trkpt>
      <trkpt lat="46.47442" lon="5.68039">
        <ele>541.36</ele>
        <time>2022-07-21T12:20:45Z</time>
      </trkpt>
      <trkpt lat="46.47447" lon="5.68069">
        <ele>542.32</ele>
        <time>2022-07-21T12:21:02Z</time>
      </trkpt>
      <trkpt lat="46.47448" lon="5.68093">
        <ele>542.8</ele>
        <time>2022-07-21T12:21:15Z</time>
      </trkpt>
      <trkpt lat="46.47454" lon="5.68119">
        <ele>542.8</ele>
        <time>2022-07-21T12:21:31Z</time>
      </trkpt>
      <trkpt lat="46.47456" lon="5.6813">
        <ele>542.8</ele>
        <time>2022-07-21T12:21:36Z</time>
      </trkpt>
      <trkpt lat="46.47455" lon="5.68131">
        <ele>542.8</ele>
        <time>2022-07-21T12:21:37Z</time>
      </trkpt>
      <trkpt lat="46.47456" lon="5.68133">
        <ele>543.28</ele>
        <time>2022-07-21T12:21:38Z</time>
      </trkpt>
      <trkpt lat="46.4746" lon="5.68151">
        <ele>543.76</ele>
        <time>2022-07-21T12:21:50Z</time>
      </trkpt>
      <trkpt lat="46.47463" lon="5.68172">
        <ele>545.2</ele>
        <time>2022-07-21T12:22:03Z</time>
      </trkpt>
      <trkpt lat="46.47468" lon="5.68195">
        <ele>546.65</ele>
        <time>2022-07-21T12:22:17Z</time>
      </trkpt>
      <trkpt lat="46.47472" lon="5.6822">
        <ele>547.13</ele>
        <time>2022-07-21T12:22:30Z</time>
      </trkpt>
      <trkpt lat="46.47479" lon="5.68238">
        <ele>546.17</ele>
        <time>2022-07-21T12:22:41Z</time>
      </trkpt>
      <trkpt lat="46.47494" lon="5.6825">
        <ele>545.69</ele>
        <time>2022-07-21T12:22:56Z</time>
      </trkpt>
      <trkpt lat="46.47505" lon="5.68264">
        <ele>545.2</ele>
        <time>2022-07-21T12:23:08Z</time>
      </trkpt>
      <trkpt lat="46.47513" lon="5.68291">
        <ele>543.76</ele>
        <time>2022-07-21T12:23:23Z</time>
      </trkpt>
      <trkpt lat="46.47513" lon="5.68293">
        <ele>544.24</ele>
        <time>2022-07-21T12:23:24Z</time>
      </trkpt>
      <trkpt lat="46.47514" lon="5.68295">
        <ele>544.24</ele>
        <time>2022-07-21T12:23:25Z</time>
      </trkpt>
      <trkpt lat="46.47513" lon="5.68297">
        <ele>544.24</ele>
        <time>2022-07-21T12:23:26Z</time>
      </trkpt>
      <trkpt lat="46.47513" lon="5.68299">
        <ele>544.72</ele>
        <time>2022-07-21T12:23:27Z</time>
      </trkpt>
      <trkpt lat="46.47513" lon="5.68301">
        <ele>543.76</ele>
        <time>2022-07-21T12:23:28Z</time>
      </trkpt>
      <trkpt lat="46.47513" lon="5.68303">
        <ele>544.24</ele>
        <time>2022-07-21T12:23:29Z</time>
      </trkpt>
      <trkpt lat="46.47513" lon="5.68305">
        <ele>544.24</ele>
        <time>2022-07-21T12:23:30Z</time>
      </trkpt>
      <trkpt lat="46.47512" lon="5.68307">
        <ele>544.24</ele>
        <time>2022-07-21T12:23:31Z</time>
      </trkpt>
      <trkpt lat="46.47511" lon="5.68318">
        <ele>543.76</ele>
        <time>2022-07-21T12:23:37Z</time>
      </trkpt>
      <trkpt lat="46.4751" lon="5.6832">
        <ele>543.76</ele>
        <time>2022-07-21T12:23:38Z</time>
      </trkpt>
      <trkpt lat="46.4751" lon="5.68321">
        <ele>543.76</ele>
        <time>2022-07-21T12:23:39Z</time>
      </trkpt>
      <trkpt lat="46.47497" lon="5.6834">
        <ele>542.32</ele>
        <time>2022-07-21T12:23:54Z</time>
      </trkpt>
      <trkpt lat="46.47495" lon="5.68338">
        <ele>542.32</ele>
        <time>2022-07-21T12:23:57Z</time>
      </trkpt>
      <trkpt lat="46.47487" lon="5.68319">
        <ele>542.32</ele>
        <time>2022-07-21T12:24:10Z</time>
      </trkpt>
      <trkpt lat="46.47471" lon="5.68305">
        <ele>542.32</ele>
        <time>2022-07-21T12:24:23Z</time>
      </trkpt>
      <trkpt lat="46.47455" lon="5.68293">
        <ele>542.32</ele>
        <time>2022-07-21T12:24:37Z</time>
      </trkpt>
      <trkpt lat="46.4744" lon="5.68285">
        <ele>542.8</ele>
        <time>2022-07-21T12:24:51Z</time>
      </trkpt>
      <trkpt lat="46.47418" lon="5.68276">
        <ele>542.8</ele>
        <time>2022-07-21T12:25:07Z</time>
      </trkpt>
      <trkpt lat="46.47414" lon="5.68275">
        <ele>542.8</ele>
        <time>2022-07-21T12:25:12Z</time>
      </trkpt>
      <trkpt lat="46.47412" lon="5.68275">
        <ele>542.8</ele>
        <time>2022-07-21T12:25:13Z</time>
      </trkpt>
      <trkpt lat="46.47411" lon="5.68276">
        <ele>542.8</ele>
        <time>2022-07-21T12:25:14Z</time>
      </trkpt>
      <trkpt lat="46.47409" lon="5.68277">
        <ele>543.28</ele>
        <time>2022-07-21T12:25:15Z</time>
      </trkpt>
      <trkpt lat="46.47408" lon="5.68277">
        <ele>542.8</ele>
        <time>2022-07-21T12:25:16Z</time>
      </trkpt>
      <trkpt lat="46.47407" lon="5.68278">
        <ele>542.8</ele>
        <time>2022-07-21T12:25:17Z</time>
      </trkpt>
      <trkpt lat="46.47405" lon="5.68278">
        <ele>542.8</ele>
        <time>2022-07-21T12:25:18Z</time>
      </trkpt>
      <trkpt lat="46.47382" lon="5.68284">
        <ele>543.76</ele>
        <time>2022-07-21T12:25:35Z</time>
      </trkpt>
      <trkpt lat="46.47377" lon="5.68284">
        <ele>542.8</ele>
        <time>2022-07-21T12:25:45Z</time>
      </trkpt>
      <trkpt lat="46.47376" lon="5.68282">
        <ele>543.28</ele>
        <time>2022-07-21T12:25:46Z</time>
      </trkpt>
      <trkpt lat="46.47375" lon="5.68281">
        <ele>543.28</ele>
        <time>2022-07-21T12:25:47Z</time>
      </trkpt>
      <trkpt lat="46.47374" lon="5.6828">
        <ele>543.28</ele>
        <time>2022-07-21T12:25:48Z</time>
      </trkpt>
      <trkpt lat="46.47373" lon="5.68279">
        <ele>543.76</ele>
        <time>2022-07-21T12:25:49Z</time>
      </trkpt>
      <trkpt lat="46.47372" lon="5.68279">
        <ele>543.28</ele>
        <time>2022-07-21T12:25:50Z</time>
      </trkpt>
      <trkpt lat="46.47371" lon="5.68278">
        <ele>543.76</ele>
        <time>2022-07-21T12:25:51Z</time>
      </trkpt>
      <trkpt lat="46.47346" lon="5.68284">
        <ele>543.76</ele>
        <time>2022-07-21T12:26:11Z</time>
      </trkpt>
      <trkpt lat="46.47328" lon="5.68299">
        <ele>542.8</ele>
        <time>2022-07-21T12:26:27Z</time>
      </trkpt>
      <trkpt lat="46.47313" lon="5.68311">
        <ele>542.8</ele>
        <time>2022-07-21T12:26:41Z</time>
      </trkpt>
      <trkpt lat="46.47298" lon="5.68328">
        <ele>543.76</ele>
        <time>2022-07-21T12:26:56Z</time>
      </trkpt>
      <trkpt lat="46.47283" lon="5.68342">
        <ele>544.72</ele>
        <time>2022-07-21T12:27:10Z</time>
      </trkpt>
      <trkpt lat="46.47272" lon="5.68353">
        <ele>544.72</ele>
        <time>2022-07-21T12:27:23Z</time>
      </trkpt>
      <trkpt lat="46.47271" lon="5.68353">
        <ele>544.72</ele>
        <time>2022-07-21T12:27:24Z</time>
      </trkpt>
      <trkpt lat="46.4727" lon="5.68355">
        <ele>544.72</ele>
        <time>2022-07-21T12:27:25Z</time>
      </trkpt>
      <trkpt lat="46.47261" lon="5.68378">
        <ele>545.69</ele>
        <time>2022-07-21T12:27:39Z</time>
      </trkpt>
      <trkpt lat="46.47259" lon="5.68401">
        <ele>546.65</ele>
        <time>2022-07-21T12:27:52Z</time>
      </trkpt>
      <trkpt lat="46.47254" lon="5.68429">
        <ele>547.13</ele>
        <time>2022-07-21T12:28:09Z</time>
      </trkpt>
      <trkpt lat="46.47249" lon="5.68451">
        <ele>547.61</ele>
        <time>2022-07-21T12:28:22Z</time>
      </trkpt>
      <trkpt lat="46.47248" lon="5.68453">
        <ele>547.61</ele>
        <time>2022-07-21T12:28:24Z</time>
      </trkpt>
      <trkpt lat="46.47245" lon="5.68485">
        <ele>548.57</ele>
        <time>2022-07-21T12:28:40Z</time>
      </trkpt>
      <trkpt lat="46.47238" lon="5.68501">
        <ele>549.05</ele>
        <time>2022-07-21T12:28:52Z</time>
      </trkpt>
      <trkpt lat="46.47227" lon="5.68528">
        <ele>549.53</ele>
        <time>2022-07-21T12:29:09Z</time>
      </trkpt>
      <trkpt lat="46.47221" lon="5.68553">
        <ele>550.01</ele>
        <time>2022-07-21T12:29:23Z</time>
      </trkpt>
      <trkpt lat="46.47208" lon="5.68579">
        <ele>550.01</ele>
        <time>2022-07-21T12:29:38Z</time>
      </trkpt>
      <trkpt lat="46.47197" lon="5.68597">
        <ele>550.01</ele>
        <time>2022-07-21T12:29:51Z</time>
      </trkpt>
      <trkpt lat="46.47192" lon="5.68608">
        <ele>549.53</ele>
        <time>2022-07-21T12:29:57Z</time>
      </trkpt>
      <trkpt lat="46.47186" lon="5.68621">
        <ele>549.05</ele>
        <time>2022-07-21T12:30:06Z</time>
      </trkpt>
      <trkpt lat="46.47169" lon="5.68638">
        <ele>549.53</ele>
        <time>2022-07-21T12:30:23Z</time>
      </trkpt>
      <trkpt lat="46.47155" lon="5.68649">
        <ele>550.01</ele>
        <time>2022-07-21T12:30:36Z</time>
      </trkpt>
      <trkpt lat="46.47133" lon="5.68654">
        <ele>550.97</ele>
        <time>2022-07-21T12:30:52Z</time>
      </trkpt>
      <trkpt lat="46.47114" lon="5.68649">
        <ele>548.57</ele>
        <time>2022-07-21T12:31:08Z</time>
      </trkpt>
      <trkpt lat="46.47101" lon="5.68645">
        <ele>545.69</ele>
        <time>2022-07-21T12:31:22Z</time>
      </trkpt>
      <trkpt lat="46.47078" lon="5.68642">
        <ele>544.72</ele>
        <time>2022-07-21T12:31:36Z</time>
      </trkpt>
      <trkpt lat="46.4707" lon="5.68646">
        <ele>544.72</ele>
        <time>2022-07-21T12:31:48Z</time>
      </trkpt>
      <trkpt lat="46.4707" lon="5.68653">
        <ele>544.72</ele>
        <time>2022-07-21T12:32:02Z</time>
      </trkpt>
      <trkpt lat="46.4707" lon="5.68654">
        <ele>544.24</ele>
        <time>2022-07-21T12:32:04Z</time>
      </trkpt>
      <trkpt lat="46.47068" lon="5.68679">
        <ele>545.69</ele>
        <time>2022-07-21T12:32:18Z</time>
      </trkpt>
      <trkpt lat="46.47064" lon="5.68696">
        <ele>547.13</ele>
        <time>2022-07-21T12:32:33Z</time>
      </trkpt>
      <trkpt lat="46.47051" lon="5.68712">
        <ele>548.09</ele>
        <time>2022-07-21T12:32:46Z</time>
      </trkpt>
      <trkpt lat="46.47033" lon="5.68717">
        <ele>546.65</ele>
        <time>2022-07-21T12:33:02Z</time>
      </trkpt>
      <trkpt lat="46.47017" lon="5.68722">
        <ele>545.2</ele>
        <time>2022-07-21T12:33:14Z</time>
      </trkpt>
      <trkpt lat="46.47015" lon="5.68722">
        <ele>545.2</ele>
        <time>2022-07-21T12:33:18Z</time>
      </trkpt>
      <trkpt lat="46.47011" lon="5.68738">
        <ele>545.2</ele>
        <time>2022-07-21T12:33:28Z</time>
      </trkpt>
      <trkpt lat="46.47016" lon="5.68754">
        <ele>545.69</ele>
        <time>2022-07-21T12:33:37Z</time>
      </trkpt>
      <trkpt lat="46.47022" lon="5.68779">
        <ele>546.17</ele>
        <time>2022-07-21T12:33:53Z</time>
      </trkpt>
      <trkpt lat="46.47027" lon="5.68807">
        <ele>546.17</ele>
        <time>2022-07-21T12:34:09Z</time>
      </trkpt>
      <trkpt lat="46.47032" lon="5.68836">
        <ele>547.61</ele>
        <time>2022-07-21T12:34:25Z</time>
      </trkpt>
      <trkpt lat="46.47037" lon="5.6886">
        <ele>547.61</ele>
        <time>2022-07-21T12:34:39Z</time>
      </trkpt>
      <trkpt lat="46.4704" lon="5.68883">
        <ele>548.09</ele>
        <time>2022-07-21T12:34:54Z</time>
      </trkpt>
      <trkpt lat="46.47041" lon="5.68886">
        <ele>547.13</ele>
        <time>2022-07-21T12:34:56Z</time>
      </trkpt>
      <trkpt lat="46.47045" lon="5.68911">
        <ele>546.65</ele>
        <time>2022-07-21T12:35:10Z</time>
      </trkpt>
      <trkpt lat="46.47048" lon="5.68935">
        <ele>546.17</ele>
        <time>2022-07-21T12:35:23Z</time>
      </trkpt>
      <trkpt lat="46.47052" lon="5.68959">
        <ele>545.2</ele>
        <time>2022-07-21T12:35:35Z</time>
      </trkpt>
      <trkpt lat="46.47053" lon="5.68967">
        <ele>544.72</ele>
        <time>2022-07-21T12:35:42Z</time>
      </trkpt>
      <trkpt lat="46.47053" lon="5.68969">
        <ele>544.24</ele>
        <time>2022-07-21T12:35:43Z</time>
      </trkpt>
      <trkpt lat="46.47054" lon="5.68972">
        <ele>544.24</ele>
        <time>2022-07-21T12:35:44Z</time>
      </trkpt>
      <trkpt lat="46.47055" lon="5.68975">
        <ele>544.24</ele>
        <time>2022-07-21T12:35:45Z</time>
      </trkpt>
      <trkpt lat="46.47055" lon="5.68977">
        <ele>543.76</ele>
        <time>2022-07-21T12:35:46Z</time>
      </trkpt>
      <trkpt lat="46.47058" lon="5.68999">
        <ele>543.28</ele>
        <time>2022-07-21T12:36:00Z</time>
      </trkpt>
      <trkpt lat="46.4705" lon="5.69014">
        <ele>541.36</ele>
        <time>2022-07-21T12:36:13Z</time>
      </trkpt>
      <trkpt lat="46.47049" lon="5.69016">
        <ele>541.84</ele>
        <time>2022-07-21T12:36:14Z</time>
      </trkpt>
      <trkpt lat="46.47048" lon="5.69017">
        <ele>541.36</ele>
        <time>2022-07-21T12:36:15Z</time>
      </trkpt>
      <trkpt lat="46.47046" lon="5.69016">
        <ele>541.84</ele>
        <time>2022-07-21T12:36:16Z</time>
      </trkpt>
      <trkpt lat="46.47045" lon="5.69016">
        <ele>541.36</ele>
        <time>2022-07-21T12:36:17Z</time>
      </trkpt>
      <trkpt lat="46.47044" lon="5.69015">
        <ele>541.36</ele>
        <time>2022-07-21T12:36:18Z</time>
      </trkpt>
      <trkpt lat="46.47043" lon="5.69014">
        <ele>541.84</ele>
        <time>2022-07-21T12:36:19Z</time>
      </trkpt>
      <trkpt lat="46.47038" lon="5.6901">
        <ele>542.32</ele>
        <time>2022-07-21T12:36:32Z</time>
      </trkpt>
      <trkpt lat="46.47037" lon="5.69009">
        <ele>541.84</ele>
        <time>2022-07-21T12:36:34Z</time>
      </trkpt>
      <trkpt lat="46.47033" lon="5.69006">
        <ele>542.32</ele>
        <time>2022-07-21T12:36:39Z</time>
      </trkpt>
      <trkpt lat="46.47032" lon="5.69003">
        <ele>542.32</ele>
        <time>2022-07-21T12:36:41Z</time>
      </trkpt>
      <trkpt lat="46.47027" lon="5.68981">
        <ele>542.8</ele>
        <time>2022-07-21T12:36:56Z</time>
      </trkpt>
      <trkpt lat="46.47022" lon="5.68974">
        <ele>542.32</ele>
        <time>2022-07-21T12:37:06Z</time>
      </trkpt>
      <trkpt lat="46.47023" lon="5.68969">
        <ele>542.8</ele>
        <time>2022-07-21T12:37:09Z</time>
      </trkpt>
      <trkpt lat="46.47023" lon="5.68967">
        <ele>542.8</ele>
        <time>2022-07-21T12:37:10Z</time>
      </trkpt>
      <trkpt lat="46.47022" lon="5.68949">
        <ele>544.24</ele>
        <time>2022-07-21T12:37:22Z</time>
      </trkpt>
      <trkpt lat="46.47017" lon="5.68925">
        <ele>545.69</ele>
        <time>2022-07-21T12:37:35Z</time>
      </trkpt>
      <trkpt lat="46.47016" lon="5.68924">
        <ele>546.17</ele>
        <time>2022-07-21T12:37:36Z</time>
      </trkpt>
      <trkpt lat="46.47016" lon="5.68922">
        <ele>545.69</ele>
        <time>2022-07-21T12:37:37Z</time>
      </trkpt>
      <trkpt lat="46.47015" lon="5.6892">
        <ele>546.17</ele>
        <time>2022-07-21T12:37:38Z</time>
      </trkpt>
      <trkpt lat="46.47014" lon="5.68918">
        <ele>545.69</ele>
        <time>2022-07-21T12:37:39Z</time>
      </trkpt>
      <trkpt lat="46.47007" lon="5.68908">
        <ele>545.69</ele>
        <time>2022-07-21T12:37:48Z</time>
      </trkpt>
      <trkpt lat="46.47005" lon="5.68907">
        <ele>545.69</ele>
        <time>2022-07-21T12:37:49Z</time>
      </trkpt>
      <trkpt lat="46.47004" lon="5.68906">
        <ele>545.69</ele>
        <time>2022-07-21T12:37:50Z</time>
      </trkpt>
      <trkpt lat="46.47003" lon="5.68905">
        <ele>545.69</ele>
        <time>2022-07-21T12:37:51Z</time>
      </trkpt>
      <trkpt lat="46.47001" lon="5.68901">
        <ele>545.2</ele>
        <time>2022-07-21T12:38:02Z</time>
      </trkpt>
    </trkseg>
  </trk>
</gpx>